<?xml version="1.0" encoding="UTF-8" standalone="no" ?>
<gpx xmlns="http://www.topografix.com/GPX/1/1" xmlns:xsi="http://www.w3.org/2001/XMLSchema-instance" xsi:schemaLocation="http://www.topografix.com/GPX/1/1 http://www.topografix.com/GPX/1/1/gpx.xsd" version="1.1" creator="VisuGPX - https://www.visugpx.com">
  <metadata>
    <name>Rando des vignobles jurassiens</name>
    <desc><![CDATA[Une sympathique balade au milieu des vignes avec découverte au passage de superbes villages et châteaux.  ]]></desc>
  </metadata>
  <trk>
    <name><![CDATA[21-AVR-13 15:38:32]]></name>
    <trkseg>
      <trkpt lat="46.75624" lon="5.61233">
        <ele>251.04</ele>
        <time>2013-04-21T06:48:34Z</time>
      </trkpt>
      <trkpt lat="46.75623" lon="5.61229">
        <ele>251.04</ele>
        <time>2013-04-21T06:49:03Z</time>
      </trkpt>
      <trkpt lat="46.75623" lon="5.61224">
        <ele>251.04</ele>
        <time>2013-04-21T06:49:23Z</time>
      </trkpt>
      <trkpt lat="46.75619" lon="5.61218">
        <ele>251.04</ele>
        <time>2013-04-21T06:49:56Z</time>
      </trkpt>
      <trkpt lat="46.75621" lon="5.61219">
        <ele>251.04</ele>
        <time>2013-04-21T06:50:32Z</time>
      </trkpt>
      <trkpt lat="46.7562" lon="5.61216">
        <ele>251.04</ele>
        <time>2013-04-21T06:51:10Z</time>
      </trkpt>
      <trkpt lat="46.75621" lon="5.61217">
        <ele>251.04</ele>
        <time>2013-04-21T06:51:15Z</time>
      </trkpt>
      <trkpt lat="46.75623" lon="5.61227">
        <ele>252.48</ele>
        <time>2013-04-21T06:51:27Z</time>
      </trkpt>
      <trkpt lat="46.75625" lon="5.61231">
        <ele>252.48</ele>
        <time>2013-04-21T06:51:43Z</time>
      </trkpt>
      <trkpt lat="46.75623" lon="5.61234">
        <ele>252.48</ele>
        <time>2013-04-21T06:51:57Z</time>
      </trkpt>
      <trkpt lat="46.75621" lon="5.61233">
        <ele>252.48</ele>
        <time>2013-04-21T06:52:22Z</time>
      </trkpt>
      <trkpt lat="46.7562" lon="5.61236">
        <ele>252.48</ele>
        <time>2013-04-21T06:52:41Z</time>
      </trkpt>
      <trkpt lat="46.75616" lon="5.61245">
        <ele>252.96</ele>
        <time>2013-04-21T06:52:55Z</time>
      </trkpt>
      <trkpt lat="46.75618" lon="5.61258">
        <ele>253.44</ele>
        <time>2013-04-21T06:53:08Z</time>
      </trkpt>
      <trkpt lat="46.75619" lon="5.6126">
        <ele>252.96</ele>
        <time>2013-04-21T06:53:12Z</time>
      </trkpt>
      <trkpt lat="46.75622" lon="5.61264">
        <ele>252.96</ele>
        <time>2013-04-21T06:53:17Z</time>
      </trkpt>
      <trkpt lat="46.75625" lon="5.61268">
        <ele>252.96</ele>
        <time>2013-04-21T06:53:20Z</time>
      </trkpt>
      <trkpt lat="46.75631" lon="5.61276">
        <ele>252.96</ele>
        <time>2013-04-21T06:53:28Z</time>
      </trkpt>
      <trkpt lat="46.75643" lon="5.61293">
        <ele>252.96</ele>
        <time>2013-04-21T06:53:43Z</time>
      </trkpt>
      <trkpt lat="46.75653" lon="5.61311">
        <ele>252.96</ele>
        <time>2013-04-21T06:53:59Z</time>
      </trkpt>
      <trkpt lat="46.75667" lon="5.61331">
        <ele>252.48</ele>
        <time>2013-04-21T06:54:17Z</time>
      </trkpt>
      <trkpt lat="46.75672" lon="5.61342">
        <ele>252.48</ele>
        <time>2013-04-21T06:54:26Z</time>
      </trkpt>
      <trkpt lat="46.75683" lon="5.61362">
        <ele>252.48</ele>
        <time>2013-04-21T06:54:44Z</time>
      </trkpt>
      <trkpt lat="46.75696" lon="5.61387">
        <ele>252</ele>
        <time>2013-04-21T06:55:05Z</time>
      </trkpt>
      <trkpt lat="46.75703" lon="5.614">
        <ele>252.48</ele>
        <time>2013-04-21T06:55:14Z</time>
      </trkpt>
      <trkpt lat="46.75709" lon="5.61415">
        <ele>252</ele>
        <time>2013-04-21T06:55:25Z</time>
      </trkpt>
      <trkpt lat="46.75716" lon="5.61433">
        <ele>252</ele>
        <time>2013-04-21T06:55:40Z</time>
      </trkpt>
      <trkpt lat="46.75725" lon="5.61451">
        <ele>252</ele>
        <time>2013-04-21T06:55:56Z</time>
      </trkpt>
      <trkpt lat="46.75738" lon="5.61468">
        <ele>252</ele>
        <time>2013-04-21T06:56:13Z</time>
      </trkpt>
      <trkpt lat="46.75756" lon="5.61486">
        <ele>252</ele>
        <time>2013-04-21T06:56:28Z</time>
      </trkpt>
      <trkpt lat="46.75771" lon="5.61511">
        <ele>252.48</ele>
        <time>2013-04-21T06:56:48Z</time>
      </trkpt>
      <trkpt lat="46.75777" lon="5.61525">
        <ele>252.48</ele>
        <time>2013-04-21T06:56:59Z</time>
      </trkpt>
      <trkpt lat="46.75788" lon="5.61544">
        <ele>252.96</ele>
        <time>2013-04-21T06:57:14Z</time>
      </trkpt>
      <trkpt lat="46.75793" lon="5.61552">
        <ele>252.48</ele>
        <time>2013-04-21T06:57:21Z</time>
      </trkpt>
      <trkpt lat="46.75814" lon="5.61562">
        <ele>251.52</ele>
        <time>2013-04-21T06:57:42Z</time>
      </trkpt>
      <trkpt lat="46.75815" lon="5.61562">
        <ele>251.52</ele>
        <time>2013-04-21T06:57:43Z</time>
      </trkpt>
      <trkpt lat="46.7584" lon="5.61552">
        <ele>251.52</ele>
        <time>2013-04-21T06:58:05Z</time>
      </trkpt>
      <trkpt lat="46.75862" lon="5.61542">
        <ele>251.52</ele>
        <time>2013-04-21T06:58:24Z</time>
      </trkpt>
      <trkpt lat="46.75883" lon="5.61527">
        <ele>251.52</ele>
        <time>2013-04-21T06:58:44Z</time>
      </trkpt>
      <trkpt lat="46.75908" lon="5.61511">
        <ele>252</ele>
        <time>2013-04-21T06:59:06Z</time>
      </trkpt>
      <trkpt lat="46.75916" lon="5.61505">
        <ele>252</ele>
        <time>2013-04-21T06:59:19Z</time>
      </trkpt>
      <trkpt lat="46.75936" lon="5.61491">
        <ele>252.48</ele>
        <time>2013-04-21T06:59:39Z</time>
      </trkpt>
      <trkpt lat="46.75957" lon="5.61482">
        <ele>252.96</ele>
        <time>2013-04-21T06:59:58Z</time>
      </trkpt>
      <trkpt lat="46.75978" lon="5.61474">
        <ele>253.44</ele>
        <time>2013-04-21T07:00:17Z</time>
      </trkpt>
      <trkpt lat="46.75986" lon="5.61463">
        <ele>253.44</ele>
        <time>2013-04-21T07:00:28Z</time>
      </trkpt>
      <trkpt lat="46.7598" lon="5.61429">
        <ele>252.48</ele>
        <time>2013-04-21T07:00:49Z</time>
      </trkpt>
      <trkpt lat="46.75979" lon="5.61411">
        <ele>252</ele>
        <time>2013-04-21T07:01:00Z</time>
      </trkpt>
      <trkpt lat="46.75986" lon="5.61376">
        <ele>251.52</ele>
        <time>2013-04-21T07:01:20Z</time>
      </trkpt>
      <trkpt lat="46.75989" lon="5.61344">
        <ele>251.04</ele>
        <time>2013-04-21T07:01:39Z</time>
      </trkpt>
      <trkpt lat="46.76" lon="5.61304">
        <ele>250.56</ele>
        <time>2013-04-21T07:02:03Z</time>
      </trkpt>
      <trkpt lat="46.76012" lon="5.61276">
        <ele>249.6</ele>
        <time>2013-04-21T07:02:21Z</time>
      </trkpt>
      <trkpt lat="46.76033" lon="5.61254">
        <ele>248.64</ele>
        <time>2013-04-21T07:02:43Z</time>
      </trkpt>
      <trkpt lat="46.76052" lon="5.61233">
        <ele>249.12</ele>
        <time>2013-04-21T07:03:02Z</time>
      </trkpt>
      <trkpt lat="46.76066" lon="5.61206">
        <ele>249.6</ele>
        <time>2013-04-21T07:03:19Z</time>
      </trkpt>
      <trkpt lat="46.76075" lon="5.61184">
        <ele>249.6</ele>
        <time>2013-04-21T07:03:37Z</time>
      </trkpt>
      <trkpt lat="46.76081" lon="5.61176">
        <ele>249.6</ele>
        <time>2013-04-21T07:03:45Z</time>
      </trkpt>
      <trkpt lat="46.76091" lon="5.61156">
        <ele>249.6</ele>
        <time>2013-04-21T07:04:01Z</time>
      </trkpt>
      <trkpt lat="46.76103" lon="5.61136">
        <ele>249.6</ele>
        <time>2013-04-21T07:04:18Z</time>
      </trkpt>
      <trkpt lat="46.76117" lon="5.61118">
        <ele>249.6</ele>
        <time>2013-04-21T07:04:35Z</time>
      </trkpt>
      <trkpt lat="46.76122" lon="5.61105">
        <ele>249.6</ele>
        <time>2013-04-21T07:04:42Z</time>
      </trkpt>
      <trkpt lat="46.7613" lon="5.61097">
        <ele>249.12</ele>
        <time>2013-04-21T07:04:49Z</time>
      </trkpt>
      <trkpt lat="46.76143" lon="5.61083">
        <ele>249.12</ele>
        <time>2013-04-21T07:05:02Z</time>
      </trkpt>
      <trkpt lat="46.76156" lon="5.6106">
        <ele>248.64</ele>
        <time>2013-04-21T07:05:16Z</time>
      </trkpt>
      <trkpt lat="46.76169" lon="5.61046">
        <ele>248.64</ele>
        <time>2013-04-21T07:05:31Z</time>
      </trkpt>
      <trkpt lat="46.76179" lon="5.61034">
        <ele>248.16</ele>
        <time>2013-04-21T07:05:46Z</time>
      </trkpt>
      <trkpt lat="46.76187" lon="5.61028">
        <ele>248.16</ele>
        <time>2013-04-21T07:05:59Z</time>
      </trkpt>
      <trkpt lat="46.76201" lon="5.61025">
        <ele>247.68</ele>
        <time>2013-04-21T07:06:13Z</time>
      </trkpt>
      <trkpt lat="46.76217" lon="5.61017">
        <ele>247.68</ele>
        <time>2013-04-21T07:06:28Z</time>
      </trkpt>
      <trkpt lat="46.76225" lon="5.61006">
        <ele>247.68</ele>
        <time>2013-04-21T07:06:35Z</time>
      </trkpt>
      <trkpt lat="46.76235" lon="5.60994">
        <ele>247.2</ele>
        <time>2013-04-21T07:06:46Z</time>
      </trkpt>
      <trkpt lat="46.76248" lon="5.60978">
        <ele>247.2</ele>
        <time>2013-04-21T07:07:03Z</time>
      </trkpt>
      <trkpt lat="46.76253" lon="5.6097">
        <ele>247.2</ele>
        <time>2013-04-21T07:07:10Z</time>
      </trkpt>
      <trkpt lat="46.76265" lon="5.6095">
        <ele>247.2</ele>
        <time>2013-04-21T07:07:29Z</time>
      </trkpt>
      <trkpt lat="46.7628" lon="5.60929">
        <ele>247.2</ele>
        <time>2013-04-21T07:07:50Z</time>
      </trkpt>
      <trkpt lat="46.76293" lon="5.60908">
        <ele>247.2</ele>
        <time>2013-04-21T07:08:09Z</time>
      </trkpt>
      <trkpt lat="46.76306" lon="5.60888">
        <ele>246.72</ele>
        <time>2013-04-21T07:08:26Z</time>
      </trkpt>
      <trkpt lat="46.76316" lon="5.60872">
        <ele>246.72</ele>
        <time>2013-04-21T07:08:42Z</time>
      </trkpt>
      <trkpt lat="46.76318" lon="5.60871">
        <ele>246.23</ele>
        <time>2013-04-21T07:09:00Z</time>
      </trkpt>
      <trkpt lat="46.76318" lon="5.6086">
        <ele>246.72</ele>
        <time>2013-04-21T07:09:28Z</time>
      </trkpt>
      <trkpt lat="46.76316" lon="5.60856">
        <ele>246.23</ele>
        <time>2013-04-21T07:09:54Z</time>
      </trkpt>
      <trkpt lat="46.76314" lon="5.6086">
        <ele>246.72</ele>
        <time>2013-04-21T07:10:14Z</time>
      </trkpt>
      <trkpt lat="46.76312" lon="5.60864">
        <ele>246.72</ele>
        <time>2013-04-21T07:10:31Z</time>
      </trkpt>
      <trkpt lat="46.76312" lon="5.60863">
        <ele>246.72</ele>
        <time>2013-04-21T07:10:54Z</time>
      </trkpt>
      <trkpt lat="46.76313" lon="5.60862">
        <ele>246.72</ele>
        <time>2013-04-21T07:11:19Z</time>
      </trkpt>
      <trkpt lat="46.76322" lon="5.6085">
        <ele>247.2</ele>
        <time>2013-04-21T07:11:33Z</time>
      </trkpt>
      <trkpt lat="46.76335" lon="5.6083">
        <ele>246.72</ele>
        <time>2013-04-21T07:11:49Z</time>
      </trkpt>
      <trkpt lat="46.76345" lon="5.60815">
        <ele>246.72</ele>
        <time>2013-04-21T07:12:02Z</time>
      </trkpt>
      <trkpt lat="46.76356" lon="5.60804">
        <ele>246.72</ele>
        <time>2013-04-21T07:12:14Z</time>
      </trkpt>
      <trkpt lat="46.7636" lon="5.608">
        <ele>246.72</ele>
        <time>2013-04-21T07:12:18Z</time>
      </trkpt>
      <trkpt lat="46.76372" lon="5.60791">
        <ele>246.72</ele>
        <time>2013-04-21T07:12:31Z</time>
      </trkpt>
      <trkpt lat="46.76388" lon="5.60779">
        <ele>246.72</ele>
        <time>2013-04-21T07:12:46Z</time>
      </trkpt>
      <trkpt lat="46.76401" lon="5.60765">
        <ele>246.23</ele>
        <time>2013-04-21T07:13:01Z</time>
      </trkpt>
      <trkpt lat="46.76413" lon="5.60755">
        <ele>246.72</ele>
        <time>2013-04-21T07:13:14Z</time>
      </trkpt>
      <trkpt lat="46.76427" lon="5.60745">
        <ele>246.23</ele>
        <time>2013-04-21T07:13:27Z</time>
      </trkpt>
      <trkpt lat="46.76444" lon="5.60729">
        <ele>245.75</ele>
        <time>2013-04-21T07:13:42Z</time>
      </trkpt>
      <trkpt lat="46.76459" lon="5.60711">
        <ele>245.75</ele>
        <time>2013-04-21T07:13:58Z</time>
      </trkpt>
      <trkpt lat="46.76474" lon="5.60685">
        <ele>245.75</ele>
        <time>2013-04-21T07:14:15Z</time>
      </trkpt>
      <trkpt lat="46.76485" lon="5.6067">
        <ele>245.75</ele>
        <time>2013-04-21T07:14:28Z</time>
      </trkpt>
      <trkpt lat="46.76489" lon="5.60664">
        <ele>245.27</ele>
        <time>2013-04-21T07:14:33Z</time>
      </trkpt>
      <trkpt lat="46.76504" lon="5.60644">
        <ele>245.27</ele>
        <time>2013-04-21T07:14:49Z</time>
      </trkpt>
      <trkpt lat="46.76515" lon="5.60624">
        <ele>245.27</ele>
        <time>2013-04-21T07:15:05Z</time>
      </trkpt>
      <trkpt lat="46.76525" lon="5.60613">
        <ele>245.27</ele>
        <time>2013-04-21T07:15:16Z</time>
      </trkpt>
      <trkpt lat="46.76534" lon="5.60603">
        <ele>245.27</ele>
        <time>2013-04-21T07:15:25Z</time>
      </trkpt>
      <trkpt lat="46.76544" lon="5.60585">
        <ele>245.27</ele>
        <time>2013-04-21T07:15:34Z</time>
      </trkpt>
      <trkpt lat="46.76552" lon="5.60551">
        <ele>245.27</ele>
        <time>2013-04-21T07:15:53Z</time>
      </trkpt>
      <trkpt lat="46.76561" lon="5.60528">
        <ele>245.27</ele>
        <time>2013-04-21T07:16:10Z</time>
      </trkpt>
      <trkpt lat="46.76569" lon="5.60511">
        <ele>244.79</ele>
        <time>2013-04-21T07:16:24Z</time>
      </trkpt>
      <trkpt lat="46.76578" lon="5.60484">
        <ele>245.27</ele>
        <time>2013-04-21T07:16:39Z</time>
      </trkpt>
      <trkpt lat="46.76585" lon="5.60464">
        <ele>244.79</ele>
        <time>2013-04-21T07:16:52Z</time>
      </trkpt>
      <trkpt lat="46.76592" lon="5.60445">
        <ele>244.79</ele>
        <time>2013-04-21T07:17:04Z</time>
      </trkpt>
      <trkpt lat="46.76601" lon="5.60418">
        <ele>244.79</ele>
        <time>2013-04-21T07:17:21Z</time>
      </trkpt>
      <trkpt lat="46.76611" lon="5.60382">
        <ele>244.31</ele>
        <time>2013-04-21T07:17:41Z</time>
      </trkpt>
      <trkpt lat="46.76623" lon="5.60346">
        <ele>244.31</ele>
        <time>2013-04-21T07:18:01Z</time>
      </trkpt>
      <trkpt lat="46.76633" lon="5.6031">
        <ele>243.83</ele>
        <time>2013-04-21T07:18:22Z</time>
      </trkpt>
      <trkpt lat="46.76643" lon="5.60279">
        <ele>243.83</ele>
        <time>2013-04-21T07:18:41Z</time>
      </trkpt>
      <trkpt lat="46.76653" lon="5.60249">
        <ele>243.83</ele>
        <time>2013-04-21T07:18:59Z</time>
      </trkpt>
      <trkpt lat="46.76664" lon="5.60212">
        <ele>243.83</ele>
        <time>2013-04-21T07:19:21Z</time>
      </trkpt>
      <trkpt lat="46.76675" lon="5.60177">
        <ele>243.35</ele>
        <time>2013-04-21T07:19:43Z</time>
      </trkpt>
      <trkpt lat="46.76686" lon="5.60145">
        <ele>243.35</ele>
        <time>2013-04-21T07:20:03Z</time>
      </trkpt>
      <trkpt lat="46.76696" lon="5.60112">
        <ele>242.87</ele>
        <time>2013-04-21T07:20:22Z</time>
      </trkpt>
      <trkpt lat="46.76704" lon="5.60085">
        <ele>243.35</ele>
        <time>2013-04-21T07:20:39Z</time>
      </trkpt>
      <trkpt lat="46.76717" lon="5.60067">
        <ele>243.35</ele>
        <time>2013-04-21T07:20:57Z</time>
      </trkpt>
      <trkpt lat="46.7672" lon="5.60068">
        <ele>243.35</ele>
        <time>2013-04-21T07:21:01Z</time>
      </trkpt>
      <trkpt lat="46.76731" lon="5.60077">
        <ele>243.35</ele>
        <time>2013-04-21T07:21:17Z</time>
      </trkpt>
      <trkpt lat="46.76732" lon="5.60078">
        <ele>243.35</ele>
        <time>2013-04-21T07:21:18Z</time>
      </trkpt>
      <trkpt lat="46.76747" lon="5.60093">
        <ele>243.35</ele>
        <time>2013-04-21T07:21:33Z</time>
      </trkpt>
      <trkpt lat="46.76758" lon="5.60112">
        <ele>243.35</ele>
        <time>2013-04-21T07:21:48Z</time>
      </trkpt>
      <trkpt lat="46.76772" lon="5.60131">
        <ele>243.35</ele>
        <time>2013-04-21T07:22:05Z</time>
      </trkpt>
      <trkpt lat="46.76789" lon="5.60159">
        <ele>243.83</ele>
        <time>2013-04-21T07:22:25Z</time>
      </trkpt>
      <trkpt lat="46.76805" lon="5.60187">
        <ele>243.83</ele>
        <time>2013-04-21T07:22:44Z</time>
      </trkpt>
      <trkpt lat="46.76812" lon="5.60197">
        <ele>244.31</ele>
        <time>2013-04-21T07:22:51Z</time>
      </trkpt>
      <trkpt lat="46.76831" lon="5.60218">
        <ele>244.79</ele>
        <time>2013-04-21T07:23:08Z</time>
      </trkpt>
      <trkpt lat="46.76847" lon="5.60239">
        <ele>245.27</ele>
        <time>2013-04-21T07:23:28Z</time>
      </trkpt>
      <trkpt lat="46.76867" lon="5.60257">
        <ele>246.23</ele>
        <time>2013-04-21T07:23:48Z</time>
      </trkpt>
      <trkpt lat="46.76885" lon="5.60271">
        <ele>247.2</ele>
        <time>2013-04-21T07:24:05Z</time>
      </trkpt>
      <trkpt lat="46.769" lon="5.60279">
        <ele>248.64</ele>
        <time>2013-04-21T07:24:22Z</time>
      </trkpt>
      <trkpt lat="46.76912" lon="5.60281">
        <ele>250.56</ele>
        <time>2013-04-21T07:24:35Z</time>
      </trkpt>
      <trkpt lat="46.76926" lon="5.60286">
        <ele>252.96</ele>
        <time>2013-04-21T07:24:50Z</time>
      </trkpt>
      <trkpt lat="46.76936" lon="5.60297">
        <ele>255.85</ele>
        <time>2013-04-21T07:25:06Z</time>
      </trkpt>
      <trkpt lat="46.76938" lon="5.603">
        <ele>256.81</ele>
        <time>2013-04-21T07:25:11Z</time>
      </trkpt>
      <trkpt lat="46.7695" lon="5.60309">
        <ele>258.73</ele>
        <time>2013-04-21T07:25:25Z</time>
      </trkpt>
      <trkpt lat="46.76965" lon="5.60316">
        <ele>260.65</ele>
        <time>2013-04-21T07:25:38Z</time>
      </trkpt>
      <trkpt lat="46.76975" lon="5.60319">
        <ele>262.58</ele>
        <time>2013-04-21T07:25:50Z</time>
      </trkpt>
      <trkpt lat="46.76991" lon="5.60322">
        <ele>264.5</ele>
        <time>2013-04-21T07:26:05Z</time>
      </trkpt>
      <trkpt lat="46.77009" lon="5.60324">
        <ele>266.9</ele>
        <time>2013-04-21T07:26:21Z</time>
      </trkpt>
      <trkpt lat="46.77026" lon="5.60323">
        <ele>268.35</ele>
        <time>2013-04-21T07:26:37Z</time>
      </trkpt>
      <trkpt lat="46.77041" lon="5.60322">
        <ele>269.79</ele>
        <time>2013-04-21T07:26:51Z</time>
      </trkpt>
      <trkpt lat="46.77056" lon="5.60322">
        <ele>272.19</ele>
        <time>2013-04-21T07:27:09Z</time>
      </trkpt>
      <trkpt lat="46.77066" lon="5.6032">
        <ele>273.63</ele>
        <time>2013-04-21T07:27:22Z</time>
      </trkpt>
      <trkpt lat="46.7708" lon="5.60319">
        <ele>276.04</ele>
        <time>2013-04-21T07:27:36Z</time>
      </trkpt>
      <trkpt lat="46.77096" lon="5.60319">
        <ele>277.96</ele>
        <time>2013-04-21T07:27:51Z</time>
      </trkpt>
      <trkpt lat="46.77111" lon="5.60319">
        <ele>280.36</ele>
        <time>2013-04-21T07:28:07Z</time>
      </trkpt>
      <trkpt lat="46.77126" lon="5.60318">
        <ele>282.28</ele>
        <time>2013-04-21T07:28:21Z</time>
      </trkpt>
      <trkpt lat="46.7714" lon="5.60323">
        <ele>284.69</ele>
        <time>2013-04-21T07:28:36Z</time>
      </trkpt>
      <trkpt lat="46.77142" lon="5.60324">
        <ele>284.69</ele>
        <time>2013-04-21T07:28:38Z</time>
      </trkpt>
      <trkpt lat="46.77146" lon="5.60336">
        <ele>285.17</ele>
        <time>2013-04-21T07:28:47Z</time>
      </trkpt>
      <trkpt lat="46.77144" lon="5.60351">
        <ele>284.69</ele>
        <time>2013-04-21T07:28:57Z</time>
      </trkpt>
      <trkpt lat="46.77144" lon="5.60378">
        <ele>283.25</ele>
        <time>2013-04-21T07:29:13Z</time>
      </trkpt>
      <trkpt lat="46.77141" lon="5.60402">
        <ele>282.28</ele>
        <time>2013-04-21T07:29:27Z</time>
      </trkpt>
      <trkpt lat="46.77141" lon="5.60407">
        <ele>282.28</ele>
        <time>2013-04-21T07:29:30Z</time>
      </trkpt>
      <trkpt lat="46.77143" lon="5.60425">
        <ele>284.21</ele>
        <time>2013-04-21T07:29:43Z</time>
      </trkpt>
      <trkpt lat="46.77135" lon="5.60452">
        <ele>282.28</ele>
        <time>2013-04-21T07:29:59Z</time>
      </trkpt>
      <trkpt lat="46.77129" lon="5.60479">
        <ele>282.28</ele>
        <time>2013-04-21T07:30:16Z</time>
      </trkpt>
      <trkpt lat="46.7713" lon="5.60508">
        <ele>282.77</ele>
        <time>2013-04-21T07:30:32Z</time>
      </trkpt>
      <trkpt lat="46.77127" lon="5.60533">
        <ele>283.25</ele>
        <time>2013-04-21T07:30:47Z</time>
      </trkpt>
      <trkpt lat="46.77125" lon="5.60549">
        <ele>284.21</ele>
        <time>2013-04-21T07:30:56Z</time>
      </trkpt>
      <trkpt lat="46.77125" lon="5.60573">
        <ele>285.17</ele>
        <time>2013-04-21T07:31:11Z</time>
      </trkpt>
      <trkpt lat="46.77134" lon="5.60603">
        <ele>286.13</ele>
        <time>2013-04-21T07:31:31Z</time>
      </trkpt>
      <trkpt lat="46.77137" lon="5.60626">
        <ele>285.65</ele>
        <time>2013-04-21T07:31:48Z</time>
      </trkpt>
      <trkpt lat="46.77145" lon="5.60647">
        <ele>285.17</ele>
        <time>2013-04-21T07:31:59Z</time>
      </trkpt>
      <trkpt lat="46.7715" lon="5.6067">
        <ele>286.61</ele>
        <time>2013-04-21T07:32:14Z</time>
      </trkpt>
      <trkpt lat="46.77154" lon="5.6068">
        <ele>287.57</ele>
        <time>2013-04-21T07:32:22Z</time>
      </trkpt>
      <trkpt lat="46.77155" lon="5.607">
        <ele>289.49</ele>
        <time>2013-04-21T07:32:37Z</time>
      </trkpt>
      <trkpt lat="46.77156" lon="5.60726">
        <ele>292.38</ele>
        <time>2013-04-21T07:32:56Z</time>
      </trkpt>
      <trkpt lat="46.77159" lon="5.60731">
        <ele>293.34</ele>
        <time>2013-04-21T07:33:11Z</time>
      </trkpt>
      <trkpt lat="46.77159" lon="5.60733">
        <ele>293.34</ele>
        <time>2013-04-21T07:33:28Z</time>
      </trkpt>
      <trkpt lat="46.77159" lon="5.60732">
        <ele>292.86</ele>
        <time>2013-04-21T07:33:43Z</time>
      </trkpt>
      <trkpt lat="46.77161" lon="5.60735">
        <ele>291.9</ele>
        <time>2013-04-21T07:34:08Z</time>
      </trkpt>
      <trkpt lat="46.77161" lon="5.6074">
        <ele>291.9</ele>
        <time>2013-04-21T07:34:42Z</time>
      </trkpt>
      <trkpt lat="46.77161" lon="5.60742">
        <ele>291.9</ele>
        <time>2013-04-21T07:35:09Z</time>
      </trkpt>
      <trkpt lat="46.77157" lon="5.60738">
        <ele>291.9</ele>
        <time>2013-04-21T07:35:17Z</time>
      </trkpt>
      <trkpt lat="46.77159" lon="5.60736">
        <ele>293.34</ele>
        <time>2013-04-21T07:35:27Z</time>
      </trkpt>
      <trkpt lat="46.77156" lon="5.60734">
        <ele>292.86</ele>
        <time>2013-04-21T07:35:43Z</time>
      </trkpt>
      <trkpt lat="46.77158" lon="5.60733">
        <ele>292.86</ele>
        <time>2013-04-21T07:35:55Z</time>
      </trkpt>
      <trkpt lat="46.77159" lon="5.60734">
        <ele>293.34</ele>
        <time>2013-04-21T07:36:15Z</time>
      </trkpt>
      <trkpt lat="46.77162" lon="5.60737">
        <ele>294.3</ele>
        <time>2013-04-21T07:36:27Z</time>
      </trkpt>
      <trkpt lat="46.77168" lon="5.6075">
        <ele>295.26</ele>
        <time>2013-04-21T07:36:40Z</time>
      </trkpt>
      <trkpt lat="46.77171" lon="5.60757">
        <ele>296.22</ele>
        <time>2013-04-21T07:36:46Z</time>
      </trkpt>
      <trkpt lat="46.77175" lon="5.60767">
        <ele>296.7</ele>
        <time>2013-04-21T07:37:02Z</time>
      </trkpt>
      <trkpt lat="46.77176" lon="5.60769">
        <ele>296.22</ele>
        <time>2013-04-21T07:37:28Z</time>
      </trkpt>
      <trkpt lat="46.77177" lon="5.60763">
        <ele>296.22</ele>
        <time>2013-04-21T07:37:31Z</time>
      </trkpt>
      <trkpt lat="46.77185" lon="5.60751">
        <ele>299.11</ele>
        <time>2013-04-21T07:37:45Z</time>
      </trkpt>
      <trkpt lat="46.77193" lon="5.60743">
        <ele>301.99</ele>
        <time>2013-04-21T07:37:57Z</time>
      </trkpt>
      <trkpt lat="46.77203" lon="5.60734">
        <ele>305.36</ele>
        <time>2013-04-21T07:38:12Z</time>
      </trkpt>
      <trkpt lat="46.77208" lon="5.60715">
        <ele>308.24</ele>
        <time>2013-04-21T07:38:27Z</time>
      </trkpt>
      <trkpt lat="46.77214" lon="5.60701">
        <ele>309.68</ele>
        <time>2013-04-21T07:38:41Z</time>
      </trkpt>
      <trkpt lat="46.77218" lon="5.60686">
        <ele>311.12</ele>
        <time>2013-04-21T07:38:54Z</time>
      </trkpt>
      <trkpt lat="46.77219" lon="5.60663">
        <ele>312.09</ele>
        <time>2013-04-21T07:39:09Z</time>
      </trkpt>
      <trkpt lat="46.77221" lon="5.60644">
        <ele>313.53</ele>
        <time>2013-04-21T07:39:24Z</time>
      </trkpt>
      <trkpt lat="46.77223" lon="5.60621">
        <ele>314.49</ele>
        <time>2013-04-21T07:39:40Z</time>
      </trkpt>
      <trkpt lat="46.77227" lon="5.60598">
        <ele>315.45</ele>
        <time>2013-04-21T07:39:56Z</time>
      </trkpt>
      <trkpt lat="46.77233" lon="5.60578">
        <ele>315.93</ele>
        <time>2013-04-21T07:40:09Z</time>
      </trkpt>
      <trkpt lat="46.77245" lon="5.60555">
        <ele>316.41</ele>
        <time>2013-04-21T07:40:27Z</time>
      </trkpt>
      <trkpt lat="46.77252" lon="5.60532">
        <ele>315.45</ele>
        <time>2013-04-21T07:40:42Z</time>
      </trkpt>
      <trkpt lat="46.77258" lon="5.60528">
        <ele>314.97</ele>
        <time>2013-04-21T07:41:00Z</time>
      </trkpt>
      <trkpt lat="46.77261" lon="5.60541">
        <ele>315.93</ele>
        <time>2013-04-21T07:41:16Z</time>
      </trkpt>
      <trkpt lat="46.7726" lon="5.60559">
        <ele>319.3</ele>
        <time>2013-04-21T07:41:33Z</time>
      </trkpt>
      <trkpt lat="46.77259" lon="5.60572">
        <ele>321.22</ele>
        <time>2013-04-21T07:41:48Z</time>
      </trkpt>
      <trkpt lat="46.77254" lon="5.60588">
        <ele>323.62</ele>
        <time>2013-04-21T07:42:05Z</time>
      </trkpt>
      <trkpt lat="46.77258" lon="5.60602">
        <ele>326.02</ele>
        <time>2013-04-21T07:42:21Z</time>
      </trkpt>
      <trkpt lat="46.77258" lon="5.60618">
        <ele>327.95</ele>
        <time>2013-04-21T07:42:37Z</time>
      </trkpt>
      <trkpt lat="46.77261" lon="5.60635">
        <ele>330.35</ele>
        <time>2013-04-21T07:42:55Z</time>
      </trkpt>
      <trkpt lat="46.77266" lon="5.60644">
        <ele>332.27</ele>
        <time>2013-04-21T07:43:09Z</time>
      </trkpt>
      <trkpt lat="46.77274" lon="5.60654">
        <ele>335.16</ele>
        <time>2013-04-21T07:43:26Z</time>
      </trkpt>
      <trkpt lat="46.77282" lon="5.60665">
        <ele>337.08</ele>
        <time>2013-04-21T07:43:41Z</time>
      </trkpt>
      <trkpt lat="46.77291" lon="5.6067">
        <ele>339.48</ele>
        <time>2013-04-21T07:43:58Z</time>
      </trkpt>
      <trkpt lat="46.77301" lon="5.60678">
        <ele>341.89</ele>
        <time>2013-04-21T07:44:15Z</time>
      </trkpt>
      <trkpt lat="46.77312" lon="5.6069">
        <ele>344.29</ele>
        <time>2013-04-21T07:44:32Z</time>
      </trkpt>
      <trkpt lat="46.7732" lon="5.60706">
        <ele>346.21</ele>
        <time>2013-04-21T07:44:48Z</time>
      </trkpt>
      <trkpt lat="46.77331" lon="5.60717">
        <ele>348.62</ele>
        <time>2013-04-21T07:45:08Z</time>
      </trkpt>
      <trkpt lat="46.77337" lon="5.60719">
        <ele>351.02</ele>
        <time>2013-04-21T07:45:24Z</time>
      </trkpt>
      <trkpt lat="46.77347" lon="5.60725">
        <ele>353.42</ele>
        <time>2013-04-21T07:45:40Z</time>
      </trkpt>
      <trkpt lat="46.77357" lon="5.60739">
        <ele>355.83</ele>
        <time>2013-04-21T07:45:58Z</time>
      </trkpt>
      <trkpt lat="46.77369" lon="5.60748">
        <ele>358.23</ele>
        <time>2013-04-21T07:46:13Z</time>
      </trkpt>
      <trkpt lat="46.77382" lon="5.60762">
        <ele>360.15</ele>
        <time>2013-04-21T07:46:30Z</time>
      </trkpt>
      <trkpt lat="46.77388" lon="5.60775">
        <ele>360.63</ele>
        <time>2013-04-21T07:46:44Z</time>
      </trkpt>
      <trkpt lat="46.77398" lon="5.60783">
        <ele>362.55</ele>
        <time>2013-04-21T07:47:02Z</time>
      </trkpt>
      <trkpt lat="46.7741" lon="5.60784">
        <ele>364.48</ele>
        <time>2013-04-21T07:47:18Z</time>
      </trkpt>
      <trkpt lat="46.77419" lon="5.60783">
        <ele>365.44</ele>
        <time>2013-04-21T07:47:31Z</time>
      </trkpt>
      <trkpt lat="46.77423" lon="5.60783">
        <ele>365.92</ele>
        <time>2013-04-21T07:47:35Z</time>
      </trkpt>
      <trkpt lat="46.77436" lon="5.60776">
        <ele>366.88</ele>
        <time>2013-04-21T07:47:49Z</time>
      </trkpt>
      <trkpt lat="46.77444" lon="5.60777">
        <ele>368.8</ele>
        <time>2013-04-21T07:48:04Z</time>
      </trkpt>
      <trkpt lat="46.77452" lon="5.60784">
        <ele>370.24</ele>
        <time>2013-04-21T07:48:14Z</time>
      </trkpt>
      <trkpt lat="46.77468" lon="5.60798">
        <ele>372.17</ele>
        <time>2013-04-21T07:48:29Z</time>
      </trkpt>
      <trkpt lat="46.77478" lon="5.60805">
        <ele>374.09</ele>
        <time>2013-04-21T07:48:42Z</time>
      </trkpt>
      <trkpt lat="46.7749" lon="5.60812">
        <ele>375.53</ele>
        <time>2013-04-21T07:48:55Z</time>
      </trkpt>
      <trkpt lat="46.77497" lon="5.60819">
        <ele>376.01</ele>
        <time>2013-04-21T07:49:06Z</time>
      </trkpt>
      <trkpt lat="46.77508" lon="5.6083">
        <ele>376.97</ele>
        <time>2013-04-21T07:49:19Z</time>
      </trkpt>
      <trkpt lat="46.77523" lon="5.60842">
        <ele>378.42</ele>
        <time>2013-04-21T07:49:35Z</time>
      </trkpt>
      <trkpt lat="46.77537" lon="5.60854">
        <ele>379.38</ele>
        <time>2013-04-21T07:49:51Z</time>
      </trkpt>
      <trkpt lat="46.77547" lon="5.60863">
        <ele>380.34</ele>
        <time>2013-04-21T07:50:03Z</time>
      </trkpt>
      <trkpt lat="46.77559" lon="5.60874">
        <ele>380.82</ele>
        <time>2013-04-21T07:50:16Z</time>
      </trkpt>
      <trkpt lat="46.77571" lon="5.60883">
        <ele>381.3</ele>
        <time>2013-04-21T07:50:27Z</time>
      </trkpt>
      <trkpt lat="46.77581" lon="5.6089">
        <ele>382.26</ele>
        <time>2013-04-21T07:50:41Z</time>
      </trkpt>
      <trkpt lat="46.77595" lon="5.609">
        <ele>382.74</ele>
        <time>2013-04-21T07:50:55Z</time>
      </trkpt>
      <trkpt lat="46.77609" lon="5.60912">
        <ele>383.22</ele>
        <time>2013-04-21T07:51:09Z</time>
      </trkpt>
      <trkpt lat="46.77619" lon="5.60923">
        <ele>384.18</ele>
        <time>2013-04-21T07:51:23Z</time>
      </trkpt>
      <trkpt lat="46.7763" lon="5.60931">
        <ele>384.18</ele>
        <time>2013-04-21T07:51:35Z</time>
      </trkpt>
      <trkpt lat="46.77643" lon="5.6094">
        <ele>385.15</ele>
        <time>2013-04-21T07:51:47Z</time>
      </trkpt>
      <trkpt lat="46.77656" lon="5.60952">
        <ele>386.11</ele>
        <time>2013-04-21T07:52:02Z</time>
      </trkpt>
      <trkpt lat="46.77667" lon="5.60962">
        <ele>386.11</ele>
        <time>2013-04-21T07:52:15Z</time>
      </trkpt>
      <trkpt lat="46.77679" lon="5.60973">
        <ele>386.11</ele>
        <time>2013-04-21T07:52:29Z</time>
      </trkpt>
      <trkpt lat="46.77691" lon="5.60982">
        <ele>385.63</ele>
        <time>2013-04-21T07:52:40Z</time>
      </trkpt>
      <trkpt lat="46.77699" lon="5.6099">
        <ele>385.63</ele>
        <time>2013-04-21T07:52:50Z</time>
      </trkpt>
      <trkpt lat="46.77714" lon="5.61002">
        <ele>385.15</ele>
        <time>2013-04-21T07:53:03Z</time>
      </trkpt>
      <trkpt lat="46.77727" lon="5.61012">
        <ele>385.15</ele>
        <time>2013-04-21T07:53:16Z</time>
      </trkpt>
      <trkpt lat="46.77739" lon="5.61022">
        <ele>385.15</ele>
        <time>2013-04-21T07:53:29Z</time>
      </trkpt>
      <trkpt lat="46.77748" lon="5.61031">
        <ele>385.15</ele>
        <time>2013-04-21T07:53:41Z</time>
      </trkpt>
      <trkpt lat="46.7776" lon="5.61041">
        <ele>384.66</ele>
        <time>2013-04-21T07:53:55Z</time>
      </trkpt>
      <trkpt lat="46.7777" lon="5.61052">
        <ele>384.18</ele>
        <time>2013-04-21T07:54:07Z</time>
      </trkpt>
      <trkpt lat="46.77772" lon="5.61052">
        <ele>384.18</ele>
        <time>2013-04-21T07:54:09Z</time>
      </trkpt>
      <trkpt lat="46.7779" lon="5.61061">
        <ele>383.22</ele>
        <time>2013-04-21T07:54:23Z</time>
      </trkpt>
      <trkpt lat="46.77803" lon="5.61071">
        <ele>383.22</ele>
        <time>2013-04-21T07:54:36Z</time>
      </trkpt>
      <trkpt lat="46.7782" lon="5.61085">
        <ele>382.74</ele>
        <time>2013-04-21T07:54:51Z</time>
      </trkpt>
      <trkpt lat="46.77833" lon="5.61097">
        <ele>382.26</ele>
        <time>2013-04-21T07:55:05Z</time>
      </trkpt>
      <trkpt lat="46.77843" lon="5.61099">
        <ele>381.3</ele>
        <time>2013-04-21T07:55:17Z</time>
      </trkpt>
      <trkpt lat="46.7786" lon="5.61101">
        <ele>380.82</ele>
        <time>2013-04-21T07:55:31Z</time>
      </trkpt>
      <trkpt lat="46.77873" lon="5.61118">
        <ele>379.86</ele>
        <time>2013-04-21T07:55:44Z</time>
      </trkpt>
      <trkpt lat="46.77883" lon="5.61135">
        <ele>378.9</ele>
        <time>2013-04-21T07:55:58Z</time>
      </trkpt>
      <trkpt lat="46.77891" lon="5.61159">
        <ele>377.94</ele>
        <time>2013-04-21T07:56:13Z</time>
      </trkpt>
      <trkpt lat="46.77894" lon="5.61183">
        <ele>377.45</ele>
        <time>2013-04-21T07:56:28Z</time>
      </trkpt>
      <trkpt lat="46.77897" lon="5.61204">
        <ele>376.97</ele>
        <time>2013-04-21T07:56:42Z</time>
      </trkpt>
      <trkpt lat="46.77902" lon="5.61224">
        <ele>376.49</ele>
        <time>2013-04-21T07:56:58Z</time>
      </trkpt>
      <trkpt lat="46.77896" lon="5.6124">
        <ele>377.45</ele>
        <time>2013-04-21T07:57:12Z</time>
      </trkpt>
      <trkpt lat="46.77899" lon="5.61264">
        <ele>378.9</ele>
        <time>2013-04-21T07:57:29Z</time>
      </trkpt>
      <trkpt lat="46.77904" lon="5.61286">
        <ele>379.38</ele>
        <time>2013-04-21T07:57:46Z</time>
      </trkpt>
      <trkpt lat="46.77909" lon="5.61301">
        <ele>379.86</ele>
        <time>2013-04-21T07:57:58Z</time>
      </trkpt>
      <trkpt lat="46.77917" lon="5.61312">
        <ele>379.38</ele>
        <time>2013-04-21T07:58:11Z</time>
      </trkpt>
      <trkpt lat="46.77931" lon="5.61322">
        <ele>379.86</ele>
        <time>2013-04-21T07:58:25Z</time>
      </trkpt>
      <trkpt lat="46.77934" lon="5.61324">
        <ele>379.86</ele>
        <time>2013-04-21T07:58:28Z</time>
      </trkpt>
      <trkpt lat="46.77949" lon="5.61338">
        <ele>377.94</ele>
        <time>2013-04-21T07:58:42Z</time>
      </trkpt>
      <trkpt lat="46.77952" lon="5.61356">
        <ele>375.53</ele>
        <time>2013-04-21T07:58:55Z</time>
      </trkpt>
      <trkpt lat="46.7795" lon="5.61366">
        <ele>374.57</ele>
        <time>2013-04-21T07:59:02Z</time>
      </trkpt>
      <trkpt lat="46.77946" lon="5.61379">
        <ele>374.09</ele>
        <time>2013-04-21T07:59:19Z</time>
      </trkpt>
      <trkpt lat="46.77942" lon="5.61381">
        <ele>373.13</ele>
        <time>2013-04-21T07:59:46Z</time>
      </trkpt>
      <trkpt lat="46.77942" lon="5.61384">
        <ele>373.13</ele>
        <time>2013-04-21T08:00:02Z</time>
      </trkpt>
      <trkpt lat="46.77941" lon="5.61395">
        <ele>372.65</ele>
        <time>2013-04-21T08:00:15Z</time>
      </trkpt>
      <trkpt lat="46.77939" lon="5.61409">
        <ele>372.17</ele>
        <time>2013-04-21T08:00:25Z</time>
      </trkpt>
      <trkpt lat="46.77932" lon="5.61432">
        <ele>371.21</ele>
        <time>2013-04-21T08:00:41Z</time>
      </trkpt>
      <trkpt lat="46.77925" lon="5.61457">
        <ele>370.24</ele>
        <time>2013-04-21T08:00:59Z</time>
      </trkpt>
      <trkpt lat="46.77928" lon="5.6147">
        <ele>368.32</ele>
        <time>2013-04-21T08:01:14Z</time>
      </trkpt>
      <trkpt lat="46.77941" lon="5.61475">
        <ele>367.36</ele>
        <time>2013-04-21T08:01:27Z</time>
      </trkpt>
      <trkpt lat="46.77956" lon="5.61479">
        <ele>365.92</ele>
        <time>2013-04-21T08:01:42Z</time>
      </trkpt>
      <trkpt lat="46.77972" lon="5.61482">
        <ele>364.48</ele>
        <time>2013-04-21T08:01:57Z</time>
      </trkpt>
      <trkpt lat="46.77986" lon="5.61483">
        <ele>363.04</ele>
        <time>2013-04-21T08:02:09Z</time>
      </trkpt>
      <trkpt lat="46.78006" lon="5.61485">
        <ele>361.59</ele>
        <time>2013-04-21T08:02:25Z</time>
      </trkpt>
      <trkpt lat="46.78018" lon="5.61489">
        <ele>360.15</ele>
        <time>2013-04-21T08:02:38Z</time>
      </trkpt>
      <trkpt lat="46.78039" lon="5.61493">
        <ele>359.19</ele>
        <time>2013-04-21T08:02:53Z</time>
      </trkpt>
      <trkpt lat="46.78051" lon="5.61498">
        <ele>357.75</ele>
        <time>2013-04-21T08:03:07Z</time>
      </trkpt>
      <trkpt lat="46.7807" lon="5.615">
        <ele>354.86</ele>
        <time>2013-04-21T08:03:23Z</time>
      </trkpt>
      <trkpt lat="46.78084" lon="5.615">
        <ele>351.98</ele>
        <time>2013-04-21T08:03:35Z</time>
      </trkpt>
      <trkpt lat="46.78097" lon="5.61503">
        <ele>349.58</ele>
        <time>2013-04-21T08:03:46Z</time>
      </trkpt>
      <trkpt lat="46.781" lon="5.61507">
        <ele>348.62</ele>
        <time>2013-04-21T08:03:51Z</time>
      </trkpt>
      <trkpt lat="46.78114" lon="5.6152">
        <ele>345.73</ele>
        <time>2013-04-21T08:04:05Z</time>
      </trkpt>
      <trkpt lat="46.78114" lon="5.6152">
        <ele>345.25</ele>
        <time>2013-04-21T08:04:06Z</time>
      </trkpt>
      <trkpt lat="46.78127" lon="5.61531">
        <ele>343.33</ele>
        <time>2013-04-21T08:04:19Z</time>
      </trkpt>
      <trkpt lat="46.78134" lon="5.61538">
        <ele>341.41</ele>
        <time>2013-04-21T08:04:30Z</time>
      </trkpt>
      <trkpt lat="46.78154" lon="5.61557">
        <ele>339.96</ele>
        <time>2013-04-21T08:04:46Z</time>
      </trkpt>
      <trkpt lat="46.78162" lon="5.61571">
        <ele>338.52</ele>
        <time>2013-04-21T08:04:59Z</time>
      </trkpt>
      <trkpt lat="46.78165" lon="5.61574">
        <ele>338.04</ele>
        <time>2013-04-21T08:05:03Z</time>
      </trkpt>
      <trkpt lat="46.78169" lon="5.61578">
        <ele>337.08</ele>
        <time>2013-04-21T08:05:07Z</time>
      </trkpt>
      <trkpt lat="46.78179" lon="5.61584">
        <ele>335.64</ele>
        <time>2013-04-21T08:05:13Z</time>
      </trkpt>
      <trkpt lat="46.78197" lon="5.61597">
        <ele>332.75</ele>
        <time>2013-04-21T08:05:26Z</time>
      </trkpt>
      <trkpt lat="46.78224" lon="5.61598">
        <ele>329.87</ele>
        <time>2013-04-21T08:05:40Z</time>
      </trkpt>
      <trkpt lat="46.78242" lon="5.61596">
        <ele>327.95</ele>
        <time>2013-04-21T08:05:53Z</time>
      </trkpt>
      <trkpt lat="46.78259" lon="5.61596">
        <ele>326.5</ele>
        <time>2013-04-21T08:06:07Z</time>
      </trkpt>
      <trkpt lat="46.78271" lon="5.61606">
        <ele>325.54</ele>
        <time>2013-04-21T08:06:20Z</time>
      </trkpt>
      <trkpt lat="46.7829" lon="5.61621">
        <ele>326.99</ele>
        <time>2013-04-21T08:06:35Z</time>
      </trkpt>
      <trkpt lat="46.78301" lon="5.6164">
        <ele>328.43</ele>
        <time>2013-04-21T08:06:52Z</time>
      </trkpt>
      <trkpt lat="46.78306" lon="5.61654">
        <ele>329.87</ele>
        <time>2013-04-21T08:07:06Z</time>
      </trkpt>
      <trkpt lat="46.78317" lon="5.61662">
        <ele>331.31</ele>
        <time>2013-04-21T08:07:21Z</time>
      </trkpt>
      <trkpt lat="46.78322" lon="5.61659">
        <ele>331.31</ele>
        <time>2013-04-21T08:07:33Z</time>
      </trkpt>
      <trkpt lat="46.78321" lon="5.61658">
        <ele>331.31</ele>
        <time>2013-04-21T08:07:59Z</time>
      </trkpt>
      <trkpt lat="46.78318" lon="5.6166">
        <ele>331.31</ele>
        <time>2013-04-21T08:08:25Z</time>
      </trkpt>
      <trkpt lat="46.78316" lon="5.61662">
        <ele>331.31</ele>
        <time>2013-04-21T08:08:39Z</time>
      </trkpt>
      <trkpt lat="46.78324" lon="5.6166">
        <ele>331.31</ele>
        <time>2013-04-21T08:08:55Z</time>
      </trkpt>
      <trkpt lat="46.7833" lon="5.61651">
        <ele>331.31</ele>
        <time>2013-04-21T08:09:06Z</time>
      </trkpt>
      <trkpt lat="46.78336" lon="5.61636">
        <ele>332.27</ele>
        <time>2013-04-21T08:09:19Z</time>
      </trkpt>
      <trkpt lat="46.78347" lon="5.61626">
        <ele>333.23</ele>
        <time>2013-04-21T08:09:32Z</time>
      </trkpt>
      <trkpt lat="46.78349" lon="5.61627">
        <ele>333.71</ele>
        <time>2013-04-21T08:09:34Z</time>
      </trkpt>
      <trkpt lat="46.7836" lon="5.61643">
        <ele>335.16</ele>
        <time>2013-04-21T08:09:49Z</time>
      </trkpt>
      <trkpt lat="46.7837" lon="5.61651">
        <ele>336.12</ele>
        <time>2013-04-21T08:10:05Z</time>
      </trkpt>
      <trkpt lat="46.78377" lon="5.61666">
        <ele>337.56</ele>
        <time>2013-04-21T08:10:18Z</time>
      </trkpt>
      <trkpt lat="46.78383" lon="5.61685">
        <ele>339</ele>
        <time>2013-04-21T08:10:31Z</time>
      </trkpt>
      <trkpt lat="46.78387" lon="5.61673">
        <ele>340.92</ele>
        <time>2013-04-21T08:10:44Z</time>
      </trkpt>
      <trkpt lat="46.78389" lon="5.6166">
        <ele>344.29</ele>
        <time>2013-04-21T08:11:00Z</time>
      </trkpt>
      <trkpt lat="46.78385" lon="5.61648">
        <ele>346.69</ele>
        <time>2013-04-21T08:11:15Z</time>
      </trkpt>
      <trkpt lat="46.78377" lon="5.6163">
        <ele>347.65</ele>
        <time>2013-04-21T08:11:27Z</time>
      </trkpt>
      <trkpt lat="46.78371" lon="5.61612">
        <ele>349.58</ele>
        <time>2013-04-21T08:11:40Z</time>
      </trkpt>
      <trkpt lat="46.78365" lon="5.61598">
        <ele>351.98</ele>
        <time>2013-04-21T08:11:55Z</time>
      </trkpt>
      <trkpt lat="46.78361" lon="5.61594">
        <ele>353.42</ele>
        <time>2013-04-21T08:12:11Z</time>
      </trkpt>
      <trkpt lat="46.78365" lon="5.61595">
        <ele>352.94</ele>
        <time>2013-04-21T08:12:36Z</time>
      </trkpt>
      <trkpt lat="46.7836" lon="5.6159">
        <ele>353.9</ele>
        <time>2013-04-21T08:12:49Z</time>
      </trkpt>
      <trkpt lat="46.78354" lon="5.61581">
        <ele>354.86</ele>
        <time>2013-04-21T08:13:04Z</time>
      </trkpt>
      <trkpt lat="46.78354" lon="5.61562">
        <ele>357.75</ele>
        <time>2013-04-21T08:13:19Z</time>
      </trkpt>
      <trkpt lat="46.78359" lon="5.61553">
        <ele>359.67</ele>
        <time>2013-04-21T08:13:32Z</time>
      </trkpt>
      <trkpt lat="46.78366" lon="5.61556">
        <ele>362.07</ele>
        <time>2013-04-21T08:13:45Z</time>
      </trkpt>
      <trkpt lat="46.78374" lon="5.61562">
        <ele>364</ele>
        <time>2013-04-21T08:13:58Z</time>
      </trkpt>
      <trkpt lat="46.78383" lon="5.61567">
        <ele>366.88</ele>
        <time>2013-04-21T08:14:12Z</time>
      </trkpt>
      <trkpt lat="46.7839" lon="5.61572">
        <ele>368.8</ele>
        <time>2013-04-21T08:14:25Z</time>
      </trkpt>
      <trkpt lat="46.78397" lon="5.61577">
        <ele>370.73</ele>
        <time>2013-04-21T08:14:36Z</time>
      </trkpt>
      <trkpt lat="46.78408" lon="5.61582">
        <ele>373.13</ele>
        <time>2013-04-21T08:14:49Z</time>
      </trkpt>
      <trkpt lat="46.78421" lon="5.61585">
        <ele>375.53</ele>
        <time>2013-04-21T08:15:02Z</time>
      </trkpt>
      <trkpt lat="46.78437" lon="5.61596">
        <ele>378.42</ele>
        <time>2013-04-21T08:15:17Z</time>
      </trkpt>
      <trkpt lat="46.78448" lon="5.61604">
        <ele>380.82</ele>
        <time>2013-04-21T08:15:32Z</time>
      </trkpt>
      <trkpt lat="46.78447" lon="5.61617">
        <ele>384.18</ele>
        <time>2013-04-21T08:15:50Z</time>
      </trkpt>
      <trkpt lat="46.78443" lon="5.61632">
        <ele>387.55</ele>
        <time>2013-04-21T08:16:07Z</time>
      </trkpt>
      <trkpt lat="46.78447" lon="5.6164">
        <ele>389.47</ele>
        <time>2013-04-21T08:16:18Z</time>
      </trkpt>
      <trkpt lat="46.78455" lon="5.61651">
        <ele>391.87</ele>
        <time>2013-04-21T08:16:30Z</time>
      </trkpt>
      <trkpt lat="46.78462" lon="5.61658">
        <ele>392.84</ele>
        <time>2013-04-21T08:16:41Z</time>
      </trkpt>
      <trkpt lat="46.78471" lon="5.61661">
        <ele>394.76</ele>
        <time>2013-04-21T08:16:56Z</time>
      </trkpt>
      <trkpt lat="46.78481" lon="5.61665">
        <ele>395.72</ele>
        <time>2013-04-21T08:17:09Z</time>
      </trkpt>
      <trkpt lat="46.78483" lon="5.61661">
        <ele>396.2</ele>
        <time>2013-04-21T08:17:22Z</time>
      </trkpt>
      <trkpt lat="46.78489" lon="5.61668">
        <ele>395.72</ele>
        <time>2013-04-21T08:17:39Z</time>
      </trkpt>
      <trkpt lat="46.78496" lon="5.6167">
        <ele>395.72</ele>
        <time>2013-04-21T08:17:50Z</time>
      </trkpt>
      <trkpt lat="46.78502" lon="5.61673">
        <ele>395.72</ele>
        <time>2013-04-21T08:18:03Z</time>
      </trkpt>
      <trkpt lat="46.7851" lon="5.61679">
        <ele>396.2</ele>
        <time>2013-04-21T08:18:14Z</time>
      </trkpt>
      <trkpt lat="46.78523" lon="5.61686">
        <ele>396.68</ele>
        <time>2013-04-21T08:18:25Z</time>
      </trkpt>
      <trkpt lat="46.7853" lon="5.61691">
        <ele>399.08</ele>
        <time>2013-04-21T08:18:39Z</time>
      </trkpt>
      <trkpt lat="46.7853" lon="5.6169">
        <ele>397.16</ele>
        <time>2013-04-21T08:18:55Z</time>
      </trkpt>
      <trkpt lat="46.7853" lon="5.61693">
        <ele>397.64</ele>
        <time>2013-04-21T08:19:18Z</time>
      </trkpt>
      <trkpt lat="46.78527" lon="5.61695">
        <ele>397.64</ele>
        <time>2013-04-21T08:19:47Z</time>
      </trkpt>
      <trkpt lat="46.78528" lon="5.61698">
        <ele>397.16</ele>
        <time>2013-04-21T08:20:12Z</time>
      </trkpt>
      <trkpt lat="46.78541" lon="5.61697">
        <ele>398.12</ele>
        <time>2013-04-21T08:20:30Z</time>
      </trkpt>
      <trkpt lat="46.78537" lon="5.61697">
        <ele>396.2</ele>
        <time>2013-04-21T08:20:46Z</time>
      </trkpt>
      <trkpt lat="46.78533" lon="5.617">
        <ele>396.68</ele>
        <time>2013-04-21T08:21:16Z</time>
      </trkpt>
      <trkpt lat="46.78535" lon="5.61707">
        <ele>396.68</ele>
        <time>2013-04-21T08:21:55Z</time>
      </trkpt>
      <trkpt lat="46.78541" lon="5.61705">
        <ele>397.16</ele>
        <time>2013-04-21T08:22:36Z</time>
      </trkpt>
      <trkpt lat="46.78534" lon="5.61703">
        <ele>397.16</ele>
        <time>2013-04-21T08:23:07Z</time>
      </trkpt>
      <trkpt lat="46.78532" lon="5.61703">
        <ele>397.64</ele>
        <time>2013-04-21T08:23:40Z</time>
      </trkpt>
      <trkpt lat="46.78533" lon="5.61699">
        <ele>399.08</ele>
        <time>2013-04-21T08:23:47Z</time>
      </trkpt>
      <trkpt lat="46.78535" lon="5.61698">
        <ele>399.08</ele>
        <time>2013-04-21T08:24:00Z</time>
      </trkpt>
      <trkpt lat="46.78539" lon="5.61697">
        <ele>399.08</ele>
        <time>2013-04-21T08:24:17Z</time>
      </trkpt>
      <trkpt lat="46.78536" lon="5.61702">
        <ele>399.08</ele>
        <time>2013-04-21T08:24:33Z</time>
      </trkpt>
      <trkpt lat="46.7854" lon="5.61708">
        <ele>399.57</ele>
        <time>2013-04-21T08:24:46Z</time>
      </trkpt>
      <trkpt lat="46.78552" lon="5.61723">
        <ele>400.05</ele>
        <time>2013-04-21T08:24:59Z</time>
      </trkpt>
      <trkpt lat="46.78563" lon="5.6173">
        <ele>400.53</ele>
        <time>2013-04-21T08:25:11Z</time>
      </trkpt>
      <trkpt lat="46.78565" lon="5.61737">
        <ele>400.53</ele>
        <time>2013-04-21T08:25:23Z</time>
      </trkpt>
      <trkpt lat="46.78578" lon="5.61733">
        <ele>400.53</ele>
        <time>2013-04-21T08:25:48Z</time>
      </trkpt>
      <trkpt lat="46.78575" lon="5.61739">
        <ele>400.53</ele>
        <time>2013-04-21T08:26:07Z</time>
      </trkpt>
      <trkpt lat="46.78577" lon="5.61748">
        <ele>401.01</ele>
        <time>2013-04-21T08:26:22Z</time>
      </trkpt>
      <trkpt lat="46.78579" lon="5.61753">
        <ele>401.49</ele>
        <time>2013-04-21T08:26:34Z</time>
      </trkpt>
      <trkpt lat="46.78585" lon="5.61765">
        <ele>401.49</ele>
        <time>2013-04-21T08:26:46Z</time>
      </trkpt>
      <trkpt lat="46.78591" lon="5.61779">
        <ele>401.49</ele>
        <time>2013-04-21T08:26:57Z</time>
      </trkpt>
      <trkpt lat="46.78603" lon="5.61795">
        <ele>401.97</ele>
        <time>2013-04-21T08:27:12Z</time>
      </trkpt>
      <trkpt lat="46.78617" lon="5.61809">
        <ele>402.45</ele>
        <time>2013-04-21T08:27:26Z</time>
      </trkpt>
      <trkpt lat="46.78629" lon="5.61823">
        <ele>401.49</ele>
        <time>2013-04-21T08:27:40Z</time>
      </trkpt>
      <trkpt lat="46.78632" lon="5.61827">
        <ele>401.01</ele>
        <time>2013-04-21T08:27:44Z</time>
      </trkpt>
      <trkpt lat="46.78641" lon="5.61842">
        <ele>400.53</ele>
        <time>2013-04-21T08:27:58Z</time>
      </trkpt>
      <trkpt lat="46.78642" lon="5.61847">
        <ele>400.53</ele>
        <time>2013-04-21T08:28:01Z</time>
      </trkpt>
      <trkpt lat="46.78648" lon="5.61859">
        <ele>400.53</ele>
        <time>2013-04-21T08:28:11Z</time>
      </trkpt>
      <trkpt lat="46.78664" lon="5.6188">
        <ele>400.53</ele>
        <time>2013-04-21T08:28:26Z</time>
      </trkpt>
      <trkpt lat="46.78674" lon="5.61901">
        <ele>397.64</ele>
        <time>2013-04-21T08:28:43Z</time>
      </trkpt>
      <trkpt lat="46.78676" lon="5.61904">
        <ele>397.16</ele>
        <time>2013-04-21T08:28:46Z</time>
      </trkpt>
      <trkpt lat="46.78691" lon="5.61911">
        <ele>393.8</ele>
        <time>2013-04-21T08:28:59Z</time>
      </trkpt>
      <trkpt lat="46.787" lon="5.61922">
        <ele>390.91</ele>
        <time>2013-04-21T08:29:13Z</time>
      </trkpt>
      <trkpt lat="46.78704" lon="5.61931">
        <ele>390.91</ele>
        <time>2013-04-21T08:29:29Z</time>
      </trkpt>
      <trkpt lat="46.78703" lon="5.61951">
        <ele>392.84</ele>
        <time>2013-04-21T08:29:44Z</time>
      </trkpt>
      <trkpt lat="46.78698" lon="5.61967">
        <ele>395.24</ele>
        <time>2013-04-21T08:29:59Z</time>
      </trkpt>
      <trkpt lat="46.78699" lon="5.61983">
        <ele>396.68</ele>
        <time>2013-04-21T08:30:13Z</time>
      </trkpt>
      <trkpt lat="46.78696" lon="5.61998">
        <ele>399.08</ele>
        <time>2013-04-21T08:30:27Z</time>
      </trkpt>
      <trkpt lat="46.78691" lon="5.62012">
        <ele>400.53</ele>
        <time>2013-04-21T08:30:41Z</time>
      </trkpt>
      <trkpt lat="46.78689" lon="5.62026">
        <ele>402.93</ele>
        <time>2013-04-21T08:30:56Z</time>
      </trkpt>
      <trkpt lat="46.78689" lon="5.62044">
        <ele>405.33</ele>
        <time>2013-04-21T08:31:12Z</time>
      </trkpt>
      <trkpt lat="46.78691" lon="5.62069">
        <ele>407.74</ele>
        <time>2013-04-21T08:31:29Z</time>
      </trkpt>
      <trkpt lat="46.78695" lon="5.62084">
        <ele>409.66</ele>
        <time>2013-04-21T08:31:43Z</time>
      </trkpt>
      <trkpt lat="46.78694" lon="5.62096">
        <ele>411.58</ele>
        <time>2013-04-21T08:31:58Z</time>
      </trkpt>
      <trkpt lat="46.78679" lon="5.62082">
        <ele>412.06</ele>
        <time>2013-04-21T08:32:13Z</time>
      </trkpt>
      <trkpt lat="46.78677" lon="5.62075">
        <ele>412.06</ele>
        <time>2013-04-21T08:32:17Z</time>
      </trkpt>
      <trkpt lat="46.78666" lon="5.62051">
        <ele>411.58</ele>
        <time>2013-04-21T08:32:32Z</time>
      </trkpt>
      <trkpt lat="46.7866" lon="5.62032">
        <ele>411.1</ele>
        <time>2013-04-21T08:32:46Z</time>
      </trkpt>
      <trkpt lat="46.78655" lon="5.6202">
        <ele>411.1</ele>
        <time>2013-04-21T08:32:56Z</time>
      </trkpt>
      <trkpt lat="46.7865" lon="5.62003">
        <ele>411.58</ele>
        <time>2013-04-21T08:33:10Z</time>
      </trkpt>
      <trkpt lat="46.78649" lon="5.61999">
        <ele>411.58</ele>
        <time>2013-04-21T08:33:13Z</time>
      </trkpt>
      <trkpt lat="46.78642" lon="5.61977">
        <ele>412.06</ele>
        <time>2013-04-21T08:33:31Z</time>
      </trkpt>
      <trkpt lat="46.78632" lon="5.61958">
        <ele>412.54</ele>
        <time>2013-04-21T08:33:47Z</time>
      </trkpt>
      <trkpt lat="46.78626" lon="5.61937">
        <ele>413.02</ele>
        <time>2013-04-21T08:34:02Z</time>
      </trkpt>
      <trkpt lat="46.78621" lon="5.61923">
        <ele>413.02</ele>
        <time>2013-04-21T08:34:16Z</time>
      </trkpt>
      <trkpt lat="46.78618" lon="5.6192">
        <ele>413.5</ele>
        <time>2013-04-21T08:34:32Z</time>
      </trkpt>
      <trkpt lat="46.78611" lon="5.61906">
        <ele>413.5</ele>
        <time>2013-04-21T08:34:54Z</time>
      </trkpt>
      <trkpt lat="46.78613" lon="5.61908">
        <ele>413.5</ele>
        <time>2013-04-21T08:35:12Z</time>
      </trkpt>
      <trkpt lat="46.78611" lon="5.61904">
        <ele>413.98</ele>
        <time>2013-04-21T08:35:34Z</time>
      </trkpt>
      <trkpt lat="46.78612" lon="5.61903">
        <ele>413.98</ele>
        <time>2013-04-21T08:35:59Z</time>
      </trkpt>
      <trkpt lat="46.78616" lon="5.61904">
        <ele>413.98</ele>
        <time>2013-04-21T08:36:25Z</time>
      </trkpt>
      <trkpt lat="46.78616" lon="5.61906">
        <ele>413.98</ele>
        <time>2013-04-21T08:36:43Z</time>
      </trkpt>
      <trkpt lat="46.78618" lon="5.61912">
        <ele>413.98</ele>
        <time>2013-04-21T08:37:01Z</time>
      </trkpt>
      <trkpt lat="46.78625" lon="5.61914">
        <ele>413.98</ele>
        <time>2013-04-21T08:37:31Z</time>
      </trkpt>
      <trkpt lat="46.78627" lon="5.61911">
        <ele>413.98</ele>
        <time>2013-04-21T08:37:53Z</time>
      </trkpt>
      <trkpt lat="46.78632" lon="5.61935">
        <ele>413.98</ele>
        <time>2013-04-21T08:38:20Z</time>
      </trkpt>
      <trkpt lat="46.78637" lon="5.61947">
        <ele>413.5</ele>
        <time>2013-04-21T08:38:34Z</time>
      </trkpt>
      <trkpt lat="46.78638" lon="5.61949">
        <ele>413.5</ele>
        <time>2013-04-21T08:38:36Z</time>
      </trkpt>
      <trkpt lat="46.78645" lon="5.61966">
        <ele>413.02</ele>
        <time>2013-04-21T08:38:51Z</time>
      </trkpt>
      <trkpt lat="46.78652" lon="5.61987">
        <ele>412.54</ele>
        <time>2013-04-21T08:39:06Z</time>
      </trkpt>
      <trkpt lat="46.78664" lon="5.6201">
        <ele>412.54</ele>
        <time>2013-04-21T08:39:23Z</time>
      </trkpt>
      <trkpt lat="46.78671" lon="5.62035">
        <ele>412.54</ele>
        <time>2013-04-21T08:39:39Z</time>
      </trkpt>
      <trkpt lat="46.78677" lon="5.62054">
        <ele>412.54</ele>
        <time>2013-04-21T08:39:53Z</time>
      </trkpt>
      <trkpt lat="46.78692" lon="5.62071">
        <ele>412.54</ele>
        <time>2013-04-21T08:40:05Z</time>
      </trkpt>
      <trkpt lat="46.78694" lon="5.6209">
        <ele>413.02</ele>
        <time>2013-04-21T08:40:20Z</time>
      </trkpt>
      <trkpt lat="46.78693" lon="5.6208">
        <ele>411.1</ele>
        <time>2013-04-21T08:40:33Z</time>
      </trkpt>
      <trkpt lat="46.7869" lon="5.62074">
        <ele>410.14</ele>
        <time>2013-04-21T08:40:38Z</time>
      </trkpt>
      <trkpt lat="46.78685" lon="5.6205">
        <ele>407.26</ele>
        <time>2013-04-21T08:40:52Z</time>
      </trkpt>
      <trkpt lat="46.78685" lon="5.62034">
        <ele>404.85</ele>
        <time>2013-04-21T08:41:04Z</time>
      </trkpt>
      <trkpt lat="46.78683" lon="5.62014">
        <ele>402.45</ele>
        <time>2013-04-21T08:41:18Z</time>
      </trkpt>
      <trkpt lat="46.78684" lon="5.62001">
        <ele>400.53</ele>
        <time>2013-04-21T08:41:26Z</time>
      </trkpt>
      <trkpt lat="46.78688" lon="5.61975">
        <ele>397.64</ele>
        <time>2013-04-21T08:41:41Z</time>
      </trkpt>
      <trkpt lat="46.78692" lon="5.61955">
        <ele>394.28</ele>
        <time>2013-04-21T08:41:56Z</time>
      </trkpt>
      <trkpt lat="46.78696" lon="5.61933">
        <ele>391.39</ele>
        <time>2013-04-21T08:42:11Z</time>
      </trkpt>
      <trkpt lat="46.78699" lon="5.61929">
        <ele>390.43</ele>
        <time>2013-04-21T08:42:15Z</time>
      </trkpt>
      <trkpt lat="46.78716" lon="5.61929">
        <ele>387.07</ele>
        <time>2013-04-21T08:42:29Z</time>
      </trkpt>
      <trkpt lat="46.78736" lon="5.61927">
        <ele>384.66</ele>
        <time>2013-04-21T08:42:45Z</time>
      </trkpt>
      <trkpt lat="46.78738" lon="5.61929">
        <ele>384.66</ele>
        <time>2013-04-21T08:42:47Z</time>
      </trkpt>
      <trkpt lat="46.7875" lon="5.61925">
        <ele>382.26</ele>
        <time>2013-04-21T08:43:01Z</time>
      </trkpt>
      <trkpt lat="46.7876" lon="5.6193">
        <ele>382.26</ele>
        <time>2013-04-21T08:43:11Z</time>
      </trkpt>
      <trkpt lat="46.78772" lon="5.61944">
        <ele>383.7</ele>
        <time>2013-04-21T08:43:27Z</time>
      </trkpt>
      <trkpt lat="46.78774" lon="5.61946">
        <ele>383.22</ele>
        <time>2013-04-21T08:43:29Z</time>
      </trkpt>
      <trkpt lat="46.78786" lon="5.61956">
        <ele>383.7</ele>
        <time>2013-04-21T08:43:44Z</time>
      </trkpt>
      <trkpt lat="46.788" lon="5.61965">
        <ele>383.7</ele>
        <time>2013-04-21T08:44:00Z</time>
      </trkpt>
      <trkpt lat="46.78818" lon="5.61974">
        <ele>383.7</ele>
        <time>2013-04-21T08:44:16Z</time>
      </trkpt>
      <trkpt lat="46.78833" lon="5.61976">
        <ele>382.74</ele>
        <time>2013-04-21T08:44:30Z</time>
      </trkpt>
      <trkpt lat="46.78847" lon="5.61979">
        <ele>381.78</ele>
        <time>2013-04-21T08:44:42Z</time>
      </trkpt>
      <trkpt lat="46.78861" lon="5.61983">
        <ele>380.82</ele>
        <time>2013-04-21T08:44:55Z</time>
      </trkpt>
      <trkpt lat="46.78876" lon="5.61985">
        <ele>379.86</ele>
        <time>2013-04-21T08:45:09Z</time>
      </trkpt>
      <trkpt lat="46.78887" lon="5.61986">
        <ele>376.01</ele>
        <time>2013-04-21T08:45:16Z</time>
      </trkpt>
      <trkpt lat="46.78889" lon="5.61987">
        <ele>381.78</ele>
        <time>2013-04-21T08:45:17Z</time>
      </trkpt>
      <trkpt lat="46.78892" lon="5.61987">
        <ele>378.42</ele>
        <time>2013-04-21T08:45:19Z</time>
      </trkpt>
      <trkpt lat="46.78896" lon="5.61987">
        <ele>377.94</ele>
        <time>2013-04-21T08:45:22Z</time>
      </trkpt>
      <trkpt lat="46.78925" lon="5.61988">
        <ele>376.97</ele>
        <time>2013-04-21T08:45:41Z</time>
      </trkpt>
      <trkpt lat="46.78945" lon="5.61987">
        <ele>376.01</ele>
        <time>2013-04-21T08:45:56Z</time>
      </trkpt>
      <trkpt lat="46.78965" lon="5.61983">
        <ele>375.05</ele>
        <time>2013-04-21T08:46:11Z</time>
      </trkpt>
      <trkpt lat="46.78976" lon="5.6198">
        <ele>374.09</ele>
        <time>2013-04-21T08:46:21Z</time>
      </trkpt>
      <trkpt lat="46.78987" lon="5.61976">
        <ele>373.13</ele>
        <time>2013-04-21T08:46:33Z</time>
      </trkpt>
      <trkpt lat="46.79001" lon="5.61969">
        <ele>371.21</ele>
        <time>2013-04-21T08:46:48Z</time>
      </trkpt>
      <trkpt lat="46.79014" lon="5.61964">
        <ele>369.76</ele>
        <time>2013-04-21T08:47:02Z</time>
      </trkpt>
      <trkpt lat="46.79029" lon="5.61957">
        <ele>368.32</ele>
        <time>2013-04-21T08:47:15Z</time>
      </trkpt>
      <trkpt lat="46.79046" lon="5.6195">
        <ele>367.36</ele>
        <time>2013-04-21T08:47:31Z</time>
      </trkpt>
      <trkpt lat="46.79056" lon="5.61943">
        <ele>366.88</ele>
        <time>2013-04-21T08:47:45Z</time>
      </trkpt>
      <trkpt lat="46.7907" lon="5.61937">
        <ele>366.4</ele>
        <time>2013-04-21T08:48:01Z</time>
      </trkpt>
      <trkpt lat="46.79083" lon="5.61934">
        <ele>366.4</ele>
        <time>2013-04-21T08:48:15Z</time>
      </trkpt>
      <trkpt lat="46.79102" lon="5.61932">
        <ele>365.92</ele>
        <time>2013-04-21T08:48:32Z</time>
      </trkpt>
      <trkpt lat="46.79128" lon="5.61928">
        <ele>364.96</ele>
        <time>2013-04-21T08:48:51Z</time>
      </trkpt>
      <trkpt lat="46.79148" lon="5.6192">
        <ele>363.52</ele>
        <time>2013-04-21T08:49:09Z</time>
      </trkpt>
      <trkpt lat="46.79169" lon="5.61908">
        <ele>360.63</ele>
        <time>2013-04-21T08:49:28Z</time>
      </trkpt>
      <trkpt lat="46.79189" lon="5.61899">
        <ele>357.75</ele>
        <time>2013-04-21T08:49:46Z</time>
      </trkpt>
      <trkpt lat="46.79212" lon="5.61886">
        <ele>354.86</ele>
        <time>2013-04-21T08:50:07Z</time>
      </trkpt>
      <trkpt lat="46.79233" lon="5.61873">
        <ele>352.46</ele>
        <time>2013-04-21T08:50:26Z</time>
      </trkpt>
      <trkpt lat="46.79253" lon="5.61861">
        <ele>349.58</ele>
        <time>2013-04-21T08:50:44Z</time>
      </trkpt>
      <trkpt lat="46.79279" lon="5.61846">
        <ele>346.21</ele>
        <time>2013-04-21T08:51:06Z</time>
      </trkpt>
      <trkpt lat="46.79303" lon="5.61833">
        <ele>344.29</ele>
        <time>2013-04-21T08:51:27Z</time>
      </trkpt>
      <trkpt lat="46.79327" lon="5.61823">
        <ele>342.37</ele>
        <time>2013-04-21T08:51:48Z</time>
      </trkpt>
      <trkpt lat="46.79346" lon="5.6181">
        <ele>340.92</ele>
        <time>2013-04-21T08:52:07Z</time>
      </trkpt>
      <trkpt lat="46.79355" lon="5.61781">
        <ele>339</ele>
        <time>2013-04-21T08:52:25Z</time>
      </trkpt>
      <trkpt lat="46.79356" lon="5.61782">
        <ele>338.52</ele>
        <time>2013-04-21T08:52:37Z</time>
      </trkpt>
      <trkpt lat="46.79357" lon="5.61777">
        <ele>338.52</ele>
        <time>2013-04-21T08:52:51Z</time>
      </trkpt>
      <trkpt lat="46.7936" lon="5.6177">
        <ele>337.56</ele>
        <time>2013-04-21T08:52:56Z</time>
      </trkpt>
      <trkpt lat="46.79376" lon="5.61766">
        <ele>336.12</ele>
        <time>2013-04-21T08:53:13Z</time>
      </trkpt>
      <trkpt lat="46.79392" lon="5.61772">
        <ele>335.16</ele>
        <time>2013-04-21T08:53:28Z</time>
      </trkpt>
      <trkpt lat="46.79406" lon="5.61778">
        <ele>334.2</ele>
        <time>2013-04-21T08:53:42Z</time>
      </trkpt>
      <trkpt lat="46.79422" lon="5.61786">
        <ele>333.23</ele>
        <time>2013-04-21T08:53:58Z</time>
      </trkpt>
      <trkpt lat="46.79439" lon="5.61793">
        <ele>332.27</ele>
        <time>2013-04-21T08:54:14Z</time>
      </trkpt>
      <trkpt lat="46.7946" lon="5.61801">
        <ele>330.83</ele>
        <time>2013-04-21T08:54:31Z</time>
      </trkpt>
      <trkpt lat="46.79468" lon="5.61805">
        <ele>330.35</ele>
        <time>2013-04-21T08:54:39Z</time>
      </trkpt>
      <trkpt lat="46.79489" lon="5.61816">
        <ele>329.39</ele>
        <time>2013-04-21T08:54:57Z</time>
      </trkpt>
      <trkpt lat="46.79504" lon="5.61827">
        <ele>328.43</ele>
        <time>2013-04-21T08:55:12Z</time>
      </trkpt>
      <trkpt lat="46.7952" lon="5.61842">
        <ele>327.47</ele>
        <time>2013-04-21T08:55:27Z</time>
      </trkpt>
      <trkpt lat="46.79541" lon="5.61861">
        <ele>326.5</ele>
        <time>2013-04-21T08:55:46Z</time>
      </trkpt>
      <trkpt lat="46.79552" lon="5.6187">
        <ele>325.54</ele>
        <time>2013-04-21T08:55:57Z</time>
      </trkpt>
      <trkpt lat="46.79566" lon="5.61885">
        <ele>325.06</ele>
        <time>2013-04-21T08:56:13Z</time>
      </trkpt>
      <trkpt lat="46.7959" lon="5.61899">
        <ele>324.58</ele>
        <time>2013-04-21T08:56:30Z</time>
      </trkpt>
      <trkpt lat="46.7961" lon="5.61912">
        <ele>324.1</ele>
        <time>2013-04-21T08:56:48Z</time>
      </trkpt>
      <trkpt lat="46.79616" lon="5.61916">
        <ele>324.1</ele>
        <time>2013-04-21T08:56:53Z</time>
      </trkpt>
      <trkpt lat="46.79637" lon="5.61932">
        <ele>324.1</ele>
        <time>2013-04-21T08:57:12Z</time>
      </trkpt>
      <trkpt lat="46.7964" lon="5.61951">
        <ele>325.06</ele>
        <time>2013-04-21T08:57:25Z</time>
      </trkpt>
      <trkpt lat="46.79648" lon="5.61963">
        <ele>326.02</ele>
        <time>2013-04-21T08:57:37Z</time>
      </trkpt>
      <trkpt lat="46.79649" lon="5.6199">
        <ele>327.95</ele>
        <time>2013-04-21T08:57:52Z</time>
      </trkpt>
      <trkpt lat="46.79652" lon="5.62011">
        <ele>330.35</ele>
        <time>2013-04-21T08:58:07Z</time>
      </trkpt>
      <trkpt lat="46.79657" lon="5.62035">
        <ele>332.75</ele>
        <time>2013-04-21T08:58:25Z</time>
      </trkpt>
      <trkpt lat="46.79662" lon="5.62053">
        <ele>335.16</ele>
        <time>2013-04-21T08:58:39Z</time>
      </trkpt>
      <trkpt lat="46.79668" lon="5.62072">
        <ele>337.08</ele>
        <time>2013-04-21T08:58:55Z</time>
      </trkpt>
      <trkpt lat="46.79671" lon="5.62091">
        <ele>339.48</ele>
        <time>2013-04-21T08:59:12Z</time>
      </trkpt>
      <trkpt lat="46.79669" lon="5.62118">
        <ele>341.89</ele>
        <time>2013-04-21T08:59:28Z</time>
      </trkpt>
      <trkpt lat="46.79662" lon="5.62144">
        <ele>344.29</ele>
        <time>2013-04-21T08:59:46Z</time>
      </trkpt>
      <trkpt lat="46.79656" lon="5.62169">
        <ele>346.69</ele>
        <time>2013-04-21T09:00:02Z</time>
      </trkpt>
      <trkpt lat="46.79654" lon="5.62177">
        <ele>348.13</ele>
        <time>2013-04-21T09:00:13Z</time>
      </trkpt>
      <trkpt lat="46.79654" lon="5.62196">
        <ele>349.58</ele>
        <time>2013-04-21T09:00:26Z</time>
      </trkpt>
      <trkpt lat="46.79652" lon="5.62218">
        <ele>348.13</ele>
        <time>2013-04-21T09:00:42Z</time>
      </trkpt>
      <trkpt lat="46.79649" lon="5.62232">
        <ele>348.13</ele>
        <time>2013-04-21T09:00:50Z</time>
      </trkpt>
      <trkpt lat="46.79643" lon="5.62262">
        <ele>348.62</ele>
        <time>2013-04-21T09:01:04Z</time>
      </trkpt>
      <trkpt lat="46.79644" lon="5.62282">
        <ele>350.06</ele>
        <time>2013-04-21T09:01:21Z</time>
      </trkpt>
      <trkpt lat="46.79649" lon="5.623">
        <ele>352.94</ele>
        <time>2013-04-21T09:01:38Z</time>
      </trkpt>
      <trkpt lat="46.79658" lon="5.62319">
        <ele>355.83</ele>
        <time>2013-04-21T09:01:54Z</time>
      </trkpt>
      <trkpt lat="46.79661" lon="5.6234">
        <ele>358.23</ele>
        <time>2013-04-21T09:02:10Z</time>
      </trkpt>
      <trkpt lat="46.79664" lon="5.62361">
        <ele>360.63</ele>
        <time>2013-04-21T09:02:26Z</time>
      </trkpt>
      <trkpt lat="46.79657" lon="5.62386">
        <ele>363.04</ele>
        <time>2013-04-21T09:02:44Z</time>
      </trkpt>
      <trkpt lat="46.79654" lon="5.62408">
        <ele>364.48</ele>
        <time>2013-04-21T09:02:59Z</time>
      </trkpt>
      <trkpt lat="46.79653" lon="5.62423">
        <ele>367.36</ele>
        <time>2013-04-21T09:03:15Z</time>
      </trkpt>
      <trkpt lat="46.79644" lon="5.62433">
        <ele>369.76</ele>
        <time>2013-04-21T09:03:33Z</time>
      </trkpt>
      <trkpt lat="46.7964" lon="5.62444">
        <ele>372.65</ele>
        <time>2013-04-21T09:03:49Z</time>
      </trkpt>
      <trkpt lat="46.7964" lon="5.62456">
        <ele>376.01</ele>
        <time>2013-04-21T09:04:05Z</time>
      </trkpt>
      <trkpt lat="46.79642" lon="5.62475">
        <ele>378.9</ele>
        <time>2013-04-21T09:04:26Z</time>
      </trkpt>
      <trkpt lat="46.79647" lon="5.62485">
        <ele>381.78</ele>
        <time>2013-04-21T09:04:42Z</time>
      </trkpt>
      <trkpt lat="46.79657" lon="5.62484">
        <ele>383.7</ele>
        <time>2013-04-21T09:04:58Z</time>
      </trkpt>
      <trkpt lat="46.79668" lon="5.62474">
        <ele>385.15</ele>
        <time>2013-04-21T09:05:13Z</time>
      </trkpt>
      <trkpt lat="46.79677" lon="5.62467">
        <ele>386.11</ele>
        <time>2013-04-21T09:05:27Z</time>
      </trkpt>
      <trkpt lat="46.7969" lon="5.6246">
        <ele>387.55</ele>
        <time>2013-04-21T09:05:41Z</time>
      </trkpt>
      <trkpt lat="46.79701" lon="5.62465">
        <ele>388.51</ele>
        <time>2013-04-21T09:05:56Z</time>
      </trkpt>
      <trkpt lat="46.79711" lon="5.62461">
        <ele>389.95</ele>
        <time>2013-04-21T09:06:12Z</time>
      </trkpt>
      <trkpt lat="46.79712" lon="5.6246">
        <ele>392.36</ele>
        <time>2013-04-21T09:06:13Z</time>
      </trkpt>
      <trkpt lat="46.7972" lon="5.62458">
        <ele>391.39</ele>
        <time>2013-04-21T09:06:29Z</time>
      </trkpt>
      <trkpt lat="46.79727" lon="5.62452">
        <ele>391.87</ele>
        <time>2013-04-21T09:06:45Z</time>
      </trkpt>
      <trkpt lat="46.79735" lon="5.62448">
        <ele>393.32</ele>
        <time>2013-04-21T09:06:58Z</time>
      </trkpt>
      <trkpt lat="46.7974" lon="5.62441">
        <ele>394.76</ele>
        <time>2013-04-21T09:07:11Z</time>
      </trkpt>
      <trkpt lat="46.79749" lon="5.6243">
        <ele>395.72</ele>
        <time>2013-04-21T09:07:25Z</time>
      </trkpt>
      <trkpt lat="46.79763" lon="5.62419">
        <ele>397.64</ele>
        <time>2013-04-21T09:07:41Z</time>
      </trkpt>
      <trkpt lat="46.79773" lon="5.62412">
        <ele>399.08</ele>
        <time>2013-04-21T09:07:54Z</time>
      </trkpt>
      <trkpt lat="46.79782" lon="5.62407">
        <ele>401.01</ele>
        <time>2013-04-21T09:08:09Z</time>
      </trkpt>
      <trkpt lat="46.79797" lon="5.62404">
        <ele>402.45</ele>
        <time>2013-04-21T09:08:24Z</time>
      </trkpt>
      <trkpt lat="46.79814" lon="5.62401">
        <ele>405.33</ele>
        <time>2013-04-21T09:08:43Z</time>
      </trkpt>
      <trkpt lat="46.79828" lon="5.62399">
        <ele>407.74</ele>
        <time>2013-04-21T09:08:59Z</time>
      </trkpt>
      <trkpt lat="46.79838" lon="5.62405">
        <ele>410.14</ele>
        <time>2013-04-21T09:09:12Z</time>
      </trkpt>
      <trkpt lat="46.79851" lon="5.62407">
        <ele>413.5</ele>
        <time>2013-04-21T09:09:30Z</time>
      </trkpt>
      <trkpt lat="46.79866" lon="5.62408">
        <ele>416.39</ele>
        <time>2013-04-21T09:09:47Z</time>
      </trkpt>
      <trkpt lat="46.7988" lon="5.62407">
        <ele>419.27</ele>
        <time>2013-04-21T09:10:03Z</time>
      </trkpt>
      <trkpt lat="46.79889" lon="5.62408">
        <ele>421.68</ele>
        <time>2013-04-21T09:10:18Z</time>
      </trkpt>
      <trkpt lat="46.79899" lon="5.62406">
        <ele>424.08</ele>
        <time>2013-04-21T09:10:31Z</time>
      </trkpt>
      <trkpt lat="46.79914" lon="5.62403">
        <ele>425.52</ele>
        <time>2013-04-21T09:10:48Z</time>
      </trkpt>
      <trkpt lat="46.7993" lon="5.62405">
        <ele>426.96</ele>
        <time>2013-04-21T09:11:03Z</time>
      </trkpt>
      <trkpt lat="46.79948" lon="5.62418">
        <ele>428.89</ele>
        <time>2013-04-21T09:11:20Z</time>
      </trkpt>
      <trkpt lat="46.79957" lon="5.62432">
        <ele>431.29</ele>
        <time>2013-04-21T09:11:38Z</time>
      </trkpt>
      <trkpt lat="46.79963" lon="5.62445">
        <ele>432.73</ele>
        <time>2013-04-21T09:11:54Z</time>
      </trkpt>
      <trkpt lat="46.79964" lon="5.62462">
        <ele>435.13</ele>
        <time>2013-04-21T09:12:11Z</time>
      </trkpt>
      <trkpt lat="46.79969" lon="5.62479">
        <ele>438.02</ele>
        <time>2013-04-21T09:12:27Z</time>
      </trkpt>
      <trkpt lat="46.79964" lon="5.62488">
        <ele>440.9</ele>
        <time>2013-04-21T09:12:40Z</time>
      </trkpt>
      <trkpt lat="46.7995" lon="5.62487">
        <ele>440.9</ele>
        <time>2013-04-21T09:12:56Z</time>
      </trkpt>
      <trkpt lat="46.79936" lon="5.62482">
        <ele>441.86</ele>
        <time>2013-04-21T09:13:13Z</time>
      </trkpt>
      <trkpt lat="46.79924" lon="5.62476">
        <ele>442.82</ele>
        <time>2013-04-21T09:13:28Z</time>
      </trkpt>
      <trkpt lat="46.79914" lon="5.62473">
        <ele>443.31</ele>
        <time>2013-04-21T09:13:39Z</time>
      </trkpt>
      <trkpt lat="46.79894" lon="5.62468">
        <ele>444.27</ele>
        <time>2013-04-21T09:13:58Z</time>
      </trkpt>
      <trkpt lat="46.79882" lon="5.62469">
        <ele>445.23</ele>
        <time>2013-04-21T09:14:10Z</time>
      </trkpt>
      <trkpt lat="46.79864" lon="5.62467">
        <ele>445.71</ele>
        <time>2013-04-21T09:14:28Z</time>
      </trkpt>
      <trkpt lat="46.79852" lon="5.62467">
        <ele>446.19</ele>
        <time>2013-04-21T09:14:42Z</time>
      </trkpt>
      <trkpt lat="46.79842" lon="5.62472">
        <ele>446.67</ele>
        <time>2013-04-21T09:14:55Z</time>
      </trkpt>
      <trkpt lat="46.79827" lon="5.62478">
        <ele>447.63</ele>
        <time>2013-04-21T09:15:09Z</time>
      </trkpt>
      <trkpt lat="46.79812" lon="5.62489">
        <ele>448.59</ele>
        <time>2013-04-21T09:15:23Z</time>
      </trkpt>
      <trkpt lat="46.79801" lon="5.62493">
        <ele>449.07</ele>
        <time>2013-04-21T09:15:36Z</time>
      </trkpt>
      <trkpt lat="46.79796" lon="5.62489">
        <ele>449.07</ele>
        <time>2013-04-21T09:15:55Z</time>
      </trkpt>
      <trkpt lat="46.79795" lon="5.62486">
        <ele>449.07</ele>
        <time>2013-04-21T09:16:13Z</time>
      </trkpt>
      <trkpt lat="46.79796" lon="5.62486">
        <ele>449.07</ele>
        <time>2013-04-21T09:16:31Z</time>
      </trkpt>
      <trkpt lat="46.79793" lon="5.62481">
        <ele>448.59</ele>
        <time>2013-04-21T09:16:45Z</time>
      </trkpt>
      <trkpt lat="46.79797" lon="5.62481">
        <ele>447.15</ele>
        <time>2013-04-21T09:17:05Z</time>
      </trkpt>
      <trkpt lat="46.79794" lon="5.62478">
        <ele>447.63</ele>
        <time>2013-04-21T09:17:41Z</time>
      </trkpt>
      <trkpt lat="46.79795" lon="5.62478">
        <ele>447.63</ele>
        <time>2013-04-21T09:18:18Z</time>
      </trkpt>
      <trkpt lat="46.79796" lon="5.62479">
        <ele>448.11</ele>
        <time>2013-04-21T09:18:49Z</time>
      </trkpt>
      <trkpt lat="46.79796" lon="5.62482">
        <ele>448.11</ele>
        <time>2013-04-21T09:19:19Z</time>
      </trkpt>
      <trkpt lat="46.79798" lon="5.62479">
        <ele>448.11</ele>
        <time>2013-04-21T09:19:53Z</time>
      </trkpt>
      <trkpt lat="46.79798" lon="5.62477">
        <ele>448.59</ele>
        <time>2013-04-21T09:20:01Z</time>
      </trkpt>
      <trkpt lat="46.79797" lon="5.62483">
        <ele>449.55</ele>
        <time>2013-04-21T09:20:10Z</time>
      </trkpt>
      <trkpt lat="46.79796" lon="5.62482">
        <ele>449.55</ele>
        <time>2013-04-21T09:20:24Z</time>
      </trkpt>
      <trkpt lat="46.79793" lon="5.6248">
        <ele>449.07</ele>
        <time>2013-04-21T09:20:36Z</time>
      </trkpt>
      <trkpt lat="46.79794" lon="5.6248">
        <ele>448.11</ele>
        <time>2013-04-21T09:20:55Z</time>
      </trkpt>
      <trkpt lat="46.79794" lon="5.6248">
        <ele>448.59</ele>
        <time>2013-04-21T09:21:10Z</time>
      </trkpt>
      <trkpt lat="46.79795" lon="5.62491">
        <ele>449.55</ele>
        <time>2013-04-21T09:21:17Z</time>
      </trkpt>
      <trkpt lat="46.79786" lon="5.62509">
        <ele>450.03</ele>
        <time>2013-04-21T09:21:30Z</time>
      </trkpt>
      <trkpt lat="46.79774" lon="5.62533">
        <ele>451</ele>
        <time>2013-04-21T09:21:45Z</time>
      </trkpt>
      <trkpt lat="46.79761" lon="5.62557">
        <ele>451.96</ele>
        <time>2013-04-21T09:21:59Z</time>
      </trkpt>
      <trkpt lat="46.7975" lon="5.62582">
        <ele>453.4</ele>
        <time>2013-04-21T09:22:14Z</time>
      </trkpt>
      <trkpt lat="46.7974" lon="5.62599">
        <ele>453.88</ele>
        <time>2013-04-21T09:22:27Z</time>
      </trkpt>
      <trkpt lat="46.79733" lon="5.62613">
        <ele>454.36</ele>
        <time>2013-04-21T09:22:34Z</time>
      </trkpt>
      <trkpt lat="46.79718" lon="5.62638">
        <ele>455.8</ele>
        <time>2013-04-21T09:22:48Z</time>
      </trkpt>
      <trkpt lat="46.79708" lon="5.62653">
        <ele>456.76</ele>
        <time>2013-04-21T09:23:04Z</time>
      </trkpt>
      <trkpt lat="46.79699" lon="5.62665">
        <ele>457.72</ele>
        <time>2013-04-21T09:23:19Z</time>
      </trkpt>
      <trkpt lat="46.79697" lon="5.62668">
        <ele>457.72</ele>
        <time>2013-04-21T09:23:23Z</time>
      </trkpt>
      <trkpt lat="46.79687" lon="5.62681">
        <ele>459.17</ele>
        <time>2013-04-21T09:23:36Z</time>
      </trkpt>
      <trkpt lat="46.79671" lon="5.62699">
        <ele>459.65</ele>
        <time>2013-04-21T09:23:49Z</time>
      </trkpt>
      <trkpt lat="46.79657" lon="5.62697">
        <ele>461.09</ele>
        <time>2013-04-21T09:24:01Z</time>
      </trkpt>
      <trkpt lat="46.79649" lon="5.62692">
        <ele>460.13</ele>
        <time>2013-04-21T09:24:14Z</time>
      </trkpt>
      <trkpt lat="46.7965" lon="5.62691">
        <ele>459.65</ele>
        <time>2013-04-21T09:24:34Z</time>
      </trkpt>
      <trkpt lat="46.79646" lon="5.6269">
        <ele>459.65</ele>
        <time>2013-04-21T09:24:59Z</time>
      </trkpt>
      <trkpt lat="46.79634" lon="5.6269">
        <ele>460.13</ele>
        <time>2013-04-21T09:25:11Z</time>
      </trkpt>
      <trkpt lat="46.79632" lon="5.6269">
        <ele>460.13</ele>
        <time>2013-04-21T09:25:13Z</time>
      </trkpt>
      <trkpt lat="46.79613" lon="5.62685">
        <ele>459.17</ele>
        <time>2013-04-21T09:25:29Z</time>
      </trkpt>
      <trkpt lat="46.79594" lon="5.62677">
        <ele>459.17</ele>
        <time>2013-04-21T09:25:44Z</time>
      </trkpt>
      <trkpt lat="46.79581" lon="5.62673">
        <ele>460.61</ele>
        <time>2013-04-21T09:25:57Z</time>
      </trkpt>
      <trkpt lat="46.79568" lon="5.62668">
        <ele>463.01</ele>
        <time>2013-04-21T09:26:13Z</time>
      </trkpt>
      <trkpt lat="46.7955" lon="5.62661">
        <ele>464.93</ele>
        <time>2013-04-21T09:26:31Z</time>
      </trkpt>
      <trkpt lat="46.79536" lon="5.62659">
        <ele>465.42</ele>
        <time>2013-04-21T09:26:44Z</time>
      </trkpt>
      <trkpt lat="46.79523" lon="5.62657">
        <ele>465.42</ele>
        <time>2013-04-21T09:26:56Z</time>
      </trkpt>
      <trkpt lat="46.79509" lon="5.62656">
        <ele>465.42</ele>
        <time>2013-04-21T09:27:12Z</time>
      </trkpt>
      <trkpt lat="46.79494" lon="5.62645">
        <ele>465.42</ele>
        <time>2013-04-21T09:27:28Z</time>
      </trkpt>
      <trkpt lat="46.79477" lon="5.62638">
        <ele>465.9</ele>
        <time>2013-04-21T09:27:43Z</time>
      </trkpt>
      <trkpt lat="46.79461" lon="5.62632">
        <ele>466.38</ele>
        <time>2013-04-21T09:27:58Z</time>
      </trkpt>
      <trkpt lat="46.79447" lon="5.62628">
        <ele>466.86</ele>
        <time>2013-04-21T09:28:12Z</time>
      </trkpt>
      <trkpt lat="46.79429" lon="5.62623">
        <ele>467.34</ele>
        <time>2013-04-21T09:28:27Z</time>
      </trkpt>
      <trkpt lat="46.7941" lon="5.62616">
        <ele>467.82</ele>
        <time>2013-04-21T09:28:43Z</time>
      </trkpt>
      <trkpt lat="46.79396" lon="5.6261">
        <ele>468.3</ele>
        <time>2013-04-21T09:28:56Z</time>
      </trkpt>
      <trkpt lat="46.79381" lon="5.62601">
        <ele>468.78</ele>
        <time>2013-04-21T09:29:11Z</time>
      </trkpt>
      <trkpt lat="46.79366" lon="5.62601">
        <ele>469.74</ele>
        <time>2013-04-21T09:29:25Z</time>
      </trkpt>
      <trkpt lat="46.79353" lon="5.62598">
        <ele>470.22</ele>
        <time>2013-04-21T09:29:39Z</time>
      </trkpt>
      <trkpt lat="46.79352" lon="5.62594">
        <ele>470.22</ele>
        <time>2013-04-21T09:29:59Z</time>
      </trkpt>
      <trkpt lat="46.79349" lon="5.62596">
        <ele>470.22</ele>
        <time>2013-04-21T09:30:17Z</time>
      </trkpt>
      <trkpt lat="46.79341" lon="5.62597">
        <ele>470.22</ele>
        <time>2013-04-21T09:30:25Z</time>
      </trkpt>
      <trkpt lat="46.79323" lon="5.62597">
        <ele>471.18</ele>
        <time>2013-04-21T09:30:43Z</time>
      </trkpt>
      <trkpt lat="46.79308" lon="5.62597">
        <ele>471.66</ele>
        <time>2013-04-21T09:30:58Z</time>
      </trkpt>
      <trkpt lat="46.79294" lon="5.62597">
        <ele>471.66</ele>
        <time>2013-04-21T09:31:11Z</time>
      </trkpt>
      <trkpt lat="46.79272" lon="5.62599">
        <ele>471.18</ele>
        <time>2013-04-21T09:31:27Z</time>
      </trkpt>
      <trkpt lat="46.79254" lon="5.62598">
        <ele>470.22</ele>
        <time>2013-04-21T09:31:42Z</time>
      </trkpt>
      <trkpt lat="46.79236" lon="5.62598">
        <ele>470.22</ele>
        <time>2013-04-21T09:31:57Z</time>
      </trkpt>
      <trkpt lat="46.79221" lon="5.62597">
        <ele>470.7</ele>
        <time>2013-04-21T09:32:10Z</time>
      </trkpt>
      <trkpt lat="46.79205" lon="5.62598">
        <ele>471.18</ele>
        <time>2013-04-21T09:32:25Z</time>
      </trkpt>
      <trkpt lat="46.79184" lon="5.626">
        <ele>471.66</ele>
        <time>2013-04-21T09:32:39Z</time>
      </trkpt>
      <trkpt lat="46.79168" lon="5.62598">
        <ele>471.66</ele>
        <time>2013-04-21T09:32:55Z</time>
      </trkpt>
      <trkpt lat="46.79159" lon="5.62598">
        <ele>471.66</ele>
        <time>2013-04-21T09:33:06Z</time>
      </trkpt>
      <trkpt lat="46.79141" lon="5.626">
        <ele>471.66</ele>
        <time>2013-04-21T09:33:22Z</time>
      </trkpt>
      <trkpt lat="46.79126" lon="5.62602">
        <ele>471.18</ele>
        <time>2013-04-21T09:33:36Z</time>
      </trkpt>
      <trkpt lat="46.79111" lon="5.62602">
        <ele>470.7</ele>
        <time>2013-04-21T09:33:51Z</time>
      </trkpt>
      <trkpt lat="46.791" lon="5.62597">
        <ele>470.22</ele>
        <time>2013-04-21T09:34:07Z</time>
      </trkpt>
      <trkpt lat="46.79086" lon="5.62593">
        <ele>469.26</ele>
        <time>2013-04-21T09:34:20Z</time>
      </trkpt>
      <trkpt lat="46.79064" lon="5.62578">
        <ele>468.78</ele>
        <time>2013-04-21T09:34:36Z</time>
      </trkpt>
      <trkpt lat="46.79053" lon="5.62572">
        <ele>468.78</ele>
        <time>2013-04-21T09:34:45Z</time>
      </trkpt>
      <trkpt lat="46.79047" lon="5.62568">
        <ele>468.78</ele>
        <time>2013-04-21T09:34:50Z</time>
      </trkpt>
      <trkpt lat="46.79032" lon="5.62556">
        <ele>468.78</ele>
        <time>2013-04-21T09:35:06Z</time>
      </trkpt>
      <trkpt lat="46.79014" lon="5.62544">
        <ele>469.26</ele>
        <time>2013-04-21T09:35:22Z</time>
      </trkpt>
      <trkpt lat="46.78995" lon="5.62536">
        <ele>469.74</ele>
        <time>2013-04-21T09:35:38Z</time>
      </trkpt>
      <trkpt lat="46.78979" lon="5.62528">
        <ele>469.26</ele>
        <time>2013-04-21T09:35:51Z</time>
      </trkpt>
      <trkpt lat="46.78964" lon="5.62522">
        <ele>468.3</ele>
        <time>2013-04-21T09:36:05Z</time>
      </trkpt>
      <trkpt lat="46.78952" lon="5.62513">
        <ele>465.9</ele>
        <time>2013-04-21T09:36:20Z</time>
      </trkpt>
      <trkpt lat="46.78946" lon="5.62497">
        <ele>464.93</ele>
        <time>2013-04-21T09:36:33Z</time>
      </trkpt>
      <trkpt lat="46.7894" lon="5.6247">
        <ele>462.05</ele>
        <time>2013-04-21T09:36:49Z</time>
      </trkpt>
      <trkpt lat="46.78939" lon="5.62464">
        <ele>461.57</ele>
        <time>2013-04-21T09:36:53Z</time>
      </trkpt>
      <trkpt lat="46.78933" lon="5.62443">
        <ele>459.65</ele>
        <time>2013-04-21T09:37:09Z</time>
      </trkpt>
      <trkpt lat="46.78923" lon="5.6242">
        <ele>457.24</ele>
        <time>2013-04-21T09:37:25Z</time>
      </trkpt>
      <trkpt lat="46.78916" lon="5.62401">
        <ele>455.32</ele>
        <time>2013-04-21T09:37:37Z</time>
      </trkpt>
      <trkpt lat="46.78912" lon="5.62374">
        <ele>452.44</ele>
        <time>2013-04-21T09:37:53Z</time>
      </trkpt>
      <trkpt lat="46.78909" lon="5.62356">
        <ele>451</ele>
        <time>2013-04-21T09:38:09Z</time>
      </trkpt>
      <trkpt lat="46.78907" lon="5.62354">
        <ele>450.52</ele>
        <time>2013-04-21T09:38:13Z</time>
      </trkpt>
      <trkpt lat="46.789" lon="5.62369">
        <ele>452.44</ele>
        <time>2013-04-21T09:38:28Z</time>
      </trkpt>
      <trkpt lat="46.78895" lon="5.62386">
        <ele>454.84</ele>
        <time>2013-04-21T09:38:42Z</time>
      </trkpt>
      <trkpt lat="46.78889" lon="5.62403">
        <ele>455.8</ele>
        <time>2013-04-21T09:38:57Z</time>
      </trkpt>
      <trkpt lat="46.78874" lon="5.62419">
        <ele>457.24</ele>
        <time>2013-04-21T09:39:13Z</time>
      </trkpt>
      <trkpt lat="46.78861" lon="5.6243">
        <ele>458.21</ele>
        <time>2013-04-21T09:39:26Z</time>
      </trkpt>
      <trkpt lat="46.78851" lon="5.6244">
        <ele>459.17</ele>
        <time>2013-04-21T09:39:39Z</time>
      </trkpt>
      <trkpt lat="46.78837" lon="5.62454">
        <ele>461.57</ele>
        <time>2013-04-21T09:39:56Z</time>
      </trkpt>
      <trkpt lat="46.78822" lon="5.62468">
        <ele>463.01</ele>
        <time>2013-04-21T09:40:11Z</time>
      </trkpt>
      <trkpt lat="46.78804" lon="5.62482">
        <ele>464.45</ele>
        <time>2013-04-21T09:40:28Z</time>
      </trkpt>
      <trkpt lat="46.7879" lon="5.62489">
        <ele>464.93</ele>
        <time>2013-04-21T09:40:42Z</time>
      </trkpt>
      <trkpt lat="46.78775" lon="5.62494">
        <ele>465.42</ele>
        <time>2013-04-21T09:40:55Z</time>
      </trkpt>
      <trkpt lat="46.78763" lon="5.62504">
        <ele>466.38</ele>
        <time>2013-04-21T09:41:09Z</time>
      </trkpt>
      <trkpt lat="46.78747" lon="5.62522">
        <ele>465.42</ele>
        <time>2013-04-21T09:41:27Z</time>
      </trkpt>
      <trkpt lat="46.78739" lon="5.62534">
        <ele>464.93</ele>
        <time>2013-04-21T09:41:39Z</time>
      </trkpt>
      <trkpt lat="46.78725" lon="5.6255">
        <ele>464.93</ele>
        <time>2013-04-21T09:41:53Z</time>
      </trkpt>
      <trkpt lat="46.78712" lon="5.62567">
        <ele>466.38</ele>
        <time>2013-04-21T09:42:07Z</time>
      </trkpt>
      <trkpt lat="46.78701" lon="5.62576">
        <ele>466.38</ele>
        <time>2013-04-21T09:42:17Z</time>
      </trkpt>
      <trkpt lat="46.78684" lon="5.6259">
        <ele>465.9</ele>
        <time>2013-04-21T09:42:32Z</time>
      </trkpt>
      <trkpt lat="46.7867" lon="5.62603">
        <ele>465.42</ele>
        <time>2013-04-21T09:42:47Z</time>
      </trkpt>
      <trkpt lat="46.78659" lon="5.62615">
        <ele>464.93</ele>
        <time>2013-04-21T09:43:02Z</time>
      </trkpt>
      <trkpt lat="46.78649" lon="5.62625">
        <ele>464.93</ele>
        <time>2013-04-21T09:43:14Z</time>
      </trkpt>
      <trkpt lat="46.78634" lon="5.62639">
        <ele>464.45</ele>
        <time>2013-04-21T09:43:29Z</time>
      </trkpt>
      <trkpt lat="46.78621" lon="5.62651">
        <ele>464.45</ele>
        <time>2013-04-21T09:43:42Z</time>
      </trkpt>
      <trkpt lat="46.78605" lon="5.62659">
        <ele>464.45</ele>
        <time>2013-04-21T09:44:00Z</time>
      </trkpt>
      <trkpt lat="46.786" lon="5.62662">
        <ele>464.45</ele>
        <time>2013-04-21T09:44:05Z</time>
      </trkpt>
      <trkpt lat="46.78595" lon="5.62665">
        <ele>464.93</ele>
        <time>2013-04-21T09:44:10Z</time>
      </trkpt>
      <trkpt lat="46.78592" lon="5.62664">
        <ele>464.93</ele>
        <time>2013-04-21T09:44:12Z</time>
      </trkpt>
      <trkpt lat="46.78571" lon="5.62667">
        <ele>465.42</ele>
        <time>2013-04-21T09:44:28Z</time>
      </trkpt>
      <trkpt lat="46.78558" lon="5.62672">
        <ele>465.9</ele>
        <time>2013-04-21T09:44:41Z</time>
      </trkpt>
      <trkpt lat="46.78536" lon="5.62674">
        <ele>464.93</ele>
        <time>2013-04-21T09:44:57Z</time>
      </trkpt>
      <trkpt lat="46.78518" lon="5.62673">
        <ele>464.45</ele>
        <time>2013-04-21T09:45:11Z</time>
      </trkpt>
      <trkpt lat="46.78509" lon="5.6267">
        <ele>463.97</ele>
        <time>2013-04-21T09:45:22Z</time>
      </trkpt>
      <trkpt lat="46.785" lon="5.62667">
        <ele>464.45</ele>
        <time>2013-04-21T09:45:32Z</time>
      </trkpt>
      <trkpt lat="46.78484" lon="5.62663">
        <ele>463.01</ele>
        <time>2013-04-21T09:45:46Z</time>
      </trkpt>
      <trkpt lat="46.78468" lon="5.6266">
        <ele>461.57</ele>
        <time>2013-04-21T09:46:01Z</time>
      </trkpt>
      <trkpt lat="46.78449" lon="5.62654">
        <ele>460.61</ele>
        <time>2013-04-21T09:46:16Z</time>
      </trkpt>
      <trkpt lat="46.78433" lon="5.6265">
        <ele>459.17</ele>
        <time>2013-04-21T09:46:29Z</time>
      </trkpt>
      <trkpt lat="46.78419" lon="5.62646">
        <ele>458.21</ele>
        <time>2013-04-21T09:46:44Z</time>
      </trkpt>
      <trkpt lat="46.78407" lon="5.62634">
        <ele>457.24</ele>
        <time>2013-04-21T09:46:55Z</time>
      </trkpt>
      <trkpt lat="46.7839" lon="5.62619">
        <ele>456.28</ele>
        <time>2013-04-21T09:47:07Z</time>
      </trkpt>
      <trkpt lat="46.78385" lon="5.62615">
        <ele>456.28</ele>
        <time>2013-04-21T09:47:12Z</time>
      </trkpt>
      <trkpt lat="46.7837" lon="5.62597">
        <ele>454.84</ele>
        <time>2013-04-21T09:47:25Z</time>
      </trkpt>
      <trkpt lat="46.78356" lon="5.62579">
        <ele>454.36</ele>
        <time>2013-04-21T09:47:40Z</time>
      </trkpt>
      <trkpt lat="46.78345" lon="5.62563">
        <ele>453.88</ele>
        <time>2013-04-21T09:47:55Z</time>
      </trkpt>
      <trkpt lat="46.78336" lon="5.62552">
        <ele>453.4</ele>
        <time>2013-04-21T09:48:06Z</time>
      </trkpt>
      <trkpt lat="46.7832" lon="5.62543">
        <ele>452.92</ele>
        <time>2013-04-21T09:48:20Z</time>
      </trkpt>
      <trkpt lat="46.78304" lon="5.62529">
        <ele>452.92</ele>
        <time>2013-04-21T09:48:36Z</time>
      </trkpt>
      <trkpt lat="46.78287" lon="5.62512">
        <ele>454.36</ele>
        <time>2013-04-21T09:48:51Z</time>
      </trkpt>
      <trkpt lat="46.78278" lon="5.62509">
        <ele>454.36</ele>
        <time>2013-04-21T09:49:00Z</time>
      </trkpt>
      <trkpt lat="46.78267" lon="5.62506">
        <ele>456.28</ele>
        <time>2013-04-21T09:49:10Z</time>
      </trkpt>
      <trkpt lat="46.78243" lon="5.62495">
        <ele>453.88</ele>
        <time>2013-04-21T09:49:29Z</time>
      </trkpt>
      <trkpt lat="46.78226" lon="5.62489">
        <ele>452.92</ele>
        <time>2013-04-21T09:49:44Z</time>
      </trkpt>
      <trkpt lat="46.78225" lon="5.62488">
        <ele>453.4</ele>
        <time>2013-04-21T09:49:45Z</time>
      </trkpt>
      <trkpt lat="46.78222" lon="5.62488">
        <ele>453.4</ele>
        <time>2013-04-21T09:49:48Z</time>
      </trkpt>
      <trkpt lat="46.782" lon="5.62487">
        <ele>451.96</ele>
        <time>2013-04-21T09:50:06Z</time>
      </trkpt>
      <trkpt lat="46.78181" lon="5.62486">
        <ele>451.48</ele>
        <time>2013-04-21T09:50:23Z</time>
      </trkpt>
      <trkpt lat="46.78179" lon="5.62485">
        <ele>451</ele>
        <time>2013-04-21T09:50:25Z</time>
      </trkpt>
      <trkpt lat="46.78161" lon="5.62498">
        <ele>450.52</ele>
        <time>2013-04-21T09:50:41Z</time>
      </trkpt>
      <trkpt lat="46.78161" lon="5.62498">
        <ele>451</ele>
        <time>2013-04-21T09:50:42Z</time>
      </trkpt>
      <trkpt lat="46.78148" lon="5.62515">
        <ele>451</ele>
        <time>2013-04-21T09:50:57Z</time>
      </trkpt>
      <trkpt lat="46.78133" lon="5.62532">
        <ele>451.48</ele>
        <time>2013-04-21T09:51:12Z</time>
      </trkpt>
      <trkpt lat="46.78115" lon="5.62543">
        <ele>453.4</ele>
        <time>2013-04-21T09:51:27Z</time>
      </trkpt>
      <trkpt lat="46.78114" lon="5.62544">
        <ele>452.92</ele>
        <time>2013-04-21T09:51:28Z</time>
      </trkpt>
      <trkpt lat="46.7809" lon="5.62553">
        <ele>454.84</ele>
        <time>2013-04-21T09:51:47Z</time>
      </trkpt>
      <trkpt lat="46.78066" lon="5.62555">
        <ele>455.8</ele>
        <time>2013-04-21T09:52:08Z</time>
      </trkpt>
      <trkpt lat="46.78045" lon="5.62555">
        <ele>455.8</ele>
        <time>2013-04-21T09:52:25Z</time>
      </trkpt>
      <trkpt lat="46.78024" lon="5.62555">
        <ele>455.8</ele>
        <time>2013-04-21T09:52:43Z</time>
      </trkpt>
      <trkpt lat="46.77995" lon="5.62553">
        <ele>454.84</ele>
        <time>2013-04-21T09:53:06Z</time>
      </trkpt>
      <trkpt lat="46.77976" lon="5.6255">
        <ele>455.32</ele>
        <time>2013-04-21T09:53:24Z</time>
      </trkpt>
      <trkpt lat="46.77953" lon="5.62562">
        <ele>456.28</ele>
        <time>2013-04-21T09:53:43Z</time>
      </trkpt>
      <trkpt lat="46.77936" lon="5.62577">
        <ele>457.72</ele>
        <time>2013-04-21T09:54:01Z</time>
      </trkpt>
      <trkpt lat="46.77919" lon="5.6259">
        <ele>459.17</ele>
        <time>2013-04-21T09:54:18Z</time>
      </trkpt>
      <trkpt lat="46.77901" lon="5.62592">
        <ele>460.61</ele>
        <time>2013-04-21T09:54:34Z</time>
      </trkpt>
      <trkpt lat="46.77875" lon="5.6258">
        <ele>460.13</ele>
        <time>2013-04-21T09:54:56Z</time>
      </trkpt>
      <trkpt lat="46.77849" lon="5.62581">
        <ele>458.69</ele>
        <time>2013-04-21T09:55:18Z</time>
      </trkpt>
      <trkpt lat="46.77824" lon="5.62582">
        <ele>459.17</ele>
        <time>2013-04-21T09:55:38Z</time>
      </trkpt>
      <trkpt lat="46.778" lon="5.6258">
        <ele>459.65</ele>
        <time>2013-04-21T09:55:59Z</time>
      </trkpt>
      <trkpt lat="46.77781" lon="5.62592">
        <ele>459.65</ele>
        <time>2013-04-21T09:56:16Z</time>
      </trkpt>
      <trkpt lat="46.77766" lon="5.62608">
        <ele>459.17</ele>
        <time>2013-04-21T09:56:32Z</time>
      </trkpt>
      <trkpt lat="46.77753" lon="5.62624">
        <ele>459.65</ele>
        <time>2013-04-21T09:56:47Z</time>
      </trkpt>
      <trkpt lat="46.77737" lon="5.62646">
        <ele>459.65</ele>
        <time>2013-04-21T09:57:06Z</time>
      </trkpt>
      <trkpt lat="46.77725" lon="5.62667">
        <ele>459.65</ele>
        <time>2013-04-21T09:57:21Z</time>
      </trkpt>
      <trkpt lat="46.77712" lon="5.62695">
        <ele>460.13</ele>
        <time>2013-04-21T09:57:41Z</time>
      </trkpt>
      <trkpt lat="46.77698" lon="5.62721">
        <ele>461.09</ele>
        <time>2013-04-21T09:57:59Z</time>
      </trkpt>
      <trkpt lat="46.77687" lon="5.62745">
        <ele>462.05</ele>
        <time>2013-04-21T09:58:16Z</time>
      </trkpt>
      <trkpt lat="46.77673" lon="5.6278">
        <ele>463.97</ele>
        <time>2013-04-21T09:58:40Z</time>
      </trkpt>
      <trkpt lat="46.7766" lon="5.62809">
        <ele>466.38</ele>
        <time>2013-04-21T09:59:00Z</time>
      </trkpt>
      <trkpt lat="46.77647" lon="5.62831">
        <ele>469.74</ele>
        <time>2013-04-21T09:59:16Z</time>
      </trkpt>
      <trkpt lat="46.77645" lon="5.62835">
        <ele>466.86</ele>
        <time>2013-04-21T09:59:19Z</time>
      </trkpt>
      <trkpt lat="46.77626" lon="5.62863">
        <ele>467.34</ele>
        <time>2013-04-21T09:59:42Z</time>
      </trkpt>
      <trkpt lat="46.77608" lon="5.62864">
        <ele>467.82</ele>
        <time>2013-04-21T09:59:58Z</time>
      </trkpt>
      <trkpt lat="46.77586" lon="5.62855">
        <ele>467.34</ele>
        <time>2013-04-21T10:00:18Z</time>
      </trkpt>
      <trkpt lat="46.77579" lon="5.62854">
        <ele>466.86</ele>
        <time>2013-04-21T10:00:24Z</time>
      </trkpt>
      <trkpt lat="46.77559" lon="5.62852">
        <ele>465.9</ele>
        <time>2013-04-21T10:00:40Z</time>
      </trkpt>
      <trkpt lat="46.77538" lon="5.6285">
        <ele>464.45</ele>
        <time>2013-04-21T10:00:56Z</time>
      </trkpt>
      <trkpt lat="46.77514" lon="5.62844">
        <ele>463.01</ele>
        <time>2013-04-21T10:01:14Z</time>
      </trkpt>
      <trkpt lat="46.7749" lon="5.62834">
        <ele>461.57</ele>
        <time>2013-04-21T10:01:34Z</time>
      </trkpt>
      <trkpt lat="46.7748" lon="5.62821">
        <ele>459.65</ele>
        <time>2013-04-21T10:01:50Z</time>
      </trkpt>
      <trkpt lat="46.77468" lon="5.62803">
        <ele>458.69</ele>
        <time>2013-04-21T10:02:05Z</time>
      </trkpt>
      <trkpt lat="46.77453" lon="5.62785">
        <ele>457.24</ele>
        <time>2013-04-21T10:02:18Z</time>
      </trkpt>
      <trkpt lat="46.77435" lon="5.6276">
        <ele>454.84</ele>
        <time>2013-04-21T10:02:35Z</time>
      </trkpt>
      <trkpt lat="46.77424" lon="5.62748">
        <ele>453.4</ele>
        <time>2013-04-21T10:02:47Z</time>
      </trkpt>
      <trkpt lat="46.7741" lon="5.62736">
        <ele>451.48</ele>
        <time>2013-04-21T10:03:01Z</time>
      </trkpt>
      <trkpt lat="46.774" lon="5.62722">
        <ele>449.07</ele>
        <time>2013-04-21T10:03:15Z</time>
      </trkpt>
      <trkpt lat="46.7738" lon="5.62701">
        <ele>446.19</ele>
        <time>2013-04-21T10:03:32Z</time>
      </trkpt>
      <trkpt lat="46.77365" lon="5.62696">
        <ele>444.27</ele>
        <time>2013-04-21T10:03:46Z</time>
      </trkpt>
      <trkpt lat="46.77343" lon="5.62695">
        <ele>441.86</ele>
        <time>2013-04-21T10:04:02Z</time>
      </trkpt>
      <trkpt lat="46.77327" lon="5.62687">
        <ele>439.94</ele>
        <time>2013-04-21T10:04:17Z</time>
      </trkpt>
      <trkpt lat="46.77324" lon="5.62684">
        <ele>438.98</ele>
        <time>2013-04-21T10:04:22Z</time>
      </trkpt>
      <trkpt lat="46.77313" lon="5.62664">
        <ele>436.1</ele>
        <time>2013-04-21T10:04:36Z</time>
      </trkpt>
      <trkpt lat="46.77306" lon="5.62653">
        <ele>435.13</ele>
        <time>2013-04-21T10:04:43Z</time>
      </trkpt>
      <trkpt lat="46.77302" lon="5.62643">
        <ele>434.17</ele>
        <time>2013-04-21T10:04:48Z</time>
      </trkpt>
      <trkpt lat="46.77287" lon="5.6262">
        <ele>431.77</ele>
        <time>2013-04-21T10:05:04Z</time>
      </trkpt>
      <trkpt lat="46.77275" lon="5.62598">
        <ele>429.37</ele>
        <time>2013-04-21T10:05:19Z</time>
      </trkpt>
      <trkpt lat="46.77268" lon="5.62587">
        <ele>428.4</ele>
        <time>2013-04-21T10:05:33Z</time>
      </trkpt>
      <trkpt lat="46.77266" lon="5.62585">
        <ele>427.92</ele>
        <time>2013-04-21T10:05:54Z</time>
      </trkpt>
      <trkpt lat="46.77252" lon="5.62568">
        <ele>426</ele>
        <time>2013-04-21T10:06:11Z</time>
      </trkpt>
      <trkpt lat="46.77235" lon="5.62547">
        <ele>423.12</ele>
        <time>2013-04-21T10:06:30Z</time>
      </trkpt>
      <trkpt lat="46.77218" lon="5.62529">
        <ele>420.71</ele>
        <time>2013-04-21T10:06:49Z</time>
      </trkpt>
      <trkpt lat="46.77202" lon="5.62508">
        <ele>418.31</ele>
        <time>2013-04-21T10:07:08Z</time>
      </trkpt>
      <trkpt lat="46.77186" lon="5.62487">
        <ele>416.39</ele>
        <time>2013-04-21T10:07:25Z</time>
      </trkpt>
      <trkpt lat="46.77176" lon="5.6247">
        <ele>414.95</ele>
        <time>2013-04-21T10:07:44Z</time>
      </trkpt>
      <trkpt lat="46.77168" lon="5.62463">
        <ele>413.98</ele>
        <time>2013-04-21T10:08:01Z</time>
      </trkpt>
      <trkpt lat="46.77148" lon="5.62444">
        <ele>412.54</ele>
        <time>2013-04-21T10:08:20Z</time>
      </trkpt>
      <trkpt lat="46.77137" lon="5.62435">
        <ele>411.58</ele>
        <time>2013-04-21T10:08:31Z</time>
      </trkpt>
      <trkpt lat="46.77135" lon="5.62432">
        <ele>411.1</ele>
        <time>2013-04-21T10:08:33Z</time>
      </trkpt>
      <trkpt lat="46.77112" lon="5.62414">
        <ele>409.66</ele>
        <time>2013-04-21T10:08:54Z</time>
      </trkpt>
      <trkpt lat="46.77086" lon="5.62395">
        <ele>408.7</ele>
        <time>2013-04-21T10:09:17Z</time>
      </trkpt>
      <trkpt lat="46.77066" lon="5.62378">
        <ele>407.26</ele>
        <time>2013-04-21T10:09:36Z</time>
      </trkpt>
      <trkpt lat="46.77046" lon="5.62363">
        <ele>406.77</ele>
        <time>2013-04-21T10:09:55Z</time>
      </trkpt>
      <trkpt lat="46.77026" lon="5.62349">
        <ele>405.81</ele>
        <time>2013-04-21T10:10:13Z</time>
      </trkpt>
      <trkpt lat="46.77003" lon="5.62344">
        <ele>404.85</ele>
        <time>2013-04-21T10:10:32Z</time>
      </trkpt>
      <trkpt lat="46.7699" lon="5.62342">
        <ele>404.85</ele>
        <time>2013-04-21T10:10:45Z</time>
      </trkpt>
      <trkpt lat="46.76986" lon="5.6234">
        <ele>404.37</ele>
        <time>2013-04-21T10:10:48Z</time>
      </trkpt>
      <trkpt lat="46.76966" lon="5.62337">
        <ele>403.89</ele>
        <time>2013-04-21T10:11:04Z</time>
      </trkpt>
      <trkpt lat="46.76947" lon="5.62337">
        <ele>402.93</ele>
        <time>2013-04-21T10:11:19Z</time>
      </trkpt>
      <trkpt lat="46.76927" lon="5.62333">
        <ele>401.97</ele>
        <time>2013-04-21T10:11:37Z</time>
      </trkpt>
      <trkpt lat="46.7691" lon="5.6232">
        <ele>401.49</ele>
        <time>2013-04-21T10:11:53Z</time>
      </trkpt>
      <trkpt lat="46.76908" lon="5.62315">
        <ele>401.01</ele>
        <time>2013-04-21T10:12:12Z</time>
      </trkpt>
      <trkpt lat="46.76897" lon="5.62281">
        <ele>398.12</ele>
        <time>2013-04-21T10:12:31Z</time>
      </trkpt>
      <trkpt lat="46.76882" lon="5.62248">
        <ele>395.24</ele>
        <time>2013-04-21T10:12:52Z</time>
      </trkpt>
      <trkpt lat="46.76872" lon="5.62223">
        <ele>392.84</ele>
        <time>2013-04-21T10:13:08Z</time>
      </trkpt>
      <trkpt lat="46.7686" lon="5.62195">
        <ele>390.43</ele>
        <time>2013-04-21T10:13:27Z</time>
      </trkpt>
      <trkpt lat="46.76851" lon="5.62172">
        <ele>389.95</ele>
        <time>2013-04-21T10:13:42Z</time>
      </trkpt>
      <trkpt lat="46.76863" lon="5.62147">
        <ele>386.11</ele>
        <time>2013-04-21T10:14:03Z</time>
      </trkpt>
      <trkpt lat="46.76869" lon="5.62123">
        <ele>383.7</ele>
        <time>2013-04-21T10:14:20Z</time>
      </trkpt>
      <trkpt lat="46.76874" lon="5.62099">
        <ele>380.34</ele>
        <time>2013-04-21T10:14:35Z</time>
      </trkpt>
      <trkpt lat="46.76875" lon="5.62075">
        <ele>377.45</ele>
        <time>2013-04-21T10:14:49Z</time>
      </trkpt>
      <trkpt lat="46.76872" lon="5.62053">
        <ele>374.57</ele>
        <time>2013-04-21T10:15:04Z</time>
      </trkpt>
      <trkpt lat="46.76867" lon="5.62027">
        <ele>372.17</ele>
        <time>2013-04-21T10:15:21Z</time>
      </trkpt>
      <trkpt lat="46.76866" lon="5.62025">
        <ele>372.17</ele>
        <time>2013-04-21T10:15:22Z</time>
      </trkpt>
      <trkpt lat="46.76865" lon="5.6201">
        <ele>370.73</ele>
        <time>2013-04-21T10:15:39Z</time>
      </trkpt>
      <trkpt lat="46.76859" lon="5.62004">
        <ele>370.73</ele>
        <time>2013-04-21T10:15:49Z</time>
      </trkpt>
      <trkpt lat="46.76853" lon="5.62002">
        <ele>370.73</ele>
        <time>2013-04-21T10:15:55Z</time>
      </trkpt>
      <trkpt lat="46.76852" lon="5.62002">
        <ele>370.73</ele>
        <time>2013-04-21T10:15:56Z</time>
      </trkpt>
      <trkpt lat="46.76835" lon="5.62004">
        <ele>370.73</ele>
        <time>2013-04-21T10:16:11Z</time>
      </trkpt>
      <trkpt lat="46.76813" lon="5.62009">
        <ele>370.24</ele>
        <time>2013-04-21T10:16:29Z</time>
      </trkpt>
      <trkpt lat="46.76792" lon="5.62015">
        <ele>370.24</ele>
        <time>2013-04-21T10:16:48Z</time>
      </trkpt>
      <trkpt lat="46.76772" lon="5.62021">
        <ele>370.73</ele>
        <time>2013-04-21T10:17:06Z</time>
      </trkpt>
      <trkpt lat="46.76753" lon="5.62029">
        <ele>371.69</ele>
        <time>2013-04-21T10:17:24Z</time>
      </trkpt>
      <trkpt lat="46.76743" lon="5.62035">
        <ele>372.65</ele>
        <time>2013-04-21T10:17:40Z</time>
      </trkpt>
      <trkpt lat="46.76743" lon="5.62033">
        <ele>372.17</ele>
        <time>2013-04-21T10:17:55Z</time>
      </trkpt>
      <trkpt lat="46.76742" lon="5.62028">
        <ele>372.17</ele>
        <time>2013-04-21T10:18:09Z</time>
      </trkpt>
      <trkpt lat="46.76743" lon="5.62025">
        <ele>372.17</ele>
        <time>2013-04-21T10:18:39Z</time>
      </trkpt>
      <trkpt lat="46.7672" lon="5.62031">
        <ele>371.69</ele>
        <time>2013-04-21T10:18:55Z</time>
      </trkpt>
      <trkpt lat="46.76699" lon="5.62016">
        <ele>371.21</ele>
        <time>2013-04-21T10:19:14Z</time>
      </trkpt>
      <trkpt lat="46.76683" lon="5.62002">
        <ele>370.24</ele>
        <time>2013-04-21T10:19:31Z</time>
      </trkpt>
      <trkpt lat="46.76657" lon="5.61989">
        <ele>369.28</ele>
        <time>2013-04-21T10:19:52Z</time>
      </trkpt>
      <trkpt lat="46.76644" lon="5.61988">
        <ele>368.8</ele>
        <time>2013-04-21T10:20:06Z</time>
      </trkpt>
      <trkpt lat="46.76628" lon="5.61995">
        <ele>368.8</ele>
        <time>2013-04-21T10:20:25Z</time>
      </trkpt>
      <trkpt lat="46.76619" lon="5.61997">
        <ele>368.8</ele>
        <time>2013-04-21T10:20:38Z</time>
      </trkpt>
      <trkpt lat="46.7662" lon="5.61998">
        <ele>368.8</ele>
        <time>2013-04-21T10:21:00Z</time>
      </trkpt>
      <trkpt lat="46.7662" lon="5.61997">
        <ele>368.8</ele>
        <time>2013-04-21T10:21:24Z</time>
      </trkpt>
      <trkpt lat="46.76619" lon="5.61995">
        <ele>368.8</ele>
        <time>2013-04-21T10:21:39Z</time>
      </trkpt>
      <trkpt lat="46.76619" lon="5.61998">
        <ele>368.8</ele>
        <time>2013-04-21T10:21:50Z</time>
      </trkpt>
      <trkpt lat="46.7662" lon="5.61998">
        <ele>367.36</ele>
        <time>2013-04-21T10:22:01Z</time>
      </trkpt>
      <trkpt lat="46.76621" lon="5.61995">
        <ele>367.84</ele>
        <time>2013-04-21T10:22:29Z</time>
      </trkpt>
      <trkpt lat="46.76621" lon="5.61991">
        <ele>367.36</ele>
        <time>2013-04-21T10:23:09Z</time>
      </trkpt>
      <trkpt lat="46.76621" lon="5.61995">
        <ele>367.84</ele>
        <time>2013-04-21T10:23:50Z</time>
      </trkpt>
      <trkpt lat="46.76625" lon="5.61994">
        <ele>367.84</ele>
        <time>2013-04-21T10:24:27Z</time>
      </trkpt>
      <trkpt lat="46.76627" lon="5.62">
        <ele>367.84</ele>
        <time>2013-04-21T10:25:09Z</time>
      </trkpt>
      <trkpt lat="46.76627" lon="5.61996">
        <ele>367.84</ele>
        <time>2013-04-21T10:25:45Z</time>
      </trkpt>
      <trkpt lat="46.76623" lon="5.61992">
        <ele>367.84</ele>
        <time>2013-04-21T10:26:28Z</time>
      </trkpt>
      <trkpt lat="46.76624" lon="5.61997">
        <ele>367.84</ele>
        <time>2013-04-21T10:27:03Z</time>
      </trkpt>
      <trkpt lat="46.76621" lon="5.61996">
        <ele>367.84</ele>
        <time>2013-04-21T10:27:46Z</time>
      </trkpt>
      <trkpt lat="46.76618" lon="5.61995">
        <ele>368.32</ele>
        <time>2013-04-21T10:28:29Z</time>
      </trkpt>
      <trkpt lat="46.76622" lon="5.61991">
        <ele>368.32</ele>
        <time>2013-04-21T10:29:14Z</time>
      </trkpt>
      <trkpt lat="46.76627" lon="5.61991">
        <ele>368.8</ele>
        <time>2013-04-21T10:29:53Z</time>
      </trkpt>
      <trkpt lat="46.7662" lon="5.61995">
        <ele>368.8</ele>
        <time>2013-04-21T10:30:30Z</time>
      </trkpt>
      <trkpt lat="46.76619" lon="5.61992">
        <ele>368.32</ele>
        <time>2013-04-21T10:31:08Z</time>
      </trkpt>
      <trkpt lat="46.76623" lon="5.61991">
        <ele>368.32</ele>
        <time>2013-04-21T10:32:00Z</time>
      </trkpt>
      <trkpt lat="46.76621" lon="5.61996">
        <ele>368.8</ele>
        <time>2013-04-21T10:32:47Z</time>
      </trkpt>
      <trkpt lat="46.76624" lon="5.61998">
        <ele>368.32</ele>
        <time>2013-04-21T10:33:30Z</time>
      </trkpt>
      <trkpt lat="46.7662" lon="5.61994">
        <ele>368.32</ele>
        <time>2013-04-21T10:34:23Z</time>
      </trkpt>
      <trkpt lat="46.76622" lon="5.61998">
        <ele>368.8</ele>
        <time>2013-04-21T10:35:13Z</time>
      </trkpt>
      <trkpt lat="46.76626" lon="5.61997">
        <ele>368.8</ele>
        <time>2013-04-21T10:36:09Z</time>
      </trkpt>
      <trkpt lat="46.76624" lon="5.61995">
        <ele>368.8</ele>
        <time>2013-04-21T10:36:55Z</time>
      </trkpt>
      <trkpt lat="46.76621" lon="5.62">
        <ele>368.8</ele>
        <time>2013-04-21T10:37:35Z</time>
      </trkpt>
      <trkpt lat="46.76622" lon="5.61999">
        <ele>368.8</ele>
        <time>2013-04-21T10:38:07Z</time>
      </trkpt>
      <trkpt lat="46.76622" lon="5.61997">
        <ele>369.28</ele>
        <time>2013-04-21T10:38:48Z</time>
      </trkpt>
      <trkpt lat="46.76621" lon="5.61992">
        <ele>369.28</ele>
        <time>2013-04-21T10:39:40Z</time>
      </trkpt>
      <trkpt lat="46.7662" lon="5.61995">
        <ele>369.76</ele>
        <time>2013-04-21T10:40:42Z</time>
      </trkpt>
      <trkpt lat="46.7662" lon="5.61996">
        <ele>369.28</ele>
        <time>2013-04-21T10:41:37Z</time>
      </trkpt>
      <trkpt lat="46.76624" lon="5.61997">
        <ele>369.76</ele>
        <time>2013-04-21T10:42:33Z</time>
      </trkpt>
      <trkpt lat="46.76624" lon="5.62">
        <ele>369.76</ele>
        <time>2013-04-21T10:43:26Z</time>
      </trkpt>
      <trkpt lat="46.76625" lon="5.61996">
        <ele>369.76</ele>
        <time>2013-04-21T10:44:09Z</time>
      </trkpt>
      <trkpt lat="46.76623" lon="5.61997">
        <ele>369.76</ele>
        <time>2013-04-21T10:44:57Z</time>
      </trkpt>
      <trkpt lat="46.76624" lon="5.61999">
        <ele>370.24</ele>
        <time>2013-04-21T10:45:44Z</time>
      </trkpt>
      <trkpt lat="46.76625" lon="5.61996">
        <ele>370.24</ele>
        <time>2013-04-21T10:46:27Z</time>
      </trkpt>
      <trkpt lat="46.76624" lon="5.61997">
        <ele>369.76</ele>
        <time>2013-04-21T10:47:08Z</time>
      </trkpt>
      <trkpt lat="46.76623" lon="5.61997">
        <ele>370.24</ele>
        <time>2013-04-21T10:47:48Z</time>
      </trkpt>
      <trkpt lat="46.76627" lon="5.62">
        <ele>370.24</ele>
        <time>2013-04-21T10:48:25Z</time>
      </trkpt>
      <trkpt lat="46.76628" lon="5.62004">
        <ele>370.24</ele>
        <time>2013-04-21T10:49:06Z</time>
      </trkpt>
      <trkpt lat="46.76625" lon="5.61996">
        <ele>370.24</ele>
        <time>2013-04-21T10:49:45Z</time>
      </trkpt>
      <trkpt lat="46.76625" lon="5.61996">
        <ele>370.24</ele>
        <time>2013-04-21T10:50:24Z</time>
      </trkpt>
      <trkpt lat="46.76622" lon="5.61998">
        <ele>370.73</ele>
        <time>2013-04-21T10:51:00Z</time>
      </trkpt>
      <trkpt lat="46.76622" lon="5.61995">
        <ele>370.24</ele>
        <time>2013-04-21T10:51:34Z</time>
      </trkpt>
      <trkpt lat="46.76628" lon="5.61997">
        <ele>370.73</ele>
        <time>2013-04-21T10:52:07Z</time>
      </trkpt>
      <trkpt lat="46.76631" lon="5.61999">
        <ele>371.21</ele>
        <time>2013-04-21T10:52:39Z</time>
      </trkpt>
      <trkpt lat="46.76636" lon="5.62001">
        <ele>371.21</ele>
        <time>2013-04-21T10:53:09Z</time>
      </trkpt>
      <trkpt lat="46.7663" lon="5.62">
        <ele>371.21</ele>
        <time>2013-04-21T10:53:40Z</time>
      </trkpt>
      <trkpt lat="46.76617" lon="5.61998">
        <ele>371.21</ele>
        <time>2013-04-21T10:54:10Z</time>
      </trkpt>
      <trkpt lat="46.76613" lon="5.61996">
        <ele>371.21</ele>
        <time>2013-04-21T10:54:37Z</time>
      </trkpt>
      <trkpt lat="46.76618" lon="5.61992">
        <ele>371.69</ele>
        <time>2013-04-21T10:55:07Z</time>
      </trkpt>
      <trkpt lat="46.76625" lon="5.61995">
        <ele>371.21</ele>
        <time>2013-04-21T10:55:43Z</time>
      </trkpt>
      <trkpt lat="46.76629" lon="5.61999">
        <ele>371.69</ele>
        <time>2013-04-21T10:56:11Z</time>
      </trkpt>
      <trkpt lat="46.76625" lon="5.61996">
        <ele>371.21</ele>
        <time>2013-04-21T10:56:44Z</time>
      </trkpt>
      <trkpt lat="46.76622" lon="5.61996">
        <ele>371.69</ele>
        <time>2013-04-21T10:57:20Z</time>
      </trkpt>
      <trkpt lat="46.76626" lon="5.61995">
        <ele>371.69</ele>
        <time>2013-04-21T10:58:00Z</time>
      </trkpt>
      <trkpt lat="46.76624" lon="5.61996">
        <ele>371.69</ele>
        <time>2013-04-21T10:58:36Z</time>
      </trkpt>
      <trkpt lat="46.76627" lon="5.61998">
        <ele>371.69</ele>
        <time>2013-04-21T10:59:07Z</time>
      </trkpt>
      <trkpt lat="46.76627" lon="5.61997">
        <ele>371.69</ele>
        <time>2013-04-21T10:59:40Z</time>
      </trkpt>
      <trkpt lat="46.76627" lon="5.61998">
        <ele>371.69</ele>
        <time>2013-04-21T11:00:14Z</time>
      </trkpt>
      <trkpt lat="46.76624" lon="5.61998">
        <ele>371.69</ele>
        <time>2013-04-21T11:00:43Z</time>
      </trkpt>
      <trkpt lat="46.76623" lon="5.61996">
        <ele>372.65</ele>
        <time>2013-04-21T11:01:04Z</time>
      </trkpt>
      <trkpt lat="46.76624" lon="5.61996">
        <ele>373.13</ele>
        <time>2013-04-21T11:01:06Z</time>
      </trkpt>
      <trkpt lat="46.7662" lon="5.61997">
        <ele>373.61</ele>
        <time>2013-04-21T11:01:19Z</time>
      </trkpt>
      <trkpt lat="46.76622" lon="5.61997">
        <ele>373.13</ele>
        <time>2013-04-21T11:01:35Z</time>
      </trkpt>
      <trkpt lat="46.76621" lon="5.61997">
        <ele>373.13</ele>
        <time>2013-04-21T11:01:51Z</time>
      </trkpt>
      <trkpt lat="46.76622" lon="5.61995">
        <ele>373.13</ele>
        <time>2013-04-21T11:02:10Z</time>
      </trkpt>
      <trkpt lat="46.76623" lon="5.61997">
        <ele>373.61</ele>
        <time>2013-04-21T11:02:20Z</time>
      </trkpt>
      <trkpt lat="46.76623" lon="5.61996">
        <ele>373.13</ele>
        <time>2013-04-21T11:02:37Z</time>
      </trkpt>
      <trkpt lat="46.76626" lon="5.62003">
        <ele>373.61</ele>
        <time>2013-04-21T11:02:50Z</time>
      </trkpt>
      <trkpt lat="46.76625" lon="5.62012">
        <ele>373.61</ele>
        <time>2013-04-21T11:02:56Z</time>
      </trkpt>
      <trkpt lat="46.76622" lon="5.62039">
        <ele>374.57</ele>
        <time>2013-04-21T11:03:15Z</time>
      </trkpt>
      <trkpt lat="46.76627" lon="5.62062">
        <ele>375.53</ele>
        <time>2013-04-21T11:03:33Z</time>
      </trkpt>
      <trkpt lat="46.76629" lon="5.62085">
        <ele>376.01</ele>
        <time>2013-04-21T11:03:49Z</time>
      </trkpt>
      <trkpt lat="46.76633" lon="5.6211">
        <ele>376.97</ele>
        <time>2013-04-21T11:04:06Z</time>
      </trkpt>
      <trkpt lat="46.76638" lon="5.62139">
        <ele>377.94</ele>
        <time>2013-04-21T11:04:28Z</time>
      </trkpt>
      <trkpt lat="46.7664" lon="5.62153">
        <ele>378.42</ele>
        <time>2013-04-21T11:04:38Z</time>
      </trkpt>
      <trkpt lat="46.76647" lon="5.62176">
        <ele>379.86</ele>
        <time>2013-04-21T11:04:56Z</time>
      </trkpt>
      <trkpt lat="46.7665" lon="5.62181">
        <ele>379.86</ele>
        <time>2013-04-21T11:05:01Z</time>
      </trkpt>
      <trkpt lat="46.76658" lon="5.62187">
        <ele>380.34</ele>
        <time>2013-04-21T11:05:10Z</time>
      </trkpt>
      <trkpt lat="46.76678" lon="5.62179">
        <ele>381.3</ele>
        <time>2013-04-21T11:05:30Z</time>
      </trkpt>
      <trkpt lat="46.76692" lon="5.62171">
        <ele>382.26</ele>
        <time>2013-04-21T11:05:45Z</time>
      </trkpt>
      <trkpt lat="46.76706" lon="5.62163">
        <ele>383.22</ele>
        <time>2013-04-21T11:06:00Z</time>
      </trkpt>
      <trkpt lat="46.7672" lon="5.62155">
        <ele>382.74</ele>
        <time>2013-04-21T11:06:14Z</time>
      </trkpt>
      <trkpt lat="46.76735" lon="5.62147">
        <ele>384.18</ele>
        <time>2013-04-21T11:06:29Z</time>
      </trkpt>
      <trkpt lat="46.76753" lon="5.62137">
        <ele>385.15</ele>
        <time>2013-04-21T11:06:47Z</time>
      </trkpt>
      <trkpt lat="46.7677" lon="5.6213">
        <ele>386.11</ele>
        <time>2013-04-21T11:07:04Z</time>
      </trkpt>
      <trkpt lat="46.76783" lon="5.62129">
        <ele>386.59</ele>
        <time>2013-04-21T11:07:17Z</time>
      </trkpt>
      <trkpt lat="46.76796" lon="5.62131">
        <ele>388.03</ele>
        <time>2013-04-21T11:07:30Z</time>
      </trkpt>
      <trkpt lat="46.76805" lon="5.62136">
        <ele>388.51</ele>
        <time>2013-04-21T11:07:41Z</time>
      </trkpt>
      <trkpt lat="46.76816" lon="5.62145">
        <ele>389.47</ele>
        <time>2013-04-21T11:07:54Z</time>
      </trkpt>
      <trkpt lat="46.76828" lon="5.62153">
        <ele>390.91</ele>
        <time>2013-04-21T11:08:07Z</time>
      </trkpt>
      <trkpt lat="46.76843" lon="5.6217">
        <ele>393.32</ele>
        <time>2013-04-21T11:08:24Z</time>
      </trkpt>
      <trkpt lat="46.76855" lon="5.62191">
        <ele>394.76</ele>
        <time>2013-04-21T11:08:42Z</time>
      </trkpt>
      <trkpt lat="46.76857" lon="5.62203">
        <ele>395.72</ele>
        <time>2013-04-21T11:08:51Z</time>
      </trkpt>
      <trkpt lat="46.76873" lon="5.62223">
        <ele>397.64</ele>
        <time>2013-04-21T11:09:11Z</time>
      </trkpt>
      <trkpt lat="46.76884" lon="5.62245">
        <ele>399.57</ele>
        <time>2013-04-21T11:09:29Z</time>
      </trkpt>
      <trkpt lat="46.76893" lon="5.62268">
        <ele>401.49</ele>
        <time>2013-04-21T11:09:47Z</time>
      </trkpt>
      <trkpt lat="46.76892" lon="5.62271">
        <ele>401.97</ele>
        <time>2013-04-21T11:10:05Z</time>
      </trkpt>
      <trkpt lat="46.76891" lon="5.62269">
        <ele>402.45</ele>
        <time>2013-04-21T11:10:33Z</time>
      </trkpt>
      <trkpt lat="46.76892" lon="5.6227">
        <ele>402.45</ele>
        <time>2013-04-21T11:10:56Z</time>
      </trkpt>
      <trkpt lat="46.76892" lon="5.6227">
        <ele>402.45</ele>
        <time>2013-04-21T11:11:19Z</time>
      </trkpt>
      <trkpt lat="46.76898" lon="5.62283">
        <ele>403.89</ele>
        <time>2013-04-21T11:11:38Z</time>
      </trkpt>
      <trkpt lat="46.76908" lon="5.62307">
        <ele>405.81</ele>
        <time>2013-04-21T11:11:56Z</time>
      </trkpt>
      <trkpt lat="46.76903" lon="5.62327">
        <ele>408.22</ele>
        <time>2013-04-21T11:12:11Z</time>
      </trkpt>
      <trkpt lat="46.76897" lon="5.62343">
        <ele>409.18</ele>
        <time>2013-04-21T11:12:27Z</time>
      </trkpt>
      <trkpt lat="46.76893" lon="5.62363">
        <ele>411.58</ele>
        <time>2013-04-21T11:12:46Z</time>
      </trkpt>
      <trkpt lat="46.7689" lon="5.62376">
        <ele>412.54</ele>
        <time>2013-04-21T11:12:58Z</time>
      </trkpt>
      <trkpt lat="46.76885" lon="5.62395">
        <ele>413.98</ele>
        <time>2013-04-21T11:13:14Z</time>
      </trkpt>
      <trkpt lat="46.76884" lon="5.62394">
        <ele>413.5</ele>
        <time>2013-04-21T11:13:35Z</time>
      </trkpt>
      <trkpt lat="46.76885" lon="5.62396">
        <ele>414.47</ele>
        <time>2013-04-21T11:14:05Z</time>
      </trkpt>
      <trkpt lat="46.76891" lon="5.62401">
        <ele>414.95</ele>
        <time>2013-04-21T11:14:19Z</time>
      </trkpt>
      <trkpt lat="46.76895" lon="5.62412">
        <ele>416.87</ele>
        <time>2013-04-21T11:14:36Z</time>
      </trkpt>
      <trkpt lat="46.76901" lon="5.62425">
        <ele>419.75</ele>
        <time>2013-04-21T11:14:52Z</time>
      </trkpt>
      <trkpt lat="46.76906" lon="5.62443">
        <ele>422.16</ele>
        <time>2013-04-21T11:15:08Z</time>
      </trkpt>
      <trkpt lat="46.76913" lon="5.62455">
        <ele>424.56</ele>
        <time>2013-04-21T11:15:23Z</time>
      </trkpt>
      <trkpt lat="46.76923" lon="5.62464">
        <ele>426</ele>
        <time>2013-04-21T11:15:37Z</time>
      </trkpt>
      <trkpt lat="46.76933" lon="5.62469">
        <ele>427.44</ele>
        <time>2013-04-21T11:15:51Z</time>
      </trkpt>
      <trkpt lat="46.76942" lon="5.62478">
        <ele>427.92</ele>
        <time>2013-04-21T11:16:07Z</time>
      </trkpt>
      <trkpt lat="46.7695" lon="5.62485">
        <ele>427.92</ele>
        <time>2013-04-21T11:16:21Z</time>
      </trkpt>
      <trkpt lat="46.76961" lon="5.62493">
        <ele>428.4</ele>
        <time>2013-04-21T11:16:35Z</time>
      </trkpt>
      <trkpt lat="46.76968" lon="5.625">
        <ele>429.85</ele>
        <time>2013-04-21T11:16:48Z</time>
      </trkpt>
      <trkpt lat="46.76973" lon="5.62517">
        <ele>431.77</ele>
        <time>2013-04-21T11:17:04Z</time>
      </trkpt>
      <trkpt lat="46.76977" lon="5.62538">
        <ele>433.69</ele>
        <time>2013-04-21T11:17:18Z</time>
      </trkpt>
      <trkpt lat="46.76978" lon="5.62551">
        <ele>436.1</ele>
        <time>2013-04-21T11:17:33Z</time>
      </trkpt>
      <trkpt lat="46.76983" lon="5.62568">
        <ele>438.5</ele>
        <time>2013-04-21T11:17:50Z</time>
      </trkpt>
      <trkpt lat="46.76987" lon="5.62578">
        <ele>440.42</ele>
        <time>2013-04-21T11:18:04Z</time>
      </trkpt>
      <trkpt lat="46.76993" lon="5.6259">
        <ele>442.82</ele>
        <time>2013-04-21T11:18:18Z</time>
      </trkpt>
      <trkpt lat="46.77" lon="5.62602">
        <ele>445.71</ele>
        <time>2013-04-21T11:18:35Z</time>
      </trkpt>
      <trkpt lat="46.77003" lon="5.62613">
        <ele>448.11</ele>
        <time>2013-04-21T11:18:51Z</time>
      </trkpt>
      <trkpt lat="46.77005" lon="5.62621">
        <ele>450.52</ele>
        <time>2013-04-21T11:19:06Z</time>
      </trkpt>
      <trkpt lat="46.7701" lon="5.62634">
        <ele>453.4</ele>
        <time>2013-04-21T11:19:24Z</time>
      </trkpt>
      <trkpt lat="46.77014" lon="5.6264">
        <ele>456.28</ele>
        <time>2013-04-21T11:19:39Z</time>
      </trkpt>
      <trkpt lat="46.77019" lon="5.62648">
        <ele>458.69</ele>
        <time>2013-04-21T11:19:52Z</time>
      </trkpt>
      <trkpt lat="46.77023" lon="5.62654">
        <ele>460.61</ele>
        <time>2013-04-21T11:20:04Z</time>
      </trkpt>
      <trkpt lat="46.77029" lon="5.62668">
        <ele>463.01</ele>
        <time>2013-04-21T11:20:19Z</time>
      </trkpt>
      <trkpt lat="46.77021" lon="5.62674">
        <ele>465.9</ele>
        <time>2013-04-21T11:20:35Z</time>
      </trkpt>
      <trkpt lat="46.77006" lon="5.62672">
        <ele>468.78</ele>
        <time>2013-04-21T11:20:52Z</time>
      </trkpt>
      <trkpt lat="46.76998" lon="5.62675">
        <ele>471.18</ele>
        <time>2013-04-21T11:21:07Z</time>
      </trkpt>
      <trkpt lat="46.7699" lon="5.62682">
        <ele>474.07</ele>
        <time>2013-04-21T11:21:24Z</time>
      </trkpt>
      <trkpt lat="46.76983" lon="5.6269">
        <ele>477.43</ele>
        <time>2013-04-21T11:21:39Z</time>
      </trkpt>
      <trkpt lat="46.76974" lon="5.62695">
        <ele>480.32</ele>
        <time>2013-04-21T11:21:55Z</time>
      </trkpt>
      <trkpt lat="46.76966" lon="5.62686">
        <ele>480.32</ele>
        <time>2013-04-21T11:22:09Z</time>
      </trkpt>
      <trkpt lat="46.76966" lon="5.62685">
        <ele>480.32</ele>
        <time>2013-04-21T11:22:10Z</time>
      </trkpt>
      <trkpt lat="46.7695" lon="5.62666">
        <ele>480.8</ele>
        <time>2013-04-21T11:22:29Z</time>
      </trkpt>
      <trkpt lat="46.76937" lon="5.62659">
        <ele>481.28</ele>
        <time>2013-04-21T11:22:44Z</time>
      </trkpt>
      <trkpt lat="46.7692" lon="5.62651">
        <ele>482.72</ele>
        <time>2013-04-21T11:23:02Z</time>
      </trkpt>
      <trkpt lat="46.76903" lon="5.62643">
        <ele>483.68</ele>
        <time>2013-04-21T11:23:21Z</time>
      </trkpt>
      <trkpt lat="46.76887" lon="5.62636">
        <ele>483.68</ele>
        <time>2013-04-21T11:23:36Z</time>
      </trkpt>
      <trkpt lat="46.76872" lon="5.6263">
        <ele>484.16</ele>
        <time>2013-04-21T11:23:53Z</time>
      </trkpt>
      <trkpt lat="46.76856" lon="5.62623">
        <ele>485.12</ele>
        <time>2013-04-21T11:24:09Z</time>
      </trkpt>
      <trkpt lat="46.76839" lon="5.62617">
        <ele>485.6</ele>
        <time>2013-04-21T11:24:25Z</time>
      </trkpt>
      <trkpt lat="46.7682" lon="5.62614">
        <ele>486.56</ele>
        <time>2013-04-21T11:24:42Z</time>
      </trkpt>
      <trkpt lat="46.76805" lon="5.62605">
        <ele>487.53</ele>
        <time>2013-04-21T11:24:56Z</time>
      </trkpt>
      <trkpt lat="46.768" lon="5.62598">
        <ele>487.53</ele>
        <time>2013-04-21T11:25:11Z</time>
      </trkpt>
      <trkpt lat="46.768" lon="5.62593">
        <ele>487.53</ele>
        <time>2013-04-21T11:25:31Z</time>
      </trkpt>
      <trkpt lat="46.76799" lon="5.62594">
        <ele>487.53</ele>
        <time>2013-04-21T11:25:43Z</time>
      </trkpt>
      <trkpt lat="46.76797" lon="5.62596">
        <ele>488.01</ele>
        <time>2013-04-21T11:26:01Z</time>
      </trkpt>
      <trkpt lat="46.76796" lon="5.62598">
        <ele>488.01</ele>
        <time>2013-04-21T11:26:23Z</time>
      </trkpt>
      <trkpt lat="46.76797" lon="5.62595">
        <ele>488.01</ele>
        <time>2013-04-21T11:26:42Z</time>
      </trkpt>
      <trkpt lat="46.76797" lon="5.62597">
        <ele>488.01</ele>
        <time>2013-04-21T11:27:08Z</time>
      </trkpt>
      <trkpt lat="46.76797" lon="5.62594">
        <ele>487.53</ele>
        <time>2013-04-21T11:27:31Z</time>
      </trkpt>
      <trkpt lat="46.76798" lon="5.62593">
        <ele>488.01</ele>
        <time>2013-04-21T11:27:56Z</time>
      </trkpt>
      <trkpt lat="46.76798" lon="5.62592">
        <ele>488.01</ele>
        <time>2013-04-21T11:28:13Z</time>
      </trkpt>
      <trkpt lat="46.76798" lon="5.62595">
        <ele>488.01</ele>
        <time>2013-04-21T11:28:40Z</time>
      </trkpt>
      <trkpt lat="46.76801" lon="5.62597">
        <ele>488.01</ele>
        <time>2013-04-21T11:28:55Z</time>
      </trkpt>
      <trkpt lat="46.76801" lon="5.62598">
        <ele>488.01</ele>
        <time>2013-04-21T11:29:09Z</time>
      </trkpt>
      <trkpt lat="46.76801" lon="5.62597">
        <ele>488.49</ele>
        <time>2013-04-21T11:29:23Z</time>
      </trkpt>
      <trkpt lat="46.76802" lon="5.62596">
        <ele>488.01</ele>
        <time>2013-04-21T11:29:38Z</time>
      </trkpt>
      <trkpt lat="46.76801" lon="5.62592">
        <ele>488.49</ele>
        <time>2013-04-21T11:30:04Z</time>
      </trkpt>
      <trkpt lat="46.76798" lon="5.62594">
        <ele>488.49</ele>
        <time>2013-04-21T11:30:07Z</time>
      </trkpt>
      <trkpt lat="46.7679" lon="5.62594">
        <ele>488.49</ele>
        <time>2013-04-21T11:30:20Z</time>
      </trkpt>
      <trkpt lat="46.7679" lon="5.62594">
        <ele>488.01</ele>
        <time>2013-04-21T11:30:39Z</time>
      </trkpt>
      <trkpt lat="46.7679" lon="5.62598">
        <ele>488.01</ele>
        <time>2013-04-21T11:30:58Z</time>
      </trkpt>
      <trkpt lat="46.76784" lon="5.62602">
        <ele>488.01</ele>
        <time>2013-04-21T11:31:04Z</time>
      </trkpt>
      <trkpt lat="46.76774" lon="5.626">
        <ele>487.05</ele>
        <time>2013-04-21T11:31:12Z</time>
      </trkpt>
      <trkpt lat="46.7677" lon="5.62612">
        <ele>487.05</ele>
        <time>2013-04-21T11:31:27Z</time>
      </trkpt>
      <trkpt lat="46.7677" lon="5.62614">
        <ele>486.08</ele>
        <time>2013-04-21T11:31:45Z</time>
      </trkpt>
      <trkpt lat="46.76766" lon="5.62632">
        <ele>486.08</ele>
        <time>2013-04-21T11:31:57Z</time>
      </trkpt>
      <trkpt lat="46.7676" lon="5.62659">
        <ele>486.56</ele>
        <time>2013-04-21T11:32:13Z</time>
      </trkpt>
      <trkpt lat="46.76753" lon="5.62681">
        <ele>485.6</ele>
        <time>2013-04-21T11:32:26Z</time>
      </trkpt>
      <trkpt lat="46.76749" lon="5.62691">
        <ele>484.64</ele>
        <time>2013-04-21T11:32:31Z</time>
      </trkpt>
      <trkpt lat="46.76736" lon="5.62714">
        <ele>483.2</ele>
        <time>2013-04-21T11:32:42Z</time>
      </trkpt>
      <trkpt lat="46.76731" lon="5.62717">
        <ele>482.24</ele>
        <time>2013-04-21T11:32:46Z</time>
      </trkpt>
      <trkpt lat="46.76716" lon="5.62738">
        <ele>479.84</ele>
        <time>2013-04-21T11:33:01Z</time>
      </trkpt>
      <trkpt lat="46.76704" lon="5.62769">
        <ele>478.39</ele>
        <time>2013-04-21T11:33:14Z</time>
      </trkpt>
      <trkpt lat="46.76701" lon="5.62781">
        <ele>477.43</ele>
        <time>2013-04-21T11:33:19Z</time>
      </trkpt>
      <trkpt lat="46.76703" lon="5.62805">
        <ele>478.87</ele>
        <time>2013-04-21T11:33:33Z</time>
      </trkpt>
      <trkpt lat="46.76705" lon="5.62825">
        <ele>479.84</ele>
        <time>2013-04-21T11:33:41Z</time>
      </trkpt>
      <trkpt lat="46.7671" lon="5.62837">
        <ele>480.32</ele>
        <time>2013-04-21T11:33:47Z</time>
      </trkpt>
      <trkpt lat="46.76712" lon="5.62851">
        <ele>480.8</ele>
        <time>2013-04-21T11:33:54Z</time>
      </trkpt>
      <trkpt lat="46.76723" lon="5.62886">
        <ele>479.84</ele>
        <time>2013-04-21T11:34:10Z</time>
      </trkpt>
      <trkpt lat="46.76723" lon="5.62905">
        <ele>476.95</ele>
        <time>2013-04-21T11:34:24Z</time>
      </trkpt>
      <trkpt lat="46.76719" lon="5.62922">
        <ele>474.55</ele>
        <time>2013-04-21T11:34:35Z</time>
      </trkpt>
      <trkpt lat="46.76714" lon="5.62937">
        <ele>473.59</ele>
        <time>2013-04-21T11:34:41Z</time>
      </trkpt>
      <trkpt lat="46.76711" lon="5.62942">
        <ele>473.11</ele>
        <time>2013-04-21T11:34:43Z</time>
      </trkpt>
      <trkpt lat="46.76706" lon="5.62973">
        <ele>471.66</ele>
        <time>2013-04-21T11:34:57Z</time>
      </trkpt>
      <trkpt lat="46.76712" lon="5.62993">
        <ele>472.14</ele>
        <time>2013-04-21T11:35:11Z</time>
      </trkpt>
      <trkpt lat="46.76717" lon="5.63013">
        <ele>471.18</ele>
        <time>2013-04-21T11:35:22Z</time>
      </trkpt>
      <trkpt lat="46.76719" lon="5.63036">
        <ele>469.26</ele>
        <time>2013-04-21T11:35:37Z</time>
      </trkpt>
      <trkpt lat="46.76732" lon="5.63047">
        <ele>470.7</ele>
        <time>2013-04-21T11:35:53Z</time>
      </trkpt>
      <trkpt lat="46.76744" lon="5.63053">
        <ele>472.63</ele>
        <time>2013-04-21T11:36:07Z</time>
      </trkpt>
      <trkpt lat="46.76756" lon="5.63067">
        <ele>473.59</ele>
        <time>2013-04-21T11:36:20Z</time>
      </trkpt>
      <trkpt lat="46.76766" lon="5.63076">
        <ele>474.55</ele>
        <time>2013-04-21T11:36:34Z</time>
      </trkpt>
      <trkpt lat="46.76778" lon="5.63086">
        <ele>475.99</ele>
        <time>2013-04-21T11:36:49Z</time>
      </trkpt>
      <trkpt lat="46.7679" lon="5.63099">
        <ele>476.95</ele>
        <time>2013-04-21T11:37:02Z</time>
      </trkpt>
      <trkpt lat="46.768" lon="5.63117">
        <ele>476.47</ele>
        <time>2013-04-21T11:37:15Z</time>
      </trkpt>
      <trkpt lat="46.76813" lon="5.63134">
        <ele>475.99</ele>
        <time>2013-04-21T11:37:29Z</time>
      </trkpt>
      <trkpt lat="46.76821" lon="5.63149">
        <ele>475.03</ele>
        <time>2013-04-21T11:37:41Z</time>
      </trkpt>
      <trkpt lat="46.76829" lon="5.63167">
        <ele>474.07</ele>
        <time>2013-04-21T11:37:54Z</time>
      </trkpt>
      <trkpt lat="46.76841" lon="5.6319">
        <ele>472.63</ele>
        <time>2013-04-21T11:38:10Z</time>
      </trkpt>
      <trkpt lat="46.76851" lon="5.63208">
        <ele>471.66</ele>
        <time>2013-04-21T11:38:24Z</time>
      </trkpt>
      <trkpt lat="46.76862" lon="5.6323">
        <ele>469.26</ele>
        <time>2013-04-21T11:38:38Z</time>
      </trkpt>
      <trkpt lat="46.76872" lon="5.63252">
        <ele>468.3</ele>
        <time>2013-04-21T11:38:53Z</time>
      </trkpt>
      <trkpt lat="46.76879" lon="5.63281">
        <ele>467.34</ele>
        <time>2013-04-21T11:39:08Z</time>
      </trkpt>
      <trkpt lat="46.76883" lon="5.63302">
        <ele>464.93</ele>
        <time>2013-04-21T11:39:22Z</time>
      </trkpt>
      <trkpt lat="46.7689" lon="5.63322">
        <ele>464.45</ele>
        <time>2013-04-21T11:39:38Z</time>
      </trkpt>
      <trkpt lat="46.76896" lon="5.63341">
        <ele>464.93</ele>
        <time>2013-04-21T11:39:52Z</time>
      </trkpt>
      <trkpt lat="46.76901" lon="5.63361">
        <ele>464.45</ele>
        <time>2013-04-21T11:40:07Z</time>
      </trkpt>
      <trkpt lat="46.76899" lon="5.63387">
        <ele>463.49</ele>
        <time>2013-04-21T11:40:22Z</time>
      </trkpt>
      <trkpt lat="46.76902" lon="5.63405">
        <ele>464.93</ele>
        <time>2013-04-21T11:40:36Z</time>
      </trkpt>
      <trkpt lat="46.76909" lon="5.63424">
        <ele>465.42</ele>
        <time>2013-04-21T11:40:51Z</time>
      </trkpt>
      <trkpt lat="46.76914" lon="5.63439">
        <ele>466.38</ele>
        <time>2013-04-21T11:41:04Z</time>
      </trkpt>
      <trkpt lat="46.76913" lon="5.63462">
        <ele>464.93</ele>
        <time>2013-04-21T11:41:20Z</time>
      </trkpt>
      <trkpt lat="46.76914" lon="5.63487">
        <ele>467.34</ele>
        <time>2013-04-21T11:41:36Z</time>
      </trkpt>
      <trkpt lat="46.7691" lon="5.63505">
        <ele>467.82</ele>
        <time>2013-04-21T11:41:51Z</time>
      </trkpt>
      <trkpt lat="46.76907" lon="5.63528">
        <ele>467.82</ele>
        <time>2013-04-21T11:42:08Z</time>
      </trkpt>
      <trkpt lat="46.76898" lon="5.63544">
        <ele>467.82</ele>
        <time>2013-04-21T11:42:22Z</time>
      </trkpt>
      <trkpt lat="46.76892" lon="5.63552">
        <ele>466.86</ele>
        <time>2013-04-21T11:42:29Z</time>
      </trkpt>
      <trkpt lat="46.76881" lon="5.6356">
        <ele>465.42</ele>
        <time>2013-04-21T11:42:38Z</time>
      </trkpt>
      <trkpt lat="46.76874" lon="5.63581">
        <ele>465.9</ele>
        <time>2013-04-21T11:42:53Z</time>
      </trkpt>
      <trkpt lat="46.76864" lon="5.63594">
        <ele>466.86</ele>
        <time>2013-04-21T11:43:07Z</time>
      </trkpt>
      <trkpt lat="46.7686" lon="5.63606">
        <ele>467.82</ele>
        <time>2013-04-21T11:43:22Z</time>
      </trkpt>
      <trkpt lat="46.76857" lon="5.63612">
        <ele>467.82</ele>
        <time>2013-04-21T11:43:35Z</time>
      </trkpt>
      <trkpt lat="46.76855" lon="5.63612">
        <ele>468.3</ele>
        <time>2013-04-21T11:43:58Z</time>
      </trkpt>
      <trkpt lat="46.76854" lon="5.63612">
        <ele>467.82</ele>
        <time>2013-04-21T11:44:19Z</time>
      </trkpt>
      <trkpt lat="46.76852" lon="5.63609">
        <ele>467.82</ele>
        <time>2013-04-21T11:44:34Z</time>
      </trkpt>
      <trkpt lat="46.76848" lon="5.6361">
        <ele>467.82</ele>
        <time>2013-04-21T11:44:52Z</time>
      </trkpt>
      <trkpt lat="46.76857" lon="5.63613">
        <ele>468.3</ele>
        <time>2013-04-21T11:45:07Z</time>
      </trkpt>
      <trkpt lat="46.76866" lon="5.63627">
        <ele>467.34</ele>
        <time>2013-04-21T11:45:19Z</time>
      </trkpt>
      <trkpt lat="46.76871" lon="5.63636">
        <ele>466.86</ele>
        <time>2013-04-21T11:45:24Z</time>
      </trkpt>
      <trkpt lat="46.76874" lon="5.63642">
        <ele>466.86</ele>
        <time>2013-04-21T11:45:29Z</time>
      </trkpt>
      <trkpt lat="46.76877" lon="5.63645">
        <ele>466.86</ele>
        <time>2013-04-21T11:45:32Z</time>
      </trkpt>
      <trkpt lat="46.76882" lon="5.63654">
        <ele>466.38</ele>
        <time>2013-04-21T11:45:37Z</time>
      </trkpt>
      <trkpt lat="46.76889" lon="5.63662">
        <ele>465.9</ele>
        <time>2013-04-21T11:45:45Z</time>
      </trkpt>
      <trkpt lat="46.76896" lon="5.63682">
        <ele>464.93</ele>
        <time>2013-04-21T11:45:59Z</time>
      </trkpt>
      <trkpt lat="46.76903" lon="5.63696">
        <ele>463.97</ele>
        <time>2013-04-21T11:46:16Z</time>
      </trkpt>
      <trkpt lat="46.7691" lon="5.63697">
        <ele>465.42</ele>
        <time>2013-04-21T11:46:31Z</time>
      </trkpt>
      <trkpt lat="46.7691" lon="5.63696">
        <ele>465.42</ele>
        <time>2013-04-21T11:46:49Z</time>
      </trkpt>
      <trkpt lat="46.76904" lon="5.63694">
        <ele>464.93</ele>
        <time>2013-04-21T11:47:04Z</time>
      </trkpt>
      <trkpt lat="46.76912" lon="5.63703">
        <ele>465.42</ele>
        <time>2013-04-21T11:47:22Z</time>
      </trkpt>
      <trkpt lat="46.76913" lon="5.63697">
        <ele>465.42</ele>
        <time>2013-04-21T11:47:41Z</time>
      </trkpt>
      <trkpt lat="46.76913" lon="5.63697">
        <ele>465.42</ele>
        <time>2013-04-21T11:47:58Z</time>
      </trkpt>
      <trkpt lat="46.76915" lon="5.63697">
        <ele>465.9</ele>
        <time>2013-04-21T11:48:26Z</time>
      </trkpt>
      <trkpt lat="46.76919" lon="5.63699">
        <ele>465.9</ele>
        <time>2013-04-21T11:48:35Z</time>
      </trkpt>
      <trkpt lat="46.76928" lon="5.63715">
        <ele>467.34</ele>
        <time>2013-04-21T11:48:51Z</time>
      </trkpt>
      <trkpt lat="46.76936" lon="5.63731">
        <ele>467.34</ele>
        <time>2013-04-21T11:49:06Z</time>
      </trkpt>
      <trkpt lat="46.76944" lon="5.63746">
        <ele>467.34</ele>
        <time>2013-04-21T11:49:18Z</time>
      </trkpt>
      <trkpt lat="46.76953" lon="5.63762">
        <ele>467.34</ele>
        <time>2013-04-21T11:49:32Z</time>
      </trkpt>
      <trkpt lat="46.76954" lon="5.63762">
        <ele>466.86</ele>
        <time>2013-04-21T11:49:33Z</time>
      </trkpt>
      <trkpt lat="46.76969" lon="5.63779">
        <ele>468.3</ele>
        <time>2013-04-21T11:49:50Z</time>
      </trkpt>
      <trkpt lat="46.76979" lon="5.63786">
        <ele>469.74</ele>
        <time>2013-04-21T11:50:04Z</time>
      </trkpt>
      <trkpt lat="46.76981" lon="5.63805">
        <ele>470.22</ele>
        <time>2013-04-21T11:50:18Z</time>
      </trkpt>
      <trkpt lat="46.76991" lon="5.63817">
        <ele>471.66</ele>
        <time>2013-04-21T11:50:32Z</time>
      </trkpt>
      <trkpt lat="46.77" lon="5.63827">
        <ele>473.11</ele>
        <time>2013-04-21T11:50:43Z</time>
      </trkpt>
      <trkpt lat="46.76993" lon="5.63842">
        <ele>473.59</ele>
        <time>2013-04-21T11:50:57Z</time>
      </trkpt>
      <trkpt lat="46.76984" lon="5.63862">
        <ele>473.59</ele>
        <time>2013-04-21T11:51:12Z</time>
      </trkpt>
      <trkpt lat="46.76972" lon="5.63888">
        <ele>475.99</ele>
        <time>2013-04-21T11:51:27Z</time>
      </trkpt>
      <trkpt lat="46.76964" lon="5.63905">
        <ele>477.91</ele>
        <time>2013-04-21T11:51:40Z</time>
      </trkpt>
      <trkpt lat="46.76952" lon="5.63927">
        <ele>479.35</ele>
        <time>2013-04-21T11:51:56Z</time>
      </trkpt>
      <trkpt lat="46.76944" lon="5.63949">
        <ele>481.28</ele>
        <time>2013-04-21T11:52:11Z</time>
      </trkpt>
      <trkpt lat="46.76938" lon="5.63965">
        <ele>482.72</ele>
        <time>2013-04-21T11:52:22Z</time>
      </trkpt>
      <trkpt lat="46.76931" lon="5.6399">
        <ele>484.16</ele>
        <time>2013-04-21T11:52:36Z</time>
      </trkpt>
      <trkpt lat="46.76923" lon="5.64018">
        <ele>483.68</ele>
        <time>2013-04-21T11:52:55Z</time>
      </trkpt>
      <trkpt lat="46.76913" lon="5.64052">
        <ele>483.2</ele>
        <time>2013-04-21T11:53:14Z</time>
      </trkpt>
      <trkpt lat="46.76908" lon="5.64073">
        <ele>482.24</ele>
        <time>2013-04-21T11:53:30Z</time>
      </trkpt>
      <trkpt lat="46.76899" lon="5.64092">
        <ele>481.28</ele>
        <time>2013-04-21T11:53:45Z</time>
      </trkpt>
      <trkpt lat="46.76881" lon="5.64093">
        <ele>480.8</ele>
        <time>2013-04-21T11:54:02Z</time>
      </trkpt>
      <trkpt lat="46.76861" lon="5.64097">
        <ele>480.32</ele>
        <time>2013-04-21T11:54:18Z</time>
      </trkpt>
      <trkpt lat="46.76836" lon="5.64102">
        <ele>479.84</ele>
        <time>2013-04-21T11:54:38Z</time>
      </trkpt>
      <trkpt lat="46.76813" lon="5.64104">
        <ele>480.32</ele>
        <time>2013-04-21T11:54:56Z</time>
      </trkpt>
      <trkpt lat="46.76788" lon="5.64104">
        <ele>481.28</ele>
        <time>2013-04-21T11:55:16Z</time>
      </trkpt>
      <trkpt lat="46.76766" lon="5.64098">
        <ele>482.24</ele>
        <time>2013-04-21T11:55:35Z</time>
      </trkpt>
      <trkpt lat="46.76738" lon="5.64088">
        <ele>483.68</ele>
        <time>2013-04-21T11:55:58Z</time>
      </trkpt>
      <trkpt lat="46.76712" lon="5.64075">
        <ele>484.64</ele>
        <time>2013-04-21T11:56:21Z</time>
      </trkpt>
      <trkpt lat="46.76693" lon="5.64064">
        <ele>485.6</ele>
        <time>2013-04-21T11:56:39Z</time>
      </trkpt>
      <trkpt lat="46.76669" lon="5.64052">
        <ele>487.05</ele>
        <time>2013-04-21T11:57:00Z</time>
      </trkpt>
      <trkpt lat="46.76644" lon="5.64047">
        <ele>488.01</ele>
        <time>2013-04-21T11:57:22Z</time>
      </trkpt>
      <trkpt lat="46.76617" lon="5.64042">
        <ele>488.01</ele>
        <time>2013-04-21T11:57:44Z</time>
      </trkpt>
      <trkpt lat="46.76591" lon="5.64036">
        <ele>487.05</ele>
        <time>2013-04-21T11:58:07Z</time>
      </trkpt>
      <trkpt lat="46.76568" lon="5.64028">
        <ele>486.08</ele>
        <time>2013-04-21T11:58:27Z</time>
      </trkpt>
      <trkpt lat="46.76546" lon="5.6402">
        <ele>484.16</ele>
        <time>2013-04-21T11:58:46Z</time>
      </trkpt>
      <trkpt lat="46.76521" lon="5.64013">
        <ele>482.24</ele>
        <time>2013-04-21T11:59:06Z</time>
      </trkpt>
      <trkpt lat="46.76496" lon="5.64004">
        <ele>480.32</ele>
        <time>2013-04-21T11:59:27Z</time>
      </trkpt>
      <trkpt lat="46.76472" lon="5.64">
        <ele>478.87</ele>
        <time>2013-04-21T11:59:45Z</time>
      </trkpt>
      <trkpt lat="46.76441" lon="5.64003">
        <ele>477.43</ele>
        <time>2013-04-21T12:00:08Z</time>
      </trkpt>
      <trkpt lat="46.76418" lon="5.64007">
        <ele>477.43</ele>
        <time>2013-04-21T12:00:26Z</time>
      </trkpt>
      <trkpt lat="46.76391" lon="5.64016">
        <ele>476.95</ele>
        <time>2013-04-21T12:00:47Z</time>
      </trkpt>
      <trkpt lat="46.76363" lon="5.64029">
        <ele>475.51</ele>
        <time>2013-04-21T12:01:11Z</time>
      </trkpt>
      <trkpt lat="46.76336" lon="5.64045">
        <ele>474.07</ele>
        <time>2013-04-21T12:01:33Z</time>
      </trkpt>
      <trkpt lat="46.76314" lon="5.64059">
        <ele>473.11</ele>
        <time>2013-04-21T12:01:53Z</time>
      </trkpt>
      <trkpt lat="46.76298" lon="5.64068">
        <ele>472.63</ele>
        <time>2013-04-21T12:02:09Z</time>
      </trkpt>
      <trkpt lat="46.76295" lon="5.64064">
        <ele>472.63</ele>
        <time>2013-04-21T12:02:26Z</time>
      </trkpt>
      <trkpt lat="46.76293" lon="5.64066">
        <ele>473.11</ele>
        <time>2013-04-21T12:02:53Z</time>
      </trkpt>
      <trkpt lat="46.76282" lon="5.64056">
        <ele>471.18</ele>
        <time>2013-04-21T12:03:08Z</time>
      </trkpt>
      <trkpt lat="46.76281" lon="5.64054">
        <ele>471.18</ele>
        <time>2013-04-21T12:03:10Z</time>
      </trkpt>
      <trkpt lat="46.76268" lon="5.64039">
        <ele>470.22</ele>
        <time>2013-04-21T12:03:25Z</time>
      </trkpt>
      <trkpt lat="46.76266" lon="5.64037">
        <ele>469.74</ele>
        <time>2013-04-21T12:03:27Z</time>
      </trkpt>
      <trkpt lat="46.76257" lon="5.64019">
        <ele>468.78</ele>
        <time>2013-04-21T12:03:41Z</time>
      </trkpt>
      <trkpt lat="46.76243" lon="5.63998">
        <ele>467.82</ele>
        <time>2013-04-21T12:03:56Z</time>
      </trkpt>
      <trkpt lat="46.76233" lon="5.6398">
        <ele>466.38</ele>
        <time>2013-04-21T12:04:09Z</time>
      </trkpt>
      <trkpt lat="46.76226" lon="5.63966">
        <ele>465.42</ele>
        <time>2013-04-21T12:04:20Z</time>
      </trkpt>
      <trkpt lat="46.76218" lon="5.63943">
        <ele>463.97</ele>
        <time>2013-04-21T12:04:35Z</time>
      </trkpt>
      <trkpt lat="46.76216" lon="5.63914">
        <ele>463.01</ele>
        <time>2013-04-21T12:04:51Z</time>
      </trkpt>
      <trkpt lat="46.76214" lon="5.63895">
        <ele>462.53</ele>
        <time>2013-04-21T12:05:03Z</time>
      </trkpt>
      <trkpt lat="46.76212" lon="5.63875">
        <ele>461.57</ele>
        <time>2013-04-21T12:05:16Z</time>
      </trkpt>
      <trkpt lat="46.76211" lon="5.63857">
        <ele>460.61</ele>
        <time>2013-04-21T12:05:30Z</time>
      </trkpt>
      <trkpt lat="46.76207" lon="5.63841">
        <ele>460.13</ele>
        <time>2013-04-21T12:05:42Z</time>
      </trkpt>
      <trkpt lat="46.76199" lon="5.63827">
        <ele>459.17</ele>
        <time>2013-04-21T12:05:54Z</time>
      </trkpt>
      <trkpt lat="46.76186" lon="5.63811">
        <ele>457.72</ele>
        <time>2013-04-21T12:06:08Z</time>
      </trkpt>
      <trkpt lat="46.76176" lon="5.63796">
        <ele>457.24</ele>
        <time>2013-04-21T12:06:22Z</time>
      </trkpt>
      <trkpt lat="46.76174" lon="5.63798">
        <ele>456.76</ele>
        <time>2013-04-21T12:06:34Z</time>
      </trkpt>
      <trkpt lat="46.76173" lon="5.63789">
        <ele>457.24</ele>
        <time>2013-04-21T12:06:53Z</time>
      </trkpt>
      <trkpt lat="46.76174" lon="5.63784">
        <ele>457.24</ele>
        <time>2013-04-21T12:07:12Z</time>
      </trkpt>
      <trkpt lat="46.7618" lon="5.63781">
        <ele>457.24</ele>
        <time>2013-04-21T12:07:33Z</time>
      </trkpt>
      <trkpt lat="46.76171" lon="5.63776">
        <ele>456.76</ele>
        <time>2013-04-21T12:07:50Z</time>
      </trkpt>
      <trkpt lat="46.7616" lon="5.63764">
        <ele>455.32</ele>
        <time>2013-04-21T12:08:06Z</time>
      </trkpt>
      <trkpt lat="46.76152" lon="5.63749">
        <ele>453.88</ele>
        <time>2013-04-21T12:08:22Z</time>
      </trkpt>
      <trkpt lat="46.76142" lon="5.63729">
        <ele>452.92</ele>
        <time>2013-04-21T12:08:36Z</time>
      </trkpt>
      <trkpt lat="46.7613" lon="5.63711">
        <ele>451.96</ele>
        <time>2013-04-21T12:08:51Z</time>
      </trkpt>
      <trkpt lat="46.76118" lon="5.63695">
        <ele>451.48</ele>
        <time>2013-04-21T12:09:05Z</time>
      </trkpt>
      <trkpt lat="46.76105" lon="5.63681">
        <ele>450.52</ele>
        <time>2013-04-21T12:09:18Z</time>
      </trkpt>
      <trkpt lat="46.76091" lon="5.63663">
        <ele>449.07</ele>
        <time>2013-04-21T12:09:32Z</time>
      </trkpt>
      <trkpt lat="46.7608" lon="5.63651">
        <ele>447.63</ele>
        <time>2013-04-21T12:09:44Z</time>
      </trkpt>
      <trkpt lat="46.76067" lon="5.63637">
        <ele>446.67</ele>
        <time>2013-04-21T12:09:57Z</time>
      </trkpt>
      <trkpt lat="46.76053" lon="5.63623">
        <ele>445.23</ele>
        <time>2013-04-21T12:10:11Z</time>
      </trkpt>
      <trkpt lat="46.76046" lon="5.63615">
        <ele>444.75</ele>
        <time>2013-04-21T12:10:19Z</time>
      </trkpt>
      <trkpt lat="46.76034" lon="5.63602">
        <ele>443.79</ele>
        <time>2013-04-21T12:10:30Z</time>
      </trkpt>
      <trkpt lat="46.7602" lon="5.63586">
        <ele>442.82</ele>
        <time>2013-04-21T12:10:44Z</time>
      </trkpt>
      <trkpt lat="46.76008" lon="5.63575">
        <ele>441.38</ele>
        <time>2013-04-21T12:10:57Z</time>
      </trkpt>
      <trkpt lat="46.75997" lon="5.63565">
        <ele>440.42</ele>
        <time>2013-04-21T12:11:08Z</time>
      </trkpt>
      <trkpt lat="46.75983" lon="5.6355">
        <ele>439.46</ele>
        <time>2013-04-21T12:11:22Z</time>
      </trkpt>
      <trkpt lat="46.7598" lon="5.63544">
        <ele>438.98</ele>
        <time>2013-04-21T12:11:26Z</time>
      </trkpt>
      <trkpt lat="46.75976" lon="5.6354">
        <ele>438.5</ele>
        <time>2013-04-21T12:11:31Z</time>
      </trkpt>
      <trkpt lat="46.75963" lon="5.63525">
        <ele>437.54</ele>
        <time>2013-04-21T12:11:43Z</time>
      </trkpt>
      <trkpt lat="46.75948" lon="5.63511">
        <ele>436.58</ele>
        <time>2013-04-21T12:11:58Z</time>
      </trkpt>
      <trkpt lat="46.75932" lon="5.63492">
        <ele>435.61</ele>
        <time>2013-04-21T12:12:14Z</time>
      </trkpt>
      <trkpt lat="46.75912" lon="5.63466">
        <ele>434.17</ele>
        <time>2013-04-21T12:12:27Z</time>
      </trkpt>
      <trkpt lat="46.75898" lon="5.63448">
        <ele>432.73</ele>
        <time>2013-04-21T12:12:42Z</time>
      </trkpt>
      <trkpt lat="46.75891" lon="5.63436">
        <ele>431.77</ele>
        <time>2013-04-21T12:12:54Z</time>
      </trkpt>
      <trkpt lat="46.75881" lon="5.63422">
        <ele>430.81</ele>
        <time>2013-04-21T12:13:09Z</time>
      </trkpt>
      <trkpt lat="46.75873" lon="5.63406">
        <ele>429.37</ele>
        <time>2013-04-21T12:13:21Z</time>
      </trkpt>
      <trkpt lat="46.75863" lon="5.63391">
        <ele>427.92</ele>
        <time>2013-04-21T12:13:35Z</time>
      </trkpt>
      <trkpt lat="46.75854" lon="5.63379">
        <ele>426.96</ele>
        <time>2013-04-21T12:13:48Z</time>
      </trkpt>
      <trkpt lat="46.75845" lon="5.63366">
        <ele>425.52</ele>
        <time>2013-04-21T12:14:01Z</time>
      </trkpt>
      <trkpt lat="46.75833" lon="5.63343">
        <ele>424.56</ele>
        <time>2013-04-21T12:14:14Z</time>
      </trkpt>
      <trkpt lat="46.75818" lon="5.63325">
        <ele>423.6</ele>
        <time>2013-04-21T12:14:29Z</time>
      </trkpt>
      <trkpt lat="46.75806" lon="5.63312">
        <ele>422.16</ele>
        <time>2013-04-21T12:14:42Z</time>
      </trkpt>
      <trkpt lat="46.75787" lon="5.63298">
        <ele>420.71</ele>
        <time>2013-04-21T12:14:57Z</time>
      </trkpt>
      <trkpt lat="46.75774" lon="5.63284">
        <ele>419.75</ele>
        <time>2013-04-21T12:15:10Z</time>
      </trkpt>
      <trkpt lat="46.75759" lon="5.6327">
        <ele>418.79</ele>
        <time>2013-04-21T12:15:22Z</time>
      </trkpt>
      <trkpt lat="46.75746" lon="5.6326">
        <ele>418.31</ele>
        <time>2013-04-21T12:15:37Z</time>
      </trkpt>
      <trkpt lat="46.75731" lon="5.6324">
        <ele>417.35</ele>
        <time>2013-04-21T12:15:54Z</time>
      </trkpt>
      <trkpt lat="46.75724" lon="5.63228">
        <ele>415.91</ele>
        <time>2013-04-21T12:16:10Z</time>
      </trkpt>
      <trkpt lat="46.75723" lon="5.63223">
        <ele>416.39</ele>
        <time>2013-04-21T12:16:14Z</time>
      </trkpt>
      <trkpt lat="46.75722" lon="5.6322">
        <ele>416.39</ele>
        <time>2013-04-21T12:16:15Z</time>
      </trkpt>
      <trkpt lat="46.7571" lon="5.63189">
        <ele>415.43</ele>
        <time>2013-04-21T12:16:29Z</time>
      </trkpt>
      <trkpt lat="46.75701" lon="5.63164">
        <ele>414.47</ele>
        <time>2013-04-21T12:16:45Z</time>
      </trkpt>
      <trkpt lat="46.75693" lon="5.6314">
        <ele>413.5</ele>
        <time>2013-04-21T12:16:59Z</time>
      </trkpt>
      <trkpt lat="46.75684" lon="5.63126">
        <ele>413.5</ele>
        <time>2013-04-21T12:17:11Z</time>
      </trkpt>
      <trkpt lat="46.7568" lon="5.6312">
        <ele>413.5</ele>
        <time>2013-04-21T12:17:27Z</time>
      </trkpt>
      <trkpt lat="46.7568" lon="5.63117">
        <ele>413.98</ele>
        <time>2013-04-21T12:17:47Z</time>
      </trkpt>
      <trkpt lat="46.7568" lon="5.63113">
        <ele>413.98</ele>
        <time>2013-04-21T12:18:12Z</time>
      </trkpt>
      <trkpt lat="46.75681" lon="5.63108">
        <ele>413.98</ele>
        <time>2013-04-21T12:18:19Z</time>
      </trkpt>
      <trkpt lat="46.75683" lon="5.63086">
        <ele>414.47</ele>
        <time>2013-04-21T12:18:33Z</time>
      </trkpt>
      <trkpt lat="46.75677" lon="5.63069">
        <ele>414.47</ele>
        <time>2013-04-21T12:18:46Z</time>
      </trkpt>
      <trkpt lat="46.75674" lon="5.63056">
        <ele>413.98</ele>
        <time>2013-04-21T12:18:53Z</time>
      </trkpt>
      <trkpt lat="46.75671" lon="5.63039">
        <ele>413.02</ele>
        <time>2013-04-21T12:19:03Z</time>
      </trkpt>
      <trkpt lat="46.75665" lon="5.63023">
        <ele>413.02</ele>
        <time>2013-04-21T12:19:12Z</time>
      </trkpt>
      <trkpt lat="46.75662" lon="5.63013">
        <ele>412.54</ele>
        <time>2013-04-21T12:19:18Z</time>
      </trkpt>
      <trkpt lat="46.75653" lon="5.62987">
        <ele>412.06</ele>
        <time>2013-04-21T12:19:34Z</time>
      </trkpt>
      <trkpt lat="46.7565" lon="5.62981">
        <ele>411.1</ele>
        <time>2013-04-21T12:19:38Z</time>
      </trkpt>
      <trkpt lat="46.75638" lon="5.62958">
        <ele>410.62</ele>
        <time>2013-04-21T12:19:53Z</time>
      </trkpt>
      <trkpt lat="46.75634" lon="5.62941">
        <ele>410.62</ele>
        <time>2013-04-21T12:20:05Z</time>
      </trkpt>
      <trkpt lat="46.75624" lon="5.62927">
        <ele>412.06</ele>
        <time>2013-04-21T12:20:19Z</time>
      </trkpt>
      <trkpt lat="46.75616" lon="5.62909">
        <ele>413.98</ele>
        <time>2013-04-21T12:20:33Z</time>
      </trkpt>
      <trkpt lat="46.7561" lon="5.62887">
        <ele>415.91</ele>
        <time>2013-04-21T12:20:48Z</time>
      </trkpt>
      <trkpt lat="46.75604" lon="5.62867">
        <ele>418.31</ele>
        <time>2013-04-21T12:21:04Z</time>
      </trkpt>
      <trkpt lat="46.75597" lon="5.62845">
        <ele>420.71</ele>
        <time>2013-04-21T12:21:19Z</time>
      </trkpt>
      <trkpt lat="46.75592" lon="5.62824">
        <ele>422.64</ele>
        <time>2013-04-21T12:21:32Z</time>
      </trkpt>
      <trkpt lat="46.75588" lon="5.62806">
        <ele>424.56</ele>
        <time>2013-04-21T12:21:44Z</time>
      </trkpt>
      <trkpt lat="46.75586" lon="5.62785">
        <ele>426.96</ele>
        <time>2013-04-21T12:21:58Z</time>
      </trkpt>
      <trkpt lat="46.75582" lon="5.62766">
        <ele>428.89</ele>
        <time>2013-04-21T12:22:12Z</time>
      </trkpt>
      <trkpt lat="46.75577" lon="5.62755">
        <ele>429.85</ele>
        <time>2013-04-21T12:22:23Z</time>
      </trkpt>
      <trkpt lat="46.75577" lon="5.62739">
        <ele>431.77</ele>
        <time>2013-04-21T12:22:37Z</time>
      </trkpt>
      <trkpt lat="46.75578" lon="5.62724">
        <ele>433.69</ele>
        <time>2013-04-21T12:22:47Z</time>
      </trkpt>
      <trkpt lat="46.75579" lon="5.62717">
        <ele>434.65</ele>
        <time>2013-04-21T12:22:52Z</time>
      </trkpt>
      <trkpt lat="46.75586" lon="5.627">
        <ele>436.58</ele>
        <time>2013-04-21T12:23:07Z</time>
      </trkpt>
      <trkpt lat="46.75595" lon="5.62693">
        <ele>438.02</ele>
        <time>2013-04-21T12:23:21Z</time>
      </trkpt>
      <trkpt lat="46.75607" lon="5.62692">
        <ele>439.46</ele>
        <time>2013-04-21T12:23:34Z</time>
      </trkpt>
      <trkpt lat="46.75619" lon="5.62682">
        <ele>440.9</ele>
        <time>2013-04-21T12:23:46Z</time>
      </trkpt>
      <trkpt lat="46.7563" lon="5.62669">
        <ele>442.34</ele>
        <time>2013-04-21T12:23:56Z</time>
      </trkpt>
      <trkpt lat="46.75635" lon="5.62651">
        <ele>444.27</ele>
        <time>2013-04-21T12:24:12Z</time>
      </trkpt>
      <trkpt lat="46.75634" lon="5.62627">
        <ele>446.19</ele>
        <time>2013-04-21T12:24:28Z</time>
      </trkpt>
      <trkpt lat="46.75636" lon="5.62619">
        <ele>445.71</ele>
        <time>2013-04-21T12:24:33Z</time>
      </trkpt>
      <trkpt lat="46.75639" lon="5.62602">
        <ele>445.23</ele>
        <time>2013-04-21T12:24:47Z</time>
      </trkpt>
      <trkpt lat="46.75643" lon="5.62603">
        <ele>445.23</ele>
        <time>2013-04-21T12:25:10Z</time>
      </trkpt>
      <trkpt lat="46.7565" lon="5.62591">
        <ele>446.19</ele>
        <time>2013-04-21T12:25:29Z</time>
      </trkpt>
      <trkpt lat="46.75652" lon="5.62579">
        <ele>446.67</ele>
        <time>2013-04-21T12:25:41Z</time>
      </trkpt>
      <trkpt lat="46.75652" lon="5.62563">
        <ele>446.67</ele>
        <time>2013-04-21T12:25:54Z</time>
      </trkpt>
      <trkpt lat="46.75656" lon="5.62537">
        <ele>446.67</ele>
        <time>2013-04-21T12:26:10Z</time>
      </trkpt>
      <trkpt lat="46.75658" lon="5.62533">
        <ele>446.67</ele>
        <time>2013-04-21T12:26:14Z</time>
      </trkpt>
      <trkpt lat="46.75663" lon="5.62535">
        <ele>446.67</ele>
        <time>2013-04-21T12:26:27Z</time>
      </trkpt>
      <trkpt lat="46.75664" lon="5.62539">
        <ele>446.19</ele>
        <time>2013-04-21T12:26:47Z</time>
      </trkpt>
      <trkpt lat="46.75667" lon="5.62538">
        <ele>446.67</ele>
        <time>2013-04-21T12:27:20Z</time>
      </trkpt>
      <trkpt lat="46.75664" lon="5.62535">
        <ele>446.19</ele>
        <time>2013-04-21T12:27:50Z</time>
      </trkpt>
      <trkpt lat="46.75662" lon="5.62531">
        <ele>446.19</ele>
        <time>2013-04-21T12:28:23Z</time>
      </trkpt>
      <trkpt lat="46.75655" lon="5.62514">
        <ele>446.19</ele>
        <time>2013-04-21T12:28:39Z</time>
      </trkpt>
      <trkpt lat="46.75655" lon="5.62505">
        <ele>446.19</ele>
        <time>2013-04-21T12:28:51Z</time>
      </trkpt>
      <trkpt lat="46.75652" lon="5.62502">
        <ele>446.19</ele>
        <time>2013-04-21T12:28:56Z</time>
      </trkpt>
      <trkpt lat="46.75651" lon="5.625">
        <ele>448.59</ele>
        <time>2013-04-21T12:28:58Z</time>
      </trkpt>
      <trkpt lat="46.75642" lon="5.62491">
        <ele>446.19</ele>
        <time>2013-04-21T12:29:10Z</time>
      </trkpt>
      <trkpt lat="46.75621" lon="5.62476">
        <ele>445.71</ele>
        <time>2013-04-21T12:29:30Z</time>
      </trkpt>
      <trkpt lat="46.75599" lon="5.62461">
        <ele>444.75</ele>
        <time>2013-04-21T12:29:52Z</time>
      </trkpt>
      <trkpt lat="46.75598" lon="5.62459">
        <ele>444.75</ele>
        <time>2013-04-21T12:29:53Z</time>
      </trkpt>
      <trkpt lat="46.75595" lon="5.62453">
        <ele>444.27</ele>
        <time>2013-04-21T12:29:56Z</time>
      </trkpt>
      <trkpt lat="46.75593" lon="5.6245">
        <ele>444.27</ele>
        <time>2013-04-21T12:29:59Z</time>
      </trkpt>
      <trkpt lat="46.75593" lon="5.62447">
        <ele>444.27</ele>
        <time>2013-04-21T12:30:02Z</time>
      </trkpt>
      <trkpt lat="46.75578" lon="5.62435">
        <ele>443.79</ele>
        <time>2013-04-21T12:30:20Z</time>
      </trkpt>
      <trkpt lat="46.75572" lon="5.62432">
        <ele>443.31</ele>
        <time>2013-04-21T12:30:26Z</time>
      </trkpt>
      <trkpt lat="46.75565" lon="5.62425">
        <ele>442.82</ele>
        <time>2013-04-21T12:30:42Z</time>
      </trkpt>
      <trkpt lat="46.75563" lon="5.62425">
        <ele>442.82</ele>
        <time>2013-04-21T12:31:04Z</time>
      </trkpt>
      <trkpt lat="46.75552" lon="5.62419">
        <ele>442.34</ele>
        <time>2013-04-21T12:31:18Z</time>
      </trkpt>
      <trkpt lat="46.75548" lon="5.62415">
        <ele>442.34</ele>
        <time>2013-04-21T12:31:33Z</time>
      </trkpt>
      <trkpt lat="46.75534" lon="5.62408">
        <ele>441.38</ele>
        <time>2013-04-21T12:31:49Z</time>
      </trkpt>
      <trkpt lat="46.75518" lon="5.62403">
        <ele>439.94</ele>
        <time>2013-04-21T12:32:06Z</time>
      </trkpt>
      <trkpt lat="46.75498" lon="5.62388">
        <ele>438.5</ele>
        <time>2013-04-21T12:32:27Z</time>
      </trkpt>
      <trkpt lat="46.75492" lon="5.62383">
        <ele>438.02</ele>
        <time>2013-04-21T12:32:44Z</time>
      </trkpt>
      <trkpt lat="46.75493" lon="5.62383">
        <ele>438.02</ele>
        <time>2013-04-21T12:33:06Z</time>
      </trkpt>
      <trkpt lat="46.75492" lon="5.62381">
        <ele>438.02</ele>
        <time>2013-04-21T12:33:23Z</time>
      </trkpt>
      <trkpt lat="46.75483" lon="5.62379">
        <ele>437.06</ele>
        <time>2013-04-21T12:33:37Z</time>
      </trkpt>
      <trkpt lat="46.75477" lon="5.62378">
        <ele>436.58</ele>
        <time>2013-04-21T12:33:53Z</time>
      </trkpt>
      <trkpt lat="46.75474" lon="5.62376">
        <ele>436.58</ele>
        <time>2013-04-21T12:34:11Z</time>
      </trkpt>
      <trkpt lat="46.75473" lon="5.62375">
        <ele>436.58</ele>
        <time>2013-04-21T12:34:28Z</time>
      </trkpt>
      <trkpt lat="46.75471" lon="5.62379">
        <ele>436.58</ele>
        <time>2013-04-21T12:34:51Z</time>
      </trkpt>
      <trkpt lat="46.75462" lon="5.62387">
        <ele>436.1</ele>
        <time>2013-04-21T12:35:07Z</time>
      </trkpt>
      <trkpt lat="46.75455" lon="5.62397">
        <ele>436.58</ele>
        <time>2013-04-21T12:35:23Z</time>
      </trkpt>
      <trkpt lat="46.75451" lon="5.62397">
        <ele>436.58</ele>
        <time>2013-04-21T12:35:38Z</time>
      </trkpt>
      <trkpt lat="46.75447" lon="5.62409">
        <ele>437.06</ele>
        <time>2013-04-21T12:35:58Z</time>
      </trkpt>
      <trkpt lat="46.75443" lon="5.62421">
        <ele>438.02</ele>
        <time>2013-04-21T12:36:08Z</time>
      </trkpt>
      <trkpt lat="46.75435" lon="5.62439">
        <ele>439.46</ele>
        <time>2013-04-21T12:36:24Z</time>
      </trkpt>
      <trkpt lat="46.75427" lon="5.62449">
        <ele>440.42</ele>
        <time>2013-04-21T12:36:38Z</time>
      </trkpt>
      <trkpt lat="46.75416" lon="5.62448">
        <ele>441.38</ele>
        <time>2013-04-21T12:36:53Z</time>
      </trkpt>
      <trkpt lat="46.75411" lon="5.62454">
        <ele>441.38</ele>
        <time>2013-04-21T12:37:11Z</time>
      </trkpt>
      <trkpt lat="46.754" lon="5.62452">
        <ele>441.38</ele>
        <time>2013-04-21T12:37:25Z</time>
      </trkpt>
      <trkpt lat="46.75389" lon="5.62447">
        <ele>439.94</ele>
        <time>2013-04-21T12:37:40Z</time>
      </trkpt>
      <trkpt lat="46.75387" lon="5.62447">
        <ele>439.94</ele>
        <time>2013-04-21T12:37:52Z</time>
      </trkpt>
      <trkpt lat="46.75385" lon="5.62453">
        <ele>440.9</ele>
        <time>2013-04-21T12:38:07Z</time>
      </trkpt>
      <trkpt lat="46.7537" lon="5.62475">
        <ele>440.9</ele>
        <time>2013-04-21T12:38:24Z</time>
      </trkpt>
      <trkpt lat="46.75377" lon="5.62449">
        <ele>440.9</ele>
        <time>2013-04-21T12:38:34Z</time>
      </trkpt>
      <trkpt lat="46.75387" lon="5.62438">
        <ele>439.46</ele>
        <time>2013-04-21T12:38:53Z</time>
      </trkpt>
      <trkpt lat="46.75371" lon="5.62444">
        <ele>438.98</ele>
        <time>2013-04-21T12:39:04Z</time>
      </trkpt>
      <trkpt lat="46.75364" lon="5.62444">
        <ele>438.98</ele>
        <time>2013-04-21T12:39:19Z</time>
      </trkpt>
      <trkpt lat="46.75364" lon="5.62442">
        <ele>438.98</ele>
        <time>2013-04-21T12:39:42Z</time>
      </trkpt>
      <trkpt lat="46.75366" lon="5.62437">
        <ele>438.98</ele>
        <time>2013-04-21T12:40:07Z</time>
      </trkpt>
      <trkpt lat="46.75364" lon="5.62436">
        <ele>438.98</ele>
        <time>2013-04-21T12:40:40Z</time>
      </trkpt>
      <trkpt lat="46.75363" lon="5.62433">
        <ele>439.46</ele>
        <time>2013-04-21T12:41:11Z</time>
      </trkpt>
      <trkpt lat="46.75363" lon="5.6244">
        <ele>439.46</ele>
        <time>2013-04-21T12:41:36Z</time>
      </trkpt>
      <trkpt lat="46.75361" lon="5.62447">
        <ele>439.46</ele>
        <time>2013-04-21T12:42:03Z</time>
      </trkpt>
      <trkpt lat="46.75363" lon="5.6244">
        <ele>439.46</ele>
        <time>2013-04-21T12:42:37Z</time>
      </trkpt>
      <trkpt lat="46.75363" lon="5.62436">
        <ele>439.94</ele>
        <time>2013-04-21T12:43:10Z</time>
      </trkpt>
      <trkpt lat="46.75364" lon="5.62436">
        <ele>439.94</ele>
        <time>2013-04-21T12:43:37Z</time>
      </trkpt>
      <trkpt lat="46.75363" lon="5.62437">
        <ele>439.94</ele>
        <time>2013-04-21T12:44:06Z</time>
      </trkpt>
      <trkpt lat="46.75351" lon="5.62444">
        <ele>439.46</ele>
        <time>2013-04-21T12:44:24Z</time>
      </trkpt>
      <trkpt lat="46.75345" lon="5.62439">
        <ele>438.98</ele>
        <time>2013-04-21T12:44:39Z</time>
      </trkpt>
      <trkpt lat="46.75338" lon="5.62424">
        <ele>436.58</ele>
        <time>2013-04-21T12:44:56Z</time>
      </trkpt>
      <trkpt lat="46.75327" lon="5.62417">
        <ele>434.17</ele>
        <time>2013-04-21T12:45:11Z</time>
      </trkpt>
      <trkpt lat="46.75324" lon="5.62403">
        <ele>433.69</ele>
        <time>2013-04-21T12:45:26Z</time>
      </trkpt>
      <trkpt lat="46.75324" lon="5.62399">
        <ele>433.69</ele>
        <time>2013-04-21T12:45:47Z</time>
      </trkpt>
      <trkpt lat="46.75324" lon="5.62397">
        <ele>434.17</ele>
        <time>2013-04-21T12:46:09Z</time>
      </trkpt>
      <trkpt lat="46.75325" lon="5.62397">
        <ele>434.17</ele>
        <time>2013-04-21T12:46:30Z</time>
      </trkpt>
      <trkpt lat="46.75315" lon="5.62396">
        <ele>434.17</ele>
        <time>2013-04-21T12:46:46Z</time>
      </trkpt>
      <trkpt lat="46.75312" lon="5.624">
        <ele>434.65</ele>
        <time>2013-04-21T12:47:06Z</time>
      </trkpt>
      <trkpt lat="46.75312" lon="5.62402">
        <ele>434.65</ele>
        <time>2013-04-21T12:47:31Z</time>
      </trkpt>
      <trkpt lat="46.7531" lon="5.62405">
        <ele>434.65</ele>
        <time>2013-04-21T12:47:45Z</time>
      </trkpt>
      <trkpt lat="46.75311" lon="5.62402">
        <ele>434.65</ele>
        <time>2013-04-21T12:48:05Z</time>
      </trkpt>
      <trkpt lat="46.7531" lon="5.62403">
        <ele>434.65</ele>
        <time>2013-04-21T12:48:17Z</time>
      </trkpt>
      <trkpt lat="46.7531" lon="5.624">
        <ele>434.65</ele>
        <time>2013-04-21T12:48:30Z</time>
      </trkpt>
      <trkpt lat="46.75311" lon="5.624">
        <ele>433.21</ele>
        <time>2013-04-21T12:48:44Z</time>
      </trkpt>
      <trkpt lat="46.75313" lon="5.62404">
        <ele>433.21</ele>
        <time>2013-04-21T12:49:21Z</time>
      </trkpt>
      <trkpt lat="46.75314" lon="5.62404">
        <ele>433.69</ele>
        <time>2013-04-21T12:49:59Z</time>
      </trkpt>
      <trkpt lat="46.75312" lon="5.62402">
        <ele>433.69</ele>
        <time>2013-04-21T12:50:33Z</time>
      </trkpt>
      <trkpt lat="46.75311" lon="5.62402">
        <ele>435.13</ele>
        <time>2013-04-21T12:51:02Z</time>
      </trkpt>
      <trkpt lat="46.75312" lon="5.62402">
        <ele>435.13</ele>
        <time>2013-04-21T12:51:20Z</time>
      </trkpt>
      <trkpt lat="46.75315" lon="5.62406">
        <ele>435.13</ele>
        <time>2013-04-21T12:51:37Z</time>
      </trkpt>
      <trkpt lat="46.75327" lon="5.62416">
        <ele>435.61</ele>
        <time>2013-04-21T12:51:54Z</time>
      </trkpt>
      <trkpt lat="46.75338" lon="5.62421">
        <ele>438.5</ele>
        <time>2013-04-21T12:52:08Z</time>
      </trkpt>
      <trkpt lat="46.75343" lon="5.62425">
        <ele>438.98</ele>
        <time>2013-04-21T12:52:14Z</time>
      </trkpt>
      <trkpt lat="46.75349" lon="5.62442">
        <ele>440.9</ele>
        <time>2013-04-21T12:52:29Z</time>
      </trkpt>
      <trkpt lat="46.75352" lon="5.62443">
        <ele>440.9</ele>
        <time>2013-04-21T12:52:32Z</time>
      </trkpt>
      <trkpt lat="46.75368" lon="5.6244">
        <ele>441.38</ele>
        <time>2013-04-21T12:52:48Z</time>
      </trkpt>
      <trkpt lat="46.7538" lon="5.6244">
        <ele>441.38</ele>
        <time>2013-04-21T12:53:00Z</time>
      </trkpt>
      <trkpt lat="46.75385" lon="5.62444">
        <ele>441.86</ele>
        <time>2013-04-21T12:53:10Z</time>
      </trkpt>
      <trkpt lat="46.75408" lon="5.62451">
        <ele>442.82</ele>
        <time>2013-04-21T12:53:25Z</time>
      </trkpt>
      <trkpt lat="46.75409" lon="5.62453">
        <ele>443.31</ele>
        <time>2013-04-21T12:53:27Z</time>
      </trkpt>
      <trkpt lat="46.75412" lon="5.62463">
        <ele>443.79</ele>
        <time>2013-04-21T12:53:34Z</time>
      </trkpt>
      <trkpt lat="46.75415" lon="5.6247">
        <ele>444.27</ele>
        <time>2013-04-21T12:53:39Z</time>
      </trkpt>
      <trkpt lat="46.75418" lon="5.62473">
        <ele>444.75</ele>
        <time>2013-04-21T12:53:42Z</time>
      </trkpt>
      <trkpt lat="46.75428" lon="5.62487">
        <ele>445.71</ele>
        <time>2013-04-21T12:53:57Z</time>
      </trkpt>
      <trkpt lat="46.75433" lon="5.625">
        <ele>446.19</ele>
        <time>2013-04-21T12:54:11Z</time>
      </trkpt>
      <trkpt lat="46.75429" lon="5.62511">
        <ele>446.67</ele>
        <time>2013-04-21T12:54:26Z</time>
      </trkpt>
      <trkpt lat="46.7544" lon="5.62517">
        <ele>447.15</ele>
        <time>2013-04-21T12:54:46Z</time>
      </trkpt>
      <trkpt lat="46.75442" lon="5.62534">
        <ele>448.59</ele>
        <time>2013-04-21T12:55:00Z</time>
      </trkpt>
      <trkpt lat="46.75442" lon="5.62536">
        <ele>448.59</ele>
        <time>2013-04-21T12:55:01Z</time>
      </trkpt>
      <trkpt lat="46.75446" lon="5.62542">
        <ele>449.07</ele>
        <time>2013-04-21T12:55:05Z</time>
      </trkpt>
      <trkpt lat="46.75448" lon="5.62562">
        <ele>450.03</ele>
        <time>2013-04-21T12:55:18Z</time>
      </trkpt>
      <trkpt lat="46.75449" lon="5.62577">
        <ele>451</ele>
        <time>2013-04-21T12:55:31Z</time>
      </trkpt>
      <trkpt lat="46.75448" lon="5.62579">
        <ele>451</ele>
        <time>2013-04-21T12:55:33Z</time>
      </trkpt>
      <trkpt lat="46.75436" lon="5.62594">
        <ele>451.96</ele>
        <time>2013-04-21T12:55:46Z</time>
      </trkpt>
      <trkpt lat="46.75431" lon="5.62599">
        <ele>452.44</ele>
        <time>2013-04-21T12:56:00Z</time>
      </trkpt>
      <trkpt lat="46.75441" lon="5.62618">
        <ele>452.92</ele>
        <time>2013-04-21T12:56:13Z</time>
      </trkpt>
      <trkpt lat="46.75449" lon="5.62636">
        <ele>453.88</ele>
        <time>2013-04-21T12:56:26Z</time>
      </trkpt>
      <trkpt lat="46.75439" lon="5.62648">
        <ele>454.36</ele>
        <time>2013-04-21T12:56:43Z</time>
      </trkpt>
      <trkpt lat="46.75438" lon="5.6265">
        <ele>454.36</ele>
        <time>2013-04-21T12:57:07Z</time>
      </trkpt>
      <trkpt lat="46.75432" lon="5.62656">
        <ele>454.84</ele>
        <time>2013-04-21T12:57:29Z</time>
      </trkpt>
      <trkpt lat="46.75424" lon="5.62658">
        <ele>455.32</ele>
        <time>2013-04-21T12:57:45Z</time>
      </trkpt>
      <trkpt lat="46.75418" lon="5.62664">
        <ele>455.8</ele>
        <time>2013-04-21T12:58:05Z</time>
      </trkpt>
      <trkpt lat="46.75413" lon="5.62667">
        <ele>456.28</ele>
        <time>2013-04-21T12:58:23Z</time>
      </trkpt>
      <trkpt lat="46.75405" lon="5.62672">
        <ele>456.76</ele>
        <time>2013-04-21T12:58:39Z</time>
      </trkpt>
      <trkpt lat="46.75405" lon="5.62667">
        <ele>456.76</ele>
        <time>2013-04-21T12:59:00Z</time>
      </trkpt>
      <trkpt lat="46.75405" lon="5.62671">
        <ele>456.76</ele>
        <time>2013-04-21T12:59:28Z</time>
      </trkpt>
      <trkpt lat="46.75407" lon="5.62669">
        <ele>456.76</ele>
        <time>2013-04-21T12:59:53Z</time>
      </trkpt>
      <trkpt lat="46.75407" lon="5.62668">
        <ele>456.76</ele>
        <time>2013-04-21T13:00:17Z</time>
      </trkpt>
      <trkpt lat="46.75407" lon="5.62668">
        <ele>456.76</ele>
        <time>2013-04-21T13:00:36Z</time>
      </trkpt>
      <trkpt lat="46.75409" lon="5.62667">
        <ele>457.24</ele>
        <time>2013-04-21T13:00:54Z</time>
      </trkpt>
      <trkpt lat="46.75407" lon="5.62667">
        <ele>457.24</ele>
        <time>2013-04-21T13:01:28Z</time>
      </trkpt>
      <trkpt lat="46.75408" lon="5.62665">
        <ele>457.24</ele>
        <time>2013-04-21T13:01:59Z</time>
      </trkpt>
      <trkpt lat="46.75407" lon="5.62665">
        <ele>457.24</ele>
        <time>2013-04-21T13:02:23Z</time>
      </trkpt>
      <trkpt lat="46.75406" lon="5.62666">
        <ele>457.24</ele>
        <time>2013-04-21T13:02:51Z</time>
      </trkpt>
      <trkpt lat="46.75407" lon="5.62667">
        <ele>457.24</ele>
        <time>2013-04-21T13:03:24Z</time>
      </trkpt>
      <trkpt lat="46.75407" lon="5.62667">
        <ele>457.24</ele>
        <time>2013-04-21T13:03:44Z</time>
      </trkpt>
      <trkpt lat="46.75408" lon="5.62668">
        <ele>457.24</ele>
        <time>2013-04-21T13:04:08Z</time>
      </trkpt>
      <trkpt lat="46.75408" lon="5.62667">
        <ele>457.24</ele>
        <time>2013-04-21T13:04:40Z</time>
      </trkpt>
      <trkpt lat="46.7541" lon="5.62666">
        <ele>457.24</ele>
        <time>2013-04-21T13:04:56Z</time>
      </trkpt>
      <trkpt lat="46.75421" lon="5.62663">
        <ele>456.76</ele>
        <time>2013-04-21T13:05:16Z</time>
      </trkpt>
      <trkpt lat="46.75436" lon="5.62647">
        <ele>455.32</ele>
        <time>2013-04-21T13:05:36Z</time>
      </trkpt>
      <trkpt lat="46.75448" lon="5.62637">
        <ele>454.84</ele>
        <time>2013-04-21T13:05:53Z</time>
      </trkpt>
      <trkpt lat="46.75452" lon="5.62639">
        <ele>454.36</ele>
        <time>2013-04-21T13:06:22Z</time>
      </trkpt>
      <trkpt lat="46.75448" lon="5.62637">
        <ele>454.36</ele>
        <time>2013-04-21T13:06:46Z</time>
      </trkpt>
      <trkpt lat="46.75453" lon="5.62639">
        <ele>454.84</ele>
        <time>2013-04-21T13:07:12Z</time>
      </trkpt>
      <trkpt lat="46.75457" lon="5.62634">
        <ele>454.36</ele>
        <time>2013-04-21T13:07:29Z</time>
      </trkpt>
      <trkpt lat="46.75462" lon="5.62629">
        <ele>454.36</ele>
        <time>2013-04-21T13:07:45Z</time>
      </trkpt>
      <trkpt lat="46.75473" lon="5.62615">
        <ele>452.92</ele>
        <time>2013-04-21T13:08:03Z</time>
      </trkpt>
      <trkpt lat="46.75486" lon="5.626">
        <ele>451.96</ele>
        <time>2013-04-21T13:08:18Z</time>
      </trkpt>
      <trkpt lat="46.75496" lon="5.62592">
        <ele>451</ele>
        <time>2013-04-21T13:08:35Z</time>
      </trkpt>
      <trkpt lat="46.75498" lon="5.62592">
        <ele>451</ele>
        <time>2013-04-21T13:08:41Z</time>
      </trkpt>
      <trkpt lat="46.75515" lon="5.62585">
        <ele>449.55</ele>
        <time>2013-04-21T13:08:57Z</time>
      </trkpt>
      <trkpt lat="46.75526" lon="5.62577">
        <ele>448.59</ele>
        <time>2013-04-21T13:09:13Z</time>
      </trkpt>
      <trkpt lat="46.75544" lon="5.62574">
        <ele>448.11</ele>
        <time>2013-04-21T13:09:29Z</time>
      </trkpt>
      <trkpt lat="46.75561" lon="5.62569">
        <ele>447.15</ele>
        <time>2013-04-21T13:09:46Z</time>
      </trkpt>
      <trkpt lat="46.75579" lon="5.62564">
        <ele>446.67</ele>
        <time>2013-04-21T13:10:03Z</time>
      </trkpt>
      <trkpt lat="46.7559" lon="5.62561">
        <ele>446.67</ele>
        <time>2013-04-21T13:10:18Z</time>
      </trkpt>
      <trkpt lat="46.7561" lon="5.62575">
        <ele>447.15</ele>
        <time>2013-04-21T13:10:35Z</time>
      </trkpt>
      <trkpt lat="46.75615" lon="5.62591">
        <ele>447.63</ele>
        <time>2013-04-21T13:10:49Z</time>
      </trkpt>
      <trkpt lat="46.75617" lon="5.62594">
        <ele>447.63</ele>
        <time>2013-04-21T13:10:51Z</time>
      </trkpt>
      <trkpt lat="46.75635" lon="5.62612">
        <ele>447.15</ele>
        <time>2013-04-21T13:11:09Z</time>
      </trkpt>
      <trkpt lat="46.75638" lon="5.62617">
        <ele>447.15</ele>
        <time>2013-04-21T13:11:14Z</time>
      </trkpt>
      <trkpt lat="46.75641" lon="5.62641">
        <ele>446.67</ele>
        <time>2013-04-21T13:11:29Z</time>
      </trkpt>
      <trkpt lat="46.75636" lon="5.62666">
        <ele>444.27</ele>
        <time>2013-04-21T13:11:46Z</time>
      </trkpt>
      <trkpt lat="46.75634" lon="5.62674">
        <ele>443.79</ele>
        <time>2013-04-21T13:11:52Z</time>
      </trkpt>
      <trkpt lat="46.75623" lon="5.62688">
        <ele>441.38</ele>
        <time>2013-04-21T13:12:05Z</time>
      </trkpt>
      <trkpt lat="46.75618" lon="5.62693">
        <ele>439.94</ele>
        <time>2013-04-21T13:12:10Z</time>
      </trkpt>
      <trkpt lat="46.75612" lon="5.62694">
        <ele>440.9</ele>
        <time>2013-04-21T13:12:15Z</time>
      </trkpt>
      <trkpt lat="46.75596" lon="5.62698">
        <ele>438.98</ele>
        <time>2013-04-21T13:12:30Z</time>
      </trkpt>
      <trkpt lat="46.75586" lon="5.6271">
        <ele>437.06</ele>
        <time>2013-04-21T13:12:43Z</time>
      </trkpt>
      <trkpt lat="46.75581" lon="5.6273">
        <ele>435.13</ele>
        <time>2013-04-21T13:12:57Z</time>
      </trkpt>
      <trkpt lat="46.75581" lon="5.62754">
        <ele>431.77</ele>
        <time>2013-04-21T13:13:11Z</time>
      </trkpt>
      <trkpt lat="46.75581" lon="5.6276">
        <ele>431.77</ele>
        <time>2013-04-21T13:13:14Z</time>
      </trkpt>
      <trkpt lat="46.75585" lon="5.62782">
        <ele>429.37</ele>
        <time>2013-04-21T13:13:28Z</time>
      </trkpt>
      <trkpt lat="46.75585" lon="5.62794">
        <ele>428.4</ele>
        <time>2013-04-21T13:13:36Z</time>
      </trkpt>
      <trkpt lat="46.75589" lon="5.62818">
        <ele>425.52</ele>
        <time>2013-04-21T13:13:52Z</time>
      </trkpt>
      <trkpt lat="46.75591" lon="5.62834">
        <ele>423.6</ele>
        <time>2013-04-21T13:14:04Z</time>
      </trkpt>
      <trkpt lat="46.75596" lon="5.62853">
        <ele>421.19</ele>
        <time>2013-04-21T13:14:17Z</time>
      </trkpt>
      <trkpt lat="46.756" lon="5.6287">
        <ele>418.79</ele>
        <time>2013-04-21T13:14:30Z</time>
      </trkpt>
      <trkpt lat="46.756" lon="5.62883">
        <ele>417.35</ele>
        <time>2013-04-21T13:14:40Z</time>
      </trkpt>
      <trkpt lat="46.75601" lon="5.629">
        <ele>415.43</ele>
        <time>2013-04-21T13:14:52Z</time>
      </trkpt>
      <trkpt lat="46.75604" lon="5.62914">
        <ele>413.98</ele>
        <time>2013-04-21T13:15:04Z</time>
      </trkpt>
      <trkpt lat="46.75602" lon="5.62927">
        <ele>412.06</ele>
        <time>2013-04-21T13:15:15Z</time>
      </trkpt>
      <trkpt lat="46.75604" lon="5.62929">
        <ele>411.58</ele>
        <time>2013-04-21T13:15:18Z</time>
      </trkpt>
      <trkpt lat="46.75645" lon="5.62942">
        <ele>409.66</ele>
        <time>2013-04-21T13:15:34Z</time>
      </trkpt>
      <trkpt lat="46.75653" lon="5.62949">
        <ele>408.22</ele>
        <time>2013-04-21T13:15:46Z</time>
      </trkpt>
      <trkpt lat="46.75652" lon="5.6295">
        <ele>408.22</ele>
        <time>2013-04-21T13:15:47Z</time>
      </trkpt>
      <trkpt lat="46.75656" lon="5.62971">
        <ele>407.74</ele>
        <time>2013-04-21T13:16:01Z</time>
      </trkpt>
      <trkpt lat="46.75656" lon="5.62973">
        <ele>407.74</ele>
        <time>2013-04-21T13:16:02Z</time>
      </trkpt>
      <trkpt lat="46.75659" lon="5.62982">
        <ele>407.26</ele>
        <time>2013-04-21T13:16:07Z</time>
      </trkpt>
      <trkpt lat="46.75661" lon="5.62998">
        <ele>406.77</ele>
        <time>2013-04-21T13:16:18Z</time>
      </trkpt>
      <trkpt lat="46.75662" lon="5.63016">
        <ele>406.29</ele>
        <time>2013-04-21T13:16:31Z</time>
      </trkpt>
      <trkpt lat="46.75669" lon="5.63033">
        <ele>405.33</ele>
        <time>2013-04-21T13:16:42Z</time>
      </trkpt>
      <trkpt lat="46.75668" lon="5.63053">
        <ele>404.37</ele>
        <time>2013-04-21T13:16:57Z</time>
      </trkpt>
      <trkpt lat="46.7567" lon="5.63063">
        <ele>401.49</ele>
        <time>2013-04-21T13:17:08Z</time>
      </trkpt>
      <trkpt lat="46.75677" lon="5.63074">
        <ele>398.6</ele>
        <time>2013-04-21T13:17:19Z</time>
      </trkpt>
      <trkpt lat="46.75689" lon="5.63092">
        <ele>396.2</ele>
        <time>2013-04-21T13:17:33Z</time>
      </trkpt>
      <trkpt lat="46.75693" lon="5.63105">
        <ele>394.28</ele>
        <time>2013-04-21T13:17:44Z</time>
      </trkpt>
      <trkpt lat="46.75705" lon="5.6311">
        <ele>391.39</ele>
        <time>2013-04-21T13:17:58Z</time>
      </trkpt>
      <trkpt lat="46.75724" lon="5.63105">
        <ele>388.99</ele>
        <time>2013-04-21T13:18:10Z</time>
      </trkpt>
      <trkpt lat="46.75738" lon="5.63093">
        <ele>386.11</ele>
        <time>2013-04-21T13:18:22Z</time>
      </trkpt>
      <trkpt lat="46.75742" lon="5.63075">
        <ele>384.18</ele>
        <time>2013-04-21T13:18:37Z</time>
      </trkpt>
      <trkpt lat="46.7574" lon="5.63054">
        <ele>384.18</ele>
        <time>2013-04-21T13:18:51Z</time>
      </trkpt>
      <trkpt lat="46.75737" lon="5.63036">
        <ele>383.7</ele>
        <time>2013-04-21T13:19:01Z</time>
      </trkpt>
      <trkpt lat="46.75734" lon="5.6301">
        <ele>382.74</ele>
        <time>2013-04-21T13:19:16Z</time>
      </trkpt>
      <trkpt lat="46.75736" lon="5.62984">
        <ele>381.78</ele>
        <time>2013-04-21T13:19:32Z</time>
      </trkpt>
      <trkpt lat="46.75745" lon="5.62959">
        <ele>380.34</ele>
        <time>2013-04-21T13:19:45Z</time>
      </trkpt>
      <trkpt lat="46.75746" lon="5.62935">
        <ele>378.9</ele>
        <time>2013-04-21T13:19:57Z</time>
      </trkpt>
      <trkpt lat="46.75747" lon="5.62903">
        <ele>376.97</ele>
        <time>2013-04-21T13:20:12Z</time>
      </trkpt>
      <trkpt lat="46.75751" lon="5.62883">
        <ele>375.05</ele>
        <time>2013-04-21T13:20:24Z</time>
      </trkpt>
      <trkpt lat="46.7576" lon="5.62857">
        <ele>372.65</ele>
        <time>2013-04-21T13:20:38Z</time>
      </trkpt>
      <trkpt lat="46.75771" lon="5.62846">
        <ele>370.73</ele>
        <time>2013-04-21T13:20:51Z</time>
      </trkpt>
      <trkpt lat="46.75782" lon="5.62831">
        <ele>368.32</ele>
        <time>2013-04-21T13:21:05Z</time>
      </trkpt>
      <trkpt lat="46.7579" lon="5.62823">
        <ele>367.36</ele>
        <time>2013-04-21T13:21:14Z</time>
      </trkpt>
      <trkpt lat="46.758" lon="5.62807">
        <ele>364.96</ele>
        <time>2013-04-21T13:21:28Z</time>
      </trkpt>
      <trkpt lat="46.75806" lon="5.62797">
        <ele>363.52</ele>
        <time>2013-04-21T13:21:38Z</time>
      </trkpt>
      <trkpt lat="46.75816" lon="5.62782">
        <ele>362.07</ele>
        <time>2013-04-21T13:21:51Z</time>
      </trkpt>
      <trkpt lat="46.75821" lon="5.6277">
        <ele>360.63</ele>
        <time>2013-04-21T13:22:02Z</time>
      </trkpt>
      <trkpt lat="46.75828" lon="5.62757">
        <ele>358.23</ele>
        <time>2013-04-21T13:22:14Z</time>
      </trkpt>
      <trkpt lat="46.75835" lon="5.62742">
        <ele>355.83</ele>
        <time>2013-04-21T13:22:27Z</time>
      </trkpt>
      <trkpt lat="46.75839" lon="5.62726">
        <ele>352.46</ele>
        <time>2013-04-21T13:22:41Z</time>
      </trkpt>
      <trkpt lat="46.75838" lon="5.6271">
        <ele>349.58</ele>
        <time>2013-04-21T13:22:54Z</time>
      </trkpt>
      <trkpt lat="46.75837" lon="5.62691">
        <ele>346.69</ele>
        <time>2013-04-21T13:23:07Z</time>
      </trkpt>
      <trkpt lat="46.75835" lon="5.62667">
        <ele>343.33</ele>
        <time>2013-04-21T13:23:20Z</time>
      </trkpt>
      <trkpt lat="46.75829" lon="5.62648">
        <ele>340.44</ele>
        <time>2013-04-21T13:23:34Z</time>
      </trkpt>
      <trkpt lat="46.75827" lon="5.62628">
        <ele>337.56</ele>
        <time>2013-04-21T13:23:48Z</time>
      </trkpt>
      <trkpt lat="46.75823" lon="5.62613">
        <ele>334.68</ele>
        <time>2013-04-21T13:24:00Z</time>
      </trkpt>
      <trkpt lat="46.75819" lon="5.62595">
        <ele>331.79</ele>
        <time>2013-04-21T13:24:13Z</time>
      </trkpt>
      <trkpt lat="46.75817" lon="5.62575">
        <ele>328.91</ele>
        <time>2013-04-21T13:24:27Z</time>
      </trkpt>
      <trkpt lat="46.75818" lon="5.62544">
        <ele>325.54</ele>
        <time>2013-04-21T13:24:40Z</time>
      </trkpt>
      <trkpt lat="46.75818" lon="5.62521">
        <ele>322.66</ele>
        <time>2013-04-21T13:24:52Z</time>
      </trkpt>
      <trkpt lat="46.75821" lon="5.62498">
        <ele>319.3</ele>
        <time>2013-04-21T13:25:03Z</time>
      </trkpt>
      <trkpt lat="46.75821" lon="5.62477">
        <ele>315.93</ele>
        <time>2013-04-21T13:25:15Z</time>
      </trkpt>
      <trkpt lat="46.75824" lon="5.62458">
        <ele>313.05</ele>
        <time>2013-04-21T13:25:26Z</time>
      </trkpt>
      <trkpt lat="46.75825" lon="5.62437">
        <ele>309.68</ele>
        <time>2013-04-21T13:25:38Z</time>
      </trkpt>
      <trkpt lat="46.75835" lon="5.62404">
        <ele>307.28</ele>
        <time>2013-04-21T13:25:51Z</time>
      </trkpt>
      <trkpt lat="46.75845" lon="5.62368">
        <ele>303.43</ele>
        <time>2013-04-21T13:26:06Z</time>
      </trkpt>
      <trkpt lat="46.75861" lon="5.62321">
        <ele>300.55</ele>
        <time>2013-04-21T13:26:22Z</time>
      </trkpt>
      <trkpt lat="46.75865" lon="5.62277">
        <ele>297.18</ele>
        <time>2013-04-21T13:26:42Z</time>
      </trkpt>
      <trkpt lat="46.75862" lon="5.62244">
        <ele>294.3</ele>
        <time>2013-04-21T13:27:00Z</time>
      </trkpt>
      <trkpt lat="46.75864" lon="5.62234">
        <ele>293.34</ele>
        <time>2013-04-21T13:27:07Z</time>
      </trkpt>
      <trkpt lat="46.75865" lon="5.62201">
        <ele>291.42</ele>
        <time>2013-04-21T13:27:27Z</time>
      </trkpt>
      <trkpt lat="46.75861" lon="5.62173">
        <ele>289.01</ele>
        <time>2013-04-21T13:27:45Z</time>
      </trkpt>
      <trkpt lat="46.75857" lon="5.62134">
        <ele>286.61</ele>
        <time>2013-04-21T13:28:09Z</time>
      </trkpt>
      <trkpt lat="46.75854" lon="5.62096">
        <ele>283.73</ele>
        <time>2013-04-21T13:28:31Z</time>
      </trkpt>
      <trkpt lat="46.75855" lon="5.62056">
        <ele>281.32</ele>
        <time>2013-04-21T13:28:53Z</time>
      </trkpt>
      <trkpt lat="46.75859" lon="5.62013">
        <ele>278.44</ele>
        <time>2013-04-21T13:29:17Z</time>
      </trkpt>
      <trkpt lat="46.75863" lon="5.61978">
        <ele>276.04</ele>
        <time>2013-04-21T13:29:37Z</time>
      </trkpt>
      <trkpt lat="46.75867" lon="5.61939">
        <ele>273.15</ele>
        <time>2013-04-21T13:29:59Z</time>
      </trkpt>
      <trkpt lat="46.75871" lon="5.61924">
        <ele>271.23</ele>
        <time>2013-04-21T13:30:10Z</time>
      </trkpt>
      <trkpt lat="46.75881" lon="5.61909">
        <ele>269.31</ele>
        <time>2013-04-21T13:30:22Z</time>
      </trkpt>
      <trkpt lat="46.75897" lon="5.61893">
        <ele>266.42</ele>
        <time>2013-04-21T13:30:38Z</time>
      </trkpt>
      <trkpt lat="46.75914" lon="5.61866">
        <ele>264.5</ele>
        <time>2013-04-21T13:30:57Z</time>
      </trkpt>
      <trkpt lat="46.75915" lon="5.61843">
        <ele>261.62</ele>
        <time>2013-04-21T13:31:12Z</time>
      </trkpt>
      <trkpt lat="46.75909" lon="5.61811">
        <ele>258.73</ele>
        <time>2013-04-21T13:31:30Z</time>
      </trkpt>
      <trkpt lat="46.75906" lon="5.6179">
        <ele>256.81</ele>
        <time>2013-04-21T13:31:43Z</time>
      </trkpt>
      <trkpt lat="46.75906" lon="5.61766">
        <ele>255.37</ele>
        <time>2013-04-21T13:31:57Z</time>
      </trkpt>
      <trkpt lat="46.75904" lon="5.61752">
        <ele>254.41</ele>
        <time>2013-04-21T13:32:05Z</time>
      </trkpt>
      <trkpt lat="46.75897" lon="5.61729">
        <ele>253.44</ele>
        <time>2013-04-21T13:32:21Z</time>
      </trkpt>
      <trkpt lat="46.75887" lon="5.61713">
        <ele>252</ele>
        <time>2013-04-21T13:32:38Z</time>
      </trkpt>
      <trkpt lat="46.75886" lon="5.61711">
        <ele>252.48</ele>
        <time>2013-04-21T13:32:40Z</time>
      </trkpt>
      <trkpt lat="46.75879" lon="5.61691">
        <ele>251.04</ele>
        <time>2013-04-21T13:32:53Z</time>
      </trkpt>
      <trkpt lat="46.75867" lon="5.61663">
        <ele>249.6</ele>
        <time>2013-04-21T13:33:11Z</time>
      </trkpt>
      <trkpt lat="46.75853" lon="5.61642">
        <ele>249.12</ele>
        <time>2013-04-21T13:33:27Z</time>
      </trkpt>
      <trkpt lat="46.75842" lon="5.61616">
        <ele>248.64</ele>
        <time>2013-04-21T13:33:45Z</time>
      </trkpt>
      <trkpt lat="46.75828" lon="5.61595">
        <ele>248.16</ele>
        <time>2013-04-21T13:34:03Z</time>
      </trkpt>
      <trkpt lat="46.7581" lon="5.61573">
        <ele>248.16</ele>
        <time>2013-04-21T13:34:23Z</time>
      </trkpt>
      <trkpt lat="46.7579" lon="5.61556">
        <ele>248.64</ele>
        <time>2013-04-21T13:34:41Z</time>
      </trkpt>
      <trkpt lat="46.75774" lon="5.61525">
        <ele>249.6</ele>
        <time>2013-04-21T13:35:03Z</time>
      </trkpt>
      <trkpt lat="46.75758" lon="5.61497">
        <ele>249.12</ele>
        <time>2013-04-21T13:35:25Z</time>
      </trkpt>
      <trkpt lat="46.75752" lon="5.61486">
        <ele>249.12</ele>
        <time>2013-04-21T13:35:34Z</time>
      </trkpt>
      <trkpt lat="46.75739" lon="5.61466">
        <ele>248.64</ele>
        <time>2013-04-21T13:35:51Z</time>
      </trkpt>
      <trkpt lat="46.75728" lon="5.61449">
        <ele>248.64</ele>
        <time>2013-04-21T13:36:07Z</time>
      </trkpt>
      <trkpt lat="46.75723" lon="5.61431">
        <ele>249.12</ele>
        <time>2013-04-21T13:36:21Z</time>
      </trkpt>
      <trkpt lat="46.7572" lon="5.61424">
        <ele>248.64</ele>
        <time>2013-04-21T13:36:25Z</time>
      </trkpt>
      <trkpt lat="46.75705" lon="5.61393">
        <ele>249.6</ele>
        <time>2013-04-21T13:36:44Z</time>
      </trkpt>
      <trkpt lat="46.75689" lon="5.61364">
        <ele>249.6</ele>
        <time>2013-04-21T13:37:05Z</time>
      </trkpt>
      <trkpt lat="46.75676" lon="5.61349">
        <ele>249.6</ele>
        <time>2013-04-21T13:37:21Z</time>
      </trkpt>
      <trkpt lat="46.75666" lon="5.61321">
        <ele>250.08</ele>
        <time>2013-04-21T13:37:39Z</time>
      </trkpt>
      <trkpt lat="46.75653" lon="5.61304">
        <ele>250.08</ele>
        <time>2013-04-21T13:37:53Z</time>
      </trkpt>
      <trkpt lat="46.75637" lon="5.61286">
        <ele>250.56</ele>
        <time>2013-04-21T13:38:11Z</time>
      </trkpt>
      <trkpt lat="46.75626" lon="5.61272">
        <ele>251.52</ele>
        <time>2013-04-21T13:38:25Z</time>
      </trkpt>
    </trkseg>
  </trk>
</gpx>